PC1250 / TC-CRE 7700 Squawk Report (16th of October, 2019)

Aircraft B738 Reg No. TC-CRE Age 1 years old
Model 737 Jet engines 2 First flight 06-07-18
Registered 23-07-18 Rollout N/A Delivered 23-07-18
Construction No. 63703 Line No. 7047 Series 800
ADSHEX 4B8E45 Airline name Pegasus Airlines Owner N/A
Airfield based Antalya~Antalya~TC First tracked 2018-07-30 21:40:00

Flight history for TC-CRE

Route Flight No Date Playback
Ercan International Airport (ECN) - Adnan Menderes (ADB) PC1863 2019-11-21 19:57:00
Adnan Menderes (ADB) - Ercan International Airport (ECN) PC1862 2019-11-21 18:58:00
Berlin Schonefeld (SXF) - Sabiha Gokcen (SAW) PC978 2019-11-21 17:28:00
???? PC4116 2019-11-21 14:47:00
???? PC987 2019-11-21 11:20:00
Adnan Menderes (ADB) - Sabiha Gokcen (SAW) PC2187 2019-11-21 10:33:00
Sabiha Gokcen (SAW) - Adnan Menderes (ADB) PC2186 2019-11-21 08:14:00
Adana (ADA) - Sabiha Gokcen (SAW) PC2095 2019-11-21 06:24:00
Sabiha Gokcen (SAW) - Adana (ADA) PC2094 2019-11-20 16:57:00
Adana (ADA) - Sabiha Gokcen (SAW) PC2091 2019-11-20 14:59:00
???? PC4170 2019-11-20 13:49:00
Ben Gurion (TLV) - Sabiha Gokcen (SAW) PC796 2019-11-20 11:40:00
Sabiha Gokcen (SAW) - Ben Gurion (TLV) PC795 2019-11-20 07:08:00
King Khaled Intl (RUH) - Sabiha Gokcen (SAW) PC691 2019-11-20 03:48:00
Sabiha Gokcen (SAW) - King Khaled Intl (RUH) PC690 2019-11-19 23:50:00
Hamburg (HAM) - Sabiha Gokcen (SAW) PC1046 2019-11-19 18:32:00
Sabiha Gokcen (SAW) - Hamburg (HAM) PC1045 2019-11-19 13:38:00
???? N/A 2019-11-19 10:45:00
???? N/A 2019-11-19 06:56:00
Adnan Menderes (ADB) - Sabiha Gokcen (SAW) PC2213 2019-11-19 04:45:00
Time Lat Lon Altitude Heading Speed Vertical Rate
2019-10-16 14:35:03 GMT 40.903301 29.310822 0 286 5 0
2019-10-16 14:34:58 GMT 40.903267 29.310928 0 264 4 0
2019-10-16 14:32:23 GMT 40.903263 29.311024 0 244 0 0
2019-10-16 14:32:09 GMT 40.903255 29.311020 0 244 0 0
2019-10-16 14:32:01 GMT 40.903263 29.311024 0 244 0 0
2019-10-16 14:31:55 GMT 40.903267 29.311020 0 244 2 0
2019-10-16 14:31:42 GMT 40.903404 29.311399 0 244 11 0
2019-10-16 14:31:35 GMT 40.903576 29.311874 0 244 13 0
2019-10-16 14:31:22 GMT 40.903893 29.312725 0 244 12 0
2019-10-16 14:31:15 GMT 40.904057 29.313171 0 244 11 0
2019-10-16 14:31:05 GMT 40.904251 29.313692 0 244 10 0
2019-10-16 14:31:00 GMT 40.904346 29.313957 0 278 10 0
2019-10-16 14:30:53 GMT 40.904182 29.314346 0 331 11 0
2019-10-16 14:30:41 GMT 40.903614 29.314722 0 334 13 0
2019-10-16 14:30:32 GMT 40.903206 29.314957 0 354 10 0
2019-10-16 14:30:20 GMT 40.902752 29.314863 0 36 8 0
2019-10-16 14:30:11 GMT 40.902546 29.314636 0 42 7 0
2019-10-16 14:30:00 GMT 40.902306 29.314362 0 39 6 0
2019-10-16 14:29:50 GMT 40.902100 29.314131 0 33 6 0
2019-10-16 14:29:40 GMT 40.901882 29.313950 0 33 5 0
2019-10-16 14:29:25 GMT 40.901745 29.313828 0 33 0 0
2019-10-16 14:28:34 GMT 40.901722 29.313812 0 33 0 0
2019-10-16 14:28:24 GMT 40.901722 29.313797 0 33 0 0
2019-10-16 14:27:54 GMT 40.901722 29.313812 0 33 0 0
2019-10-16 14:27:20 GMT 40.901714 29.313803 0 33 0 0
2019-10-16 14:27:05 GMT 40.901722 29.313812 0 33 0 0
2019-10-16 14:26:39 GMT 40.901714 29.313803 0 33 0 0
2019-10-16 14:26:28 GMT 40.901577 29.313677 0 33 12 0
2019-10-16 14:26:16 GMT 40.900829 29.313038 0 33 23 0
2019-10-16 14:26:07 GMT 40.899921 29.312038 0 45 36 0
2019-10-16 14:25:53 GMT 40.898266 29.308456 0 64 70 0
2019-10-16 14:25:45 GMT 40.896927 29.304871 150 64 104 -64
2019-10-16 14:25:35 GMT 40.894547 29.298340 175 63 135 128
2019-10-16 14:25:25 GMT 40.891617 29.290405 300 64 139 -896
2019-10-16 14:25:14 GMT 40.888550 29.282288 425 63 135 -704
2019-10-16 14:25:02 GMT 40.884293 29.270508 775 65 136 -1024
2019-10-16 14:24:52 GMT 40.882324 29.264832 775 63 136 -768
2019-10-16 14:24:43 GMT 40.879288 29.256655 875 63 136 -832
2019-10-16 14:24:40 GMT 40.879288 29.256655 900 64 140 -896
2019-10-16 14:24:29 GMT 40.876190 29.248230 1,050 64 144 -896
2019-10-16 14:24:22 GMT 40.874084 29.242554 1,150 64 151 -832
2019-10-16 14:24:19 GMT 40.873005 29.239613 1,200 64 154 -960
2019-10-16 14:24:11 GMT 40.870770 29.233433 1,325 64 160 -1024
2019-10-16 14:24:07 GMT 40.869370 29.229614 1,400 63 163 -1024
2019-10-16 14:24:01 GMT 40.867279 29.224007 1,500 63 169 -1024
2019-10-16 14:23:58 GMT 40.866440 29.221741 1,525 63 170 -896
2019-10-16 14:23:55 GMT 40.865341 29.218872 1,575 63 172 -1024
2019-10-16 14:23:48 GMT 40.862549 29.211426 1,725 63 178 -1024
2019-10-16 14:23:45 GMT 40.861366 29.208214 1,775 63 181 -1088
2019-10-16 14:23:40 GMT 40.859619 29.203674 1,875 63 185 -1024
2019-10-16 14:23:37 GMT 40.858429 29.200439 1,925 63 187 -1088
2019-10-16 14:23:33 GMT 40.856895 29.196354 2,000 63 189 -1216
2019-10-16 14:23:29 GMT 40.855637 29.193054 2,050 63 192 -1152
2019-10-16 14:23:25 GMT 40.854103 29.188927 2,125 64 194 -1216
2019-10-16 14:23:22 GMT 40.852295 29.183960 2,225 64 195 -1216
2019-10-16 14:23:19 GMT 40.851471 29.181702 2,275 64 195 -1216
2019-10-16 14:23:12 GMT 40.848938 29.174820 2,400 64 195 -1088
2019-10-16 14:23:08 GMT 40.847214 29.170044 2,475 64 197 -1024
2019-10-16 14:23:03 GMT 40.845428 29.165161 2,550 64 197 -1216
2019-10-16 14:23:00 GMT 40.843872 29.160950 2,650 64 197 -1216
2019-10-16 14:22:57 GMT 40.843071 29.158714 2,675 64 197 -1216
2019-10-16 14:22:51 GMT 40.840420 29.151596 2,825 64 198 -1152
2019-10-16 14:22:47 GMT 40.838882 29.147278 2,850 64 198 -1152
2019-10-16 14:22:41 GMT 40.836136 29.139526 3,025 64 198 -1152
2019-10-16 14:22:37 GMT 40.834900 29.135986 3,100 64 199 -1152
2019-10-16 14:22:30 GMT 40.831879 29.127869 3,225 63 199 -1152
2019-10-16 14:22:26 GMT 40.830551 29.124390 3,275 63 199 -1216
2019-10-16 14:22:19 GMT 40.825989 29.113083 3,475 59 199 -768
2019-10-16 14:22:15 GMT 40.825989 29.113083 3,475 59 199 -768
2019-10-16 14:22:08 GMT 40.821842 29.104530 3,550 55 205 -576
2019-10-16 14:22:05 GMT 40.820446 29.101784 3,600 56 206 -576
2019-10-16 14:21:58 GMT 40.817001 29.094856 3,675 58 209 -832
2019-10-16 14:21:54 GMT 40.815079 29.090759 3,725 58 209 -896
2019-10-16 14:21:47 GMT 40.811371 29.082642 3,850 58 213 -896
2019-10-16 14:21:44 GMT 40.809723 29.079041 3,850 58 213 -896
2019-10-16 14:21:37 GMT 40.806061 29.071198 4,000 58 214 -1216
2019-10-16 14:21:34 GMT 40.804550 29.067871 4,075 58 213 -1344
2019-10-16 14:21:26 GMT 40.800476 29.059151 4,225 58 214 -1024
2019-10-16 14:21:22 GMT 40.798737 29.055481 4,275 57 214 -896
2019-10-16 14:21:12 GMT 40.793243 29.043884 4,400 58 219 -448
2019-10-16 14:21:01 GMT 40.787487 29.031748 4,500 58 226 -640
2019-10-16 14:20:51 GMT 40.781109 29.018139 4,600 57 235 -128
2019-10-16 14:20:40 GMT 40.774796 29.004395 4,650 61 242 -448
2019-10-16 14:20:31 GMT 40.770630 28.991821 4,700 71 247 -384
2019-10-16 14:20:28 GMT 40.770031 28.989550 4,725 72 248 -448
2019-10-16 14:20:18 GMT 40.767658 28.973194 4,825 84 251 -320
2019-10-16 14:20:10 GMT 40.766819 28.959648 4,875 85 255 -384
2019-10-16 14:20:07 GMT 40.766586 28.955715 4,875 85 257 -384
2019-10-16 14:19:59 GMT 40.765934 28.943981 4,925 85 262 -384
2019-10-16 14:19:56 GMT 40.765610 28.938488 4,950 85 264 -384
2019-10-16 14:19:48 GMT 40.764866 28.926378 5,000 85 268 -448
2019-10-16 14:19:45 GMT 40.764492 28.920822 5,000 85 270 -384
2019-10-16 14:19:37 GMT 40.763580 28.907227 5,075 85 277 -448
2019-10-16 14:19:33 GMT 40.763283 28.902533 5,075 85 279 -448
2019-10-16 14:19:26 GMT 40.762302 28.887863 5,150 84 285 -384
2019-10-16 14:19:22 GMT 40.762024 28.883743 5,150 84 287 -384
2019-10-16 14:19:16 GMT 40.761200 28.871155 5,200 84 294 -384
2019-10-16 14:19:12 GMT 40.760674 28.863831 5,225 84 297 -384
2019-10-16 14:19:05 GMT 40.759930 28.852034 5,275 85 303 -320
2019-10-16 14:19:00 GMT 40.759369 28.843872 5,300 85 307 -320
2019-10-16 14:18:55 GMT 40.758766 28.834181 5,325 85 314 -384
2019-10-16 14:18:49 GMT 40.757996 28.822266 5,375 85 319 -832
2019-10-16 14:18:43 GMT 40.757263 28.810486 5,475 85 322 -1216
2019-10-16 14:18:38 GMT 40.756668 28.801453 5,600 85 324 -1856
2019-10-16 14:18:35 GMT 40.756252 28.794666 5,725 85 324 -2048
2019-10-16 14:18:32 GMT 40.755878 28.789297 5,825 85 324 -2112
2019-10-16 14:18:28 GMT 40.755295 28.779785 6,000 85 324 -2112
2019-10-16 14:18:22 GMT 40.754517 28.767456 6,225 85 325 -2176
2019-10-16 14:18:17 GMT 40.753922 28.758240 6,400 85 324 -2496
2019-10-16 14:18:11 GMT 40.753086 28.745291 6,675 85 322 -2688
2019-10-16 14:18:05 GMT 40.752480 28.735802 6,900 85 321 -2560
2019-10-16 14:18:00 GMT 40.751316 28.717262 7,275 85 319 -2368
2019-10-16 14:17:55 GMT 40.751179 28.715141 7,325 85 319 -2368
2019-10-16 14:17:45 GMT 40.750107 28.696976 7,675 85 318 -2240
2019-10-16 14:17:41 GMT 40.749710 28.690186 7,825 85 318 -2304
2019-10-16 14:17:31 GMT 40.748383 28.669573 8,225 85 319 -2176
2019-10-16 14:17:23 GMT 40.747314 28.652407 8,600 85 320 -1920
2019-10-16 14:17:20 GMT 40.747082 28.649284 8,575 85 320 -1920
2019-10-16 14:17:09 GMT 40.745686 28.627625 9,200 85 327 -1856
2019-10-16 14:16:58 GMT 40.744308 28.606628 9,200 85 327 -1856
2019-10-16 14:16:48 GMT 40.742939 28.585552 9,400 85 335 -832
2019-10-16 14:16:36 GMT 40.741333 28.561646 9,575 84 346 -832
2019-10-16 14:16:25 GMT 40.739445 28.536364 9,750 84 355 -1024
2019-10-16 14:16:15 GMT 40.738083 28.515381 9,975 86 361 -2240
2019-10-16 14:16:04 GMT 40.738655 28.490982 10,500 96 365 -2560
2019-10-16 14:15:56 GMT 40.742020 28.466370 10,975 105 368 -2496
2019-10-16 14:15:45 GMT 40.745964 28.450470 12,625 116 375 -2560
2019-10-16 14:15:41 GMT 40.748978 28.441345 11,500 115 372 -2560
2019-10-16 14:15:35 GMT 40.753738 28.428871 11,750 116 374 -2688
2019-10-16 14:15:31 GMT 40.756714 28.421204 11,925 116 375 -2560
2019-10-16 14:15:24 GMT 40.762024 28.407398 12,200 116 377 -2432
2019-10-16 14:15:19 GMT 40.765778 28.397705 12,375 116 380 -2432
2019-10-16 14:15:14 GMT 40.770218 28.386112 12,625 116 381 -2304
2019-10-16 14:15:09 GMT 40.774548 28.374752 12,825 116 384 -2496
2019-10-16 14:15:03 GMT 40.778736 28.363829 13,350 116 385 -3008
2019-10-16 14:14:56 GMT 40.784088 28.349783 13,400 116 385 -2880
2019-10-16 14:14:52 GMT 40.787704 28.340393 13,625 116 385 -3136
2019-10-16 14:14:45 GMT 40.796127 28.318420 14,150 116 387 -2496
2019-10-16 14:14:41 GMT 40.802673 28.301331 14,150 116 387 -2496
2019-10-16 14:14:34 GMT 40.802673 28.301331 14,500 116 388 -3008
2019-10-16 14:14:21 GMT 40.812927 28.274536 15,175 116 387 -3456
2019-10-16 14:14:10 GMT 40.821579 28.252075 15,825 116 384 -3456
2019-10-16 14:13:59 GMT 40.830505 28.228821 16,425 116 381 -3392
2019-10-16 14:13:49 GMT 40.838333 28.208374 17,000 116 377 -3136
2019-10-16 14:13:39 GMT 40.846115 28.188110 18,200 116 379 -2304
2019-10-16 14:13:29 GMT 40.854309 28.166565 17,900 116 381 -2240
2019-10-16 14:13:22 GMT 40.859665 28.152466 18,050 118 384 -2304
2019-10-16 14:13:17 GMT 40.863739 28.141724 18,225 116 383 -2304
2019-10-16 14:13:09 GMT 40.872910 28.119820 19,125 122 385 -2240
2019-10-16 14:13:06 GMT 40.872910 28.119820 18,600 121 385 -2240
2019-10-16 14:12:58 GMT 40.881012 28.103840 18,975 123 385 -2240
2019-10-16 14:12:55 GMT 40.884384 28.097900 19,075 127 388 -2304
2019-10-16 14:12:51 GMT 40.889626 28.089294 19,275 139 394 -2496
2019-10-16 14:12:44 GMT 40.896423 28.079163 19,475 133 391 -2304
2019-10-16 14:12:38 GMT 40.906998 28.065491 19,800 139 394 -2496
2019-10-16 14:12:35 GMT 40.910526 28.061455 19,900 139 394 -2496
2019-10-16 14:12:32 GMT 40.912666 28.059019 19,975 139 394 -2496
2019-10-16 14:12:24 GMT 40.924576 28.045776 20,325 139 394 -2496
2019-10-16 14:12:15 GMT 40.938171 28.030640 20,850 139 395 -2560
2019-10-16 14:12:03 GMT 40.953918 28.013062 21,250 139 398 -2560
2019-10-16 14:11:51 GMT 40.969788 27.995350 21,800 139 398 -2560
2019-10-16 14:11:39 GMT 40.987289 27.975708 22,225 139 399 -2560
2019-10-16 14:11:29 GMT 41.002651 27.958458 22,675 139 400 -2496
2019-10-16 14:11:18 GMT 41.017410 27.941853 23,125 139 401 -2624
2019-10-16 14:11:08 GMT 41.032379 27.925049 23,600 139 402 -2560
2019-10-16 14:11:05 GMT 41.035984 27.921066 23,700 139 403 -2624
2019-10-16 14:10:59 GMT 41.044968 27.911011 23,975 139 403 -2624
2019-10-16 14:10:53 GMT 41.051952 27.903214 24,175 139 403 -2624
2019-10-16 14:10:47 GMT 41.060120 27.894104 24,550 139 405 -2560
2019-10-16 14:10:44 GMT 41.066521 27.886984 24,625 139 405 -2560
2019-10-16 14:10:37 GMT 41.076462 27.875916 25,000 139 405 -2560
2019-10-16 14:10:32 GMT 41.084015 27.867493 25,125 139 405 -2560
2019-10-16 14:10:26 GMT 41.092255 27.858276 25,525 139 407 -2112
2019-10-16 14:10:22 GMT 41.098225 27.851589 25,625 139 407 -1792
2019-10-16 14:10:15 GMT 41.107861 27.840792 25,750 139 408 -1792
2019-10-16 14:10:10 GMT 41.114548 27.833313 25,825 138 408 -1152
2019-10-16 14:10:07 GMT 41.118073 27.829407 25,875 139 408 -1536
2019-10-16 14:10:04 GMT 41.123779 27.822876 25,975 137 408 -704
2019-10-16 14:09:59 GMT 41.130203 27.815002 26,000 136 408 -192
2019-10-16 14:09:56 GMT 41.133884 27.810204 26,000 134 408 0
2019-10-16 14:09:53 GMT 41.138260 27.804016 26,000 131 408 0
2019-10-16 14:09:46 GMT 41.146641 27.790854 26,000 126 409 0
2019-10-16 14:09:42 GMT 41.151199 27.782801 26,000 125 409 0
2019-10-16 14:09:38 GMT 41.155197 27.775024 26,000 121 410 0
2019-10-16 14:09:34 GMT 41.158768 27.767395 26,000 120 409 0
2019-10-16 14:09:31 GMT 41.162003 27.759705 26,000 114 408 0
2019-10-16 14:09:28 GMT 41.165131 27.751465 26,000 114 408 0
2019-10-16 14:09:25 GMT 41.166611 27.747095 26,000 112 408 64
2019-10-16 14:09:19 GMT 41.171310 27.731739 26,000 111 407 64
2019-10-16 14:09:14 GMT 41.174431 27.721003 26,000 111 406 0
2019-10-16 14:09:09 GMT 41.178268 27.707886 26,000 111 405 -448
2019-10-16 14:09:02 GMT 41.182434 27.693665 26,075 111 404 -896
2019-10-16 14:08:58 GMT 41.185322 27.683737 26,150 111 400 -832
2019-10-16 14:08:53 GMT 41.188583 27.672564 26,200 111 399 -832
2019-10-16 14:08:46 GMT 41.193096 27.657021 26,300 111 397 -832
2019-10-16 14:08:42 GMT 41.195847 27.647705 26,425 111 393 -832
2019-10-16 14:08:36 GMT 41.200172 27.632799 26,500 111 391 -832
2019-10-16 14:08:29 GMT 41.204502 27.618006 26,525 111 389 -832
2019-10-16 14:08:25 GMT 41.206924 27.609703 26,600 111 387 -832
2019-10-16 14:08:21 GMT 41.210129 27.598755 26,675 111 384 -832
2019-10-16 14:08:14 GMT 41.213699 27.586609 26,775 111 381 -896
2019-10-16 14:08:09 GMT 41.217026 27.575184 26,850 110 377 -896
2019-10-16 14:08:04 GMT 41.220520 27.563171 26,925 111 376 -896
2019-10-16 14:07:58 GMT 41.224007 27.551964 27,025 113 375 -960
2019-10-16 14:07:54 GMT 41.227203 27.542847 27,125 118 378 -1152
2019-10-16 14:07:48 GMT 41.232239 27.530151 27,200 119 379 -1280
2019-10-16 14:07:43 GMT 41.237694 27.517942 27,350 122 380 -1984
2019-10-16 14:07:36 GMT 41.242863 27.507706 27,525 125 380 -1984
2019-10-16 14:07:33 GMT 41.249241 27.496346 27,750 129 382 -1984
2019-10-16 14:07:24 GMT 41.256317 27.485107 27,950 130 382 -1984
2019-10-16 14:07:20 GMT 41.261204 27.478054 28,075 133 382 -2048
2019-10-16 14:07:16 GMT 41.268860 27.467651 28,300 134 383 -2112
2019-10-16 14:07:10 GMT 41.274330 27.460201 28,450 134 384 -2048
2019-10-16 14:07:07 GMT 41.276798 27.456894 28,525 134 384 -1984
2019-10-16 14:07:04 GMT 41.281311 27.450806 28,750 134 388 -1088
2019-10-16 14:07:00 GMT 41.285458 27.445160 28,700 134 388 -1088
2019-10-16 14:06:56 GMT 41.291245 27.437195 28,775 134 393 -1280
2019-10-16 14:06:51 GMT 41.298569 27.427246 28,900 134 394 -1408
2019-10-16 14:06:47 GMT 41.302414 27.421997 28,975 134 395 -1792
2019-10-16 14:06:43 GMT 41.307755 27.414696 29,125 134 397 -2048
2019-10-16 14:06:39 GMT 41.313080 27.407410 29,250 134 396 -2112
2019-10-16 14:06:35 GMT 41.317532 27.401276 29,375 134 397 -2048
2019-10-16 14:06:30 GMT 41.325726 27.390163 29,600 134 399 -2176
2019-10-16 14:06:27 GMT 41.334663 27.377993 29,800 134 400 -2112
2019-10-16 14:06:22 GMT 41.334663 27.377993 29,850 134 400 -2112
2019-10-16 14:06:19 GMT 41.338440 27.372864 29,975 134 401 -2048
2019-10-16 14:06:16 GMT 41.348602 27.359070 30,150 134 402 -2112
2019-10-16 14:06:12 GMT 41.348602 27.359070 30,225 134 403 -2112
2019-10-16 14:06:08 GMT 41.360405 27.343037 30,475 134 403 -2112
2019-10-16 14:06:03 GMT 41.360405 27.343037 30,525 134 405 -2048
2019-10-16 14:05:57 GMT 41.366776 27.334351 30,750 134 406 -2112
2019-10-16 14:05:54 GMT 41.370834 27.328865 30,825 134 406 -2048
2019-10-16 14:05:51 GMT 41.374420 27.323975 31,025 134 409 -2176
2019-10-16 14:05:47 GMT 41.380470 27.315819 31,125 134 409 -2176
2019-10-16 14:05:44 GMT 41.384491 27.310364 31,200 134 409 -2112
2019-10-16 14:05:39 GMT 41.391724 27.300589 31,375 134 410 -2176
2019-10-16 14:05:36 GMT 41.397263 27.293098 31,525 134 412 -2048
2019-10-16 14:05:28 GMT 41.406693 27.280363 31,775 134 413 -2112
2019-10-16 14:05:25 GMT 41.410767 27.274933 31,875 134 415 -2112
2019-10-16 14:05:19 GMT 41.419716 27.262701 32,100 134 417 -1856
2019-10-16 14:05:13 GMT 41.427254 27.252481 32,225 134 420 -1216
2019-10-16 14:05:06 GMT 41.435635 27.241049 32,375 134 426 -1344
2019-10-16 14:05:03 GMT 41.439926 27.235231 32,425 134 427 -1664
2019-10-16 14:04:54 GMT 41.455887 27.213390 32,875 134 429 -2496
2019-10-16 14:04:45 GMT 41.470139 27.194035 33,225 134 432 -2432
2019-10-16 14:04:32 GMT 41.484146 27.174870 33,725 134 433 -2368
2019-10-16 14:04:20 GMT 41.499737 27.153540 34,100 134 434 -1792
2019-10-16 14:04:10 GMT 41.513763 27.134295 34,350 134 435 -1024
2019-10-16 14:04:04 GMT 41.522278 27.122747 34,450 134 436 -1024
2019-10-16 14:04:01 GMT 41.526783 27.116556 34,575 134 436 -1024
2019-10-16 14:03:58 GMT 41.529831 27.112448 34,550 134 437 -1024
2019-10-16 14:03:48 GMT 41.544525 27.092535 34,725 134 439 -1024
2019-10-16 14:03:39 GMT 41.561966 27.067190 34,925 129 445 -896
2019-10-16 14:03:28 GMT 41.573475 27.048851 35,050 129 447 -960
2019-10-16 14:03:25 GMT 41.575432 27.045721 35,300 129 447 -960
2019-10-16 14:03:14 GMT 41.589584 27.023109 35,225 129 448 -960
2019-10-16 14:03:03 GMT 41.609436 26.991222 35,475 129 448 -960
2019-10-16 14:02:54 GMT 41.616852 26.979239 35,550 129 448 -960
2019-10-16 14:02:51 GMT 41.621098 26.972458 35,625 129 448 -960
2019-10-16 14:02:43 GMT 41.631851 26.955084 35,750 129 448 -960
2019-10-16 14:02:39 GMT 41.636929 26.946844 35,800 129 447 -960
2019-10-16 14:02:34 GMT 41.643585 26.936049 35,900 129 446 -960
2019-10-16 14:02:31 GMT 41.647522 26.929674 35,950 129 446 -960
2019-10-16 14:02:21 GMT 41.660110 26.909349 36,100 129 444 -960
2019-10-16 14:02:18 GMT 41.664673 26.902067 36,125 129 444 -960
2019-10-16 14:02:11 GMT 41.677612 26.881310 36,375 129 441 -960
2019-10-16 14:01:58 GMT 41.691422 26.859262 36,475 129 441 -960
2019-10-16 14:01:51 GMT 41.700935 26.843943 36,600 129 441 -960
2019-10-16 14:01:47 GMT 41.705685 26.836279 36,650 129 440 -960
2019-10-16 14:01:44 GMT 41.708817 26.831173 36,700 129 440 -960
2019-10-16 14:01:39 GMT 41.715317 26.820747 36,800 129 440 -1024
2019-10-16 14:01:36 GMT 41.720581 26.812321 36,850 129 440 -1024
2019-10-16 14:01:30 GMT 41.726990 26.802084 36,900 129 440 -960
2019-10-16 14:01:26 GMT 41.733490 26.791597 37,050 129 440 -960
2019-10-16 14:01:23 GMT 41.737244 26.785542 37,050 129 442 -960
2019-10-16 14:01:20 GMT 41.740952 26.779612 37,100 129 443 -896
2019-10-16 14:01:15 GMT 41.746307 26.770996 37,150 129 443 -960
2019-10-16 14:01:12 GMT 41.750141 26.764803 37,200 129 443 -960
2019-10-16 14:01:09 GMT 41.755260 26.756500 37,275 129 444 -960
2019-10-16 14:01:05 GMT 41.759266 26.750048 37,325 129 444 -896
2019-10-16 14:01:01 GMT 41.764385 26.741745 37,500 129 446 -960
2019-10-16 14:00:54 GMT 41.774826 26.724867 37,500 129 446 -960
2019-10-16 14:00:47 GMT 41.783379 26.711149 37,600 129 446 -960
2019-10-16 14:00:44 GMT 41.786591 26.705912 37,650 129 446 -960
2019-10-16 14:00:37 GMT 41.796600 26.689751 37,775 129 446 -960
2019-10-16 14:00:33 GMT 41.801022 26.682596 37,825 129 446 -896
2019-10-16 14:00:28 GMT 41.807495 26.672058 37,925 129 446 -896
2019-10-16 14:00:25 GMT 41.812042 26.664631 37,950 129 446 -896
2019-10-16 14:00:22 GMT 41.815685 26.658772 37,975 129 446 -896
2019-10-16 14:00:17 GMT 41.821880 26.648680 38,075 129 444 -896
2019-10-16 14:00:14 GMT 41.826965 26.640348 38,150 129 444 -896
2019-10-16 14:00:07 GMT 41.836727 26.624472 38,225 129 443 -960
2019-10-16 14:00:02 GMT 41.843307 26.613756 38,325 129 442 -1024
2019-10-16 13:59:51 GMT 41.855862 26.593557 38,475 129 444 -1024
2019-10-16 13:59:43 GMT 41.867294 26.574305 38,675 126 445 -1024
2019-10-16 13:59:40 GMT 41.870014 26.569412 38,650 125 446 -1024
2019-10-16 13:59:34 GMT 41.881760 26.546528 38,900 122 448 -1024
2019-10-16 13:59:31 GMT 41.881760 26.546528 38,825 122 448 -1024
2019-10-16 13:59:22 GMT 41.891510 26.525866 38,950 122 449 -576
2019-10-16 13:59:19 GMT 41.893753 26.521059 39,000 122 449 -512
2019-10-16 13:59:13 GMT 41.901947 26.503517 39,000 122 449 0
2019-10-16 13:59:10 GMT 41.904694 26.497713 39,000 122 449 0
2019-10-16 13:59:00 GMT 41.915863 26.473804 39,000 121 449 0
2019-10-16 13:58:57 GMT 41.918056 26.469067 39,000 121 449 0
2019-10-16 13:58:48 GMT 41.929230 26.445114 39,000 121 450 0
2019-10-16 13:58:38 GMT 41.940262 26.421495 39,000 121 450 0
2019-10-16 13:58:34 GMT 41.943474 26.414518 39,000 121 450 0
2019-10-16 13:58:29 GMT 41.949051 26.402643 39,000 121 450 0
2019-10-16 13:58:26 GMT 41.952366 26.395420 39,000 121 450 0
2019-10-16 13:58:18 GMT 41.962601 26.373491 39,000 122 450 0
2019-10-16 13:58:14 GMT 41.965816 26.366613 39,000 122 450 0
2019-10-16 13:58:08 GMT 41.972427 26.352432 39,000 122 450 0
2019-10-16 13:58:05 GMT 41.975967 26.344769 39,000 121 450 0
2019-10-16 13:57:59 GMT 41.982437 26.330908 39,000 121 450 0
2019-10-16 13:57:56 GMT 41.987000 26.321070 39,000 121 450 0
2019-10-16 13:57:46 GMT 41.996681 26.300247 39,000 121 450 0
2019-10-16 13:57:43 GMT 42.000175 26.292709 39,000 121 450 0
2019-10-16 13:57:33 GMT 42.011444 26.268435 39,000 121 451 0
2019-10-16 13:57:26 GMT 42.020050 26.249834 39,000 121 451 0
2019-10-16 13:57:22 GMT 42.023621 26.242155 39,000 121 451 0
2019-10-16 13:57:13 GMT 42.033234 26.221432 39,000 121 451 0
2019-10-16 13:57:10 GMT 42.036064 26.215359 39,000 121 451 0
2019-10-16 13:57:05 GMT 42.043030 26.200396 39,000 121 451 0
2019-10-16 13:57:00 GMT 42.047974 26.189657 39,000 121 451 0
2019-10-16 13:56:53 GMT 42.056488 26.171244 39,000 121 451 0
2019-10-16 13:56:46 GMT 42.063171 26.156761 39,000 121 451 0
2019-10-16 13:56:42 GMT 42.067657 26.147024 39,000 121 451 64
2019-10-16 13:56:36 GMT 42.074020 26.133291 39,000 121 451 0
2019-10-16 13:56:33 GMT 42.077408 26.125925 39,000 121 451 0
2019-10-16 13:56:29 GMT 42.082169 26.115562 39,000 121 452 0
2019-10-16 13:56:26 GMT 42.085087 26.109264 39,000 121 452 0
2019-10-16 13:56:23 GMT 42.089184 26.100323 39,000 121 452 0
2019-10-16 13:56:17 GMT 42.094208 26.089283 39,000 121 451 0
2019-10-16 13:56:14 GMT 42.097916 26.081293 39,000 121 451 0
2019-10-16 13:56:10 GMT 42.103100 26.069983 39,000 121 451 0
2019-10-16 13:56:07 GMT 42.106659 26.062317 39,000 121 451 0
2019-10-16 13:55:59 GMT 42.114365 26.045582 39,000 121 451 0
2019-10-16 13:55:54 GMT 42.120300 26.032791 39,000 121 451 0
2019-10-16 13:55:51 GMT 42.131195 26.009195 39,000 121 451 0
2019-10-16 13:55:44 GMT 42.131195 26.009195 39,000 121 451 0
2019-10-16 13:55:39 GMT 42.136944 25.996717 39,000 121 451 0
2019-10-16 13:55:34 GMT 42.142044 25.985662 39,000 121 451 0
2019-10-16 13:55:30 GMT 42.146954 25.975000 39,000 121 451 0
2019-10-16 13:55:27 GMT 42.149189 25.970146 39,000 121 451 0
2019-10-16 13:55:21 GMT 42.156357 25.954561 39,000 121 451 0
2019-10-16 13:55:16 GMT 42.162502 25.941149 39,000 121 451 0
2019-10-16 13:55:12 GMT 42.165993 25.933611 39,000 121 451 0
2019-10-16 13:55:07 GMT 42.171951 25.920645 39,000 121 451 0
2019-10-16 13:55:02 GMT 42.177586 25.908381 39,000 121 451 0
2019-10-16 13:54:57 GMT 42.183029 25.896500 39,000 121 450 0
2019-10-16 13:54:54 GMT 42.187225 25.887346 39,000 121 450 0
2019-10-16 13:54:50 GMT 42.189926 25.881479 39,000 121 450 0
2019-10-16 13:54:46 GMT 42.195599 25.869034 39,000 121 450 0
2019-10-16 13:54:40 GMT 42.202255 25.854534 39,000 121 450 0
2019-10-16 13:54:33 GMT 42.208309 25.841249 39,000 121 450 0
2019-10-16 13:54:30 GMT 42.212814 25.831417 39,000 121 450 0
2019-10-16 13:54:23 GMT 42.219669 25.816465 39,000 121 449 0
2019-10-16 13:54:19 GMT 42.225632 25.803389 39,000 121 449 0
2019-10-16 13:54:11 GMT 42.232376 25.788746 39,000 121 449 0
2019-10-16 13:54:07 GMT 42.237762 25.776922 39,000 121 449 -64
2019-10-16 13:54:02 GMT 42.243896 25.763563 39,000 121 449 0
2019-10-16 13:53:57 GMT 42.249207 25.751953 39,000 121 450 0
2019-10-16 13:53:50 GMT 42.255234 25.738794 39,000 121 450 0
2019-10-16 13:53:42 GMT 42.263901 25.719681 39,000 121 450 0
2019-10-16 13:53:39 GMT 42.267525 25.711714 39,000 121 450 0
2019-10-16 13:53:34 GMT 42.273251 25.699064 39,000 121 450 0
2019-10-16 13:53:28 GMT 42.279629 25.685078 39,000 121 450 0
2019-10-16 13:53:23 GMT 42.285141 25.672926 39,000 121 450 0
2019-10-16 13:53:18 GMT 42.289948 25.662315 39,000 121 450 0
2019-10-16 13:53:12 GMT 42.297409 25.645859 39,000 121 449 0
2019-10-16 13:53:08 GMT 42.301346 25.637220 39,000 121 449 0
2019-10-16 13:53:00 GMT 42.310547 25.616871 39,000 121 450 0
2019-10-16 13:52:56 GMT 42.315536 25.605822 39,000 121 450 0
2019-10-16 13:52:46 GMT 42.324551 25.585880 39,000 121 450 0
2019-10-16 13:52:37 GMT 42.335724 25.561161 39,000 121 450 0
2019-10-16 13:52:25 GMT 42.347626 25.534910 39,000 121 450 0
2019-10-16 13:52:21 GMT 42.353027 25.522863 39,000 121 450 0
2019-10-16 13:52:14 GMT 42.359253 25.509068 39,000 121 450 0
2019-10-16 13:52:10 GMT 42.364426 25.497581 39,000 121 450 0
2019-10-16 13:52:04 GMT 42.370171 25.484833 39,000 121 450 0
2019-10-16 13:51:59 GMT 42.375710 25.472504 39,000 121 450 0
2019-10-16 13:51:53 GMT 42.382507 25.457319 39,000 121 450 0
2019-10-16 13:51:49 GMT 42.386745 25.447977 39,000 121 450 0
2019-10-16 13:51:44 GMT 42.392761 25.434536 39,000 121 450 0
2019-10-16 13:51:39 GMT 42.397659 25.423674 39,000 121 450 0
2019-10-16 13:51:32 GMT 42.404621 25.408119 39,000 121 450 0
2019-10-16 13:51:28 GMT 42.409462 25.397326 39,000 121 450 0
2019-10-16 13:51:20 GMT 42.418533 25.377171 39,000 121 449 0
2019-10-16 13:51:16 GMT 42.422401 25.368645 39,000 121 449 0
2019-10-16 13:51:10 GMT 42.428833 25.354322 39,000 121 449 0
2019-10-16 13:51:05 GMT 42.433994 25.342903 39,000 121 449 0
2019-10-16 13:51:00 GMT 42.440044 25.329554 39,000 121 449 0
2019-10-16 13:50:55 GMT 42.446423 25.315374 39,000 121 449 0
2019-10-16 13:50:48 GMT 42.453175 25.300491 39,000 121 449 0
2019-10-16 13:50:43 GMT 42.458248 25.289186 39,000 121 449 0
2019-10-16 13:50:39 GMT 42.462845 25.278917 39,000 121 450 0
2019-10-16 13:50:36 GMT 42.467377 25.268929 39,000 121 450 0
2019-10-16 13:50:32 GMT 42.470024 25.262934 39,000 121 450 0
2019-10-16 13:50:29 GMT 42.473740 25.254698 39,000 121 450 0
2019-10-16 13:50:26 GMT 42.476303 25.249018 39,000 121 450 0
2019-10-16 13:50:20 GMT 42.482502 25.235275 39,000 121 450 0
2019-10-16 13:50:17 GMT 42.486366 25.226589 39,000 121 450 0
2019-10-16 13:50:08 GMT 42.497040 25.202824 39,000 121 450 -64
2019-10-16 13:50:04 GMT 42.500839 25.194336 39,000 121 450 -64
2019-10-16 13:49:56 GMT 42.519695 25.152048 39,000 121 450 0
2019-10-16 13:49:47 GMT 42.519695 25.152048 39,000 121 449 0
2019-10-16 13:49:44 GMT 42.521805 25.147392 39,000 121 450 0
2019-10-16 13:49:34 GMT 42.533066 25.122112 39,000 121 450 0
2019-10-16 13:49:26 GMT 42.541443 25.103386 39,000 121 450 0
2019-10-16 13:49:23 GMT 42.544601 25.096270 39,000 121 450 0
2019-10-16 13:49:12 GMT 42.555729 25.071440 39,000 121 450 0
2019-10-16 13:49:04 GMT 42.565178 25.050297 39,000 121 449 0
2019-10-16 13:49:00 GMT 42.568771 25.042274 39,000 121 449 0
2019-10-16 13:48:53 GMT 42.589462 24.995770 39,000 121 449 64
2019-10-16 13:48:41 GMT 42.589462 24.995770 39,000 120 448 -64
2019-10-16 13:48:33 GMT 42.597530 24.977610 39,000 120 448 -64
2019-10-16 13:48:30 GMT 42.600815 24.970177 39,000 120 448 0
2019-10-16 13:48:22 GMT 42.609512 24.950575 39,000 120 448 0
2019-10-16 13:48:18 GMT 42.613632 24.941275 39,000 121 448 0
2019-10-16 13:48:13 GMT 42.619553 24.927979 39,000 121 448 0
2019-10-16 13:48:10 GMT 42.623322 24.919483 39,000 121 448 64
2019-10-16 13:48:02 GMT 42.631348 24.901323 39,000 120 448 64
2019-10-16 13:47:59 GMT 42.635193 24.892647 39,000 120 448 0
2019-10-16 13:47:53 GMT 42.640640 24.880329 39,000 120 448 0
2019-10-16 13:47:50 GMT 42.644806 24.870926 39,000 120 448 0
2019-10-16 13:47:41 GMT 42.653824 24.850451 39,000 120 448 0
2019-10-16 13:47:38 GMT 42.656525 24.844334 39,000 120 448 0
2019-10-16 13:47:33 GMT 42.661972 24.831972 39,000 120 448 0
2019-10-16 13:47:30 GMT 42.664627 24.825855 39,000 120 447 0
2019-10-16 13:47:27 GMT 42.669342 24.815182 39,000 120 447 0
2019-10-16 13:47:23 GMT 42.672806 24.807384 39,000 120 447 0
2019-10-16 13:47:20 GMT 42.676071 24.799950 39,000 120 447 0
2019-10-16 13:47:16 GMT 42.680466 24.789900 39,000 120 445 0
2019-10-16 13:47:12 GMT 42.684265 24.781286 39,000 120 447 0
2019-10-16 13:47:05 GMT 42.691986 24.763823 39,000 120 447 0
2019-10-16 13:46:59 GMT 42.698273 24.749514 39,000 120 447 0
2019-10-16 13:46:55 GMT 42.701981 24.741085 39,000 120 447 0
2019-10-16 13:46:51 GMT 42.706745 24.730288 39,000 120 446 0
2019-10-16 13:46:48 GMT 42.709351 24.724348 39,000 120 446 64
2019-10-16 13:46:44 GMT 42.715164 24.711123 39,000 120 446 0
2019-10-16 13:46:41 GMT 42.717312 24.706272 39,000 120 446 0
2019-10-16 13:46:38 GMT 42.720524 24.699055 39,000 120 446 0
2019-10-16 13:46:30 GMT 42.728203 24.681553 39,000 120 445 0
2019-10-16 13:46:27 GMT 42.731743 24.673441 39,000 120 446 0
2019-10-16 13:46:24 GMT 42.734619 24.666927 39,000 120 446 0
2019-10-16 13:46:20 GMT 42.739002 24.656897 39,000 120 445 0
2019-10-16 13:46:14 GMT 42.745422 24.642273 39,000 120 445 0
2019-10-16 13:46:10 GMT 42.749805 24.632242 39,000 120 445 0
2019-10-16 13:46:06 GMT 42.754368 24.621895 39,000 120 445 0
2019-10-16 13:46:01 GMT 42.758560 24.612246 39,000 120 445 0
2019-10-16 13:45:58 GMT 42.762268 24.603882 39,000 120 445 0
2019-10-16 13:45:52 GMT 42.768612 24.589382 39,000 120 445 0
2019-10-16 13:45:49 GMT 42.771263 24.583315 39,000 120 445 0
2019-10-16 13:45:45 GMT 42.776962 24.570360 39,000 120 445 -64
2019-10-16 13:45:41 GMT 42.780670 24.561934 39,000 120 445 0
2019-10-16 13:45:38 GMT 42.783787 24.554764 39,000 120 445 0
2019-10-16 13:45:34 GMT 42.788040 24.545080 39,000 120 445 0
2019-10-16 13:45:31 GMT 42.791050 24.538282 39,000 120 445 0
2019-10-16 13:45:27 GMT 42.801384 24.514650 39,000 120 445 0
2019-10-16 13:45:22 GMT 42.801384 24.514650 39,000 120 445 0
2019-10-16 13:45:17 GMT 42.805622 24.504942 39,000 120 446 0
2019-10-16 13:45:13 GMT 42.809875 24.495296 39,000 120 446 64
2019-10-16 13:45:07 GMT 42.817383 24.478050 39,000 120 446 0
2019-10-16 13:45:03 GMT 42.821075 24.469561 39,000 120 446 0
2019-10-16 13:44:59 GMT 42.825314 24.459883 39,000 120 446 0
2019-10-16 13:44:56 GMT 42.828644 24.452181 39,000 120 446 0
2019-10-16 13:44:51 GMT 42.832443 24.443430 39,000 120 446 0
2019-10-16 13:44:48 GMT 42.836250 24.434706 39,000 120 446 -64
2019-10-16 13:44:45 GMT 42.838806 24.428930 39,000 120 446 0
2019-10-16 13:44:42 GMT 42.843002 24.419271 39,000 120 446 0
2019-10-16 13:44:37 GMT 42.848007 24.407852 39,000 120 446 0
2019-10-16 13:44:33 GMT 42.851303 24.400251 39,000 120 446 -64
2019-10-16 13:44:30 GMT 42.854778 24.392263 39,000 120 446 0
2019-10-16 13:44:27 GMT 42.858353 24.384090 39,000 120 446 0
2019-10-16 13:44:24 GMT 42.861740 24.376299 39,000 120 446 0
2019-10-16 13:44:20 GMT 42.864990 24.368826 39,000 120 446 0
2019-10-16 13:44:17 GMT 42.869247 24.359118 39,000 120 446 0
2019-10-16 13:44:13 GMT 42.872635 24.351324 39,000 120 446 0
2019-10-16 13:44:10 GMT 42.876297 24.342957 39,000 120 447 0
2019-10-16 13:44:07 GMT 42.879547 24.335436 39,000 120 446 0
2019-10-16 13:44:04 GMT 42.882889 24.327818 39,000 120 446 0
2019-10-16 13:43:59 GMT 42.887135 24.318041 39,000 120 446 0
2019-10-16 13:43:56 GMT 42.890205 24.310913 39,000 120 446 0
2019-10-16 13:43:52 GMT 42.898315 24.292303 39,000 120 447 0
2019-10-16 13:43:49 GMT 42.898315 24.292303 39,000 120 447 0
2019-10-16 13:43:45 GMT 42.902451 24.282860 39,000 120 447 0
2019-10-16 13:43:41 GMT 42.906128 24.274357 39,000 120 446 0
2019-10-16 13:43:38 GMT 42.909164 24.267265 39,000 120 446 0
2019-10-16 13:43:35 GMT 42.912457 24.259708 39,000 120 446 0
2019-10-16 13:43:31 GMT 42.916809 24.249763 39,000 120 446 0
2019-10-16 13:43:28 GMT 42.920197 24.241907 39,000 120 446 -64
2019-10-16 13:43:24 GMT 42.924469 24.232113 39,000 120 446 0
2019-10-16 13:43:18 GMT 42.930801 24.217464 39,000 120 446 0
2019-10-16 13:43:15 GMT 42.933918 24.210270 39,000 120 446 0
2019-10-16 13:43:07 GMT 42.942345 24.190847 39,000 120 446 0
2019-10-16 13:43:04 GMT 42.953609 24.164757 39,000 120 446 0
2019-10-16 13:42:57 GMT 42.953609 24.164757 39,000 120 446 0
2019-10-16 13:42:54 GMT 42.955673 24.160021 39,000 120 446 0
2019-10-16 13:42:51 GMT 42.958965 24.152460 39,000 120 446 0
2019-10-16 13:42:48 GMT 42.962177 24.144941 39,000 120 446 0
2019-10-16 13:42:45 GMT 42.966412 24.135132 39,000 120 446 0
2019-10-16 13:42:42 GMT 42.967995 24.131470 39,000 120 445 0
2019-10-16 13:42:34 GMT 42.977352 24.109694 39,000 120 445 0
2019-10-16 13:42:31 GMT 42.979980 24.103685 39,000 120 445 0
2019-10-16 13:42:25 GMT 42.987030 24.087269 39,000 120 443 0
2019-10-16 13:42:18 GMT 42.993256 24.072769 39,000 120 443 0
2019-10-16 13:42:15 GMT 42.996811 24.064505 39,000 120 443 0
2019-10-16 13:42:12 GMT 43.004772 24.046064 39,000 120 442 0
2019-10-16 13:42:07 GMT 43.004772 24.046064 39,000 120 442 0
2019-10-16 13:42:04 GMT 43.010498 24.032724 39,000 120 443 0
2019-10-16 13:41:54 GMT 43.019165 24.012472 39,000 120 443 0
2019-10-16 13:41:51 GMT 43.026047 23.996429 39,000 120 444 0
2019-10-16 13:41:46 GMT 43.026047 23.996429 39,000 120 443 0
2019-10-16 13:41:41 GMT 43.032143 23.982304 39,000 120 444 0
2019-10-16 13:41:36 GMT 43.036285 23.972679 39,000 120 443 0
2019-10-16 13:41:33 GMT 43.040478 23.962948 39,000 120 443 0
2019-10-16 13:41:30 GMT 43.043518 23.955816 39,000 120 443 0
2019-10-16 13:41:26 GMT 43.047455 23.946682 39,000 120 443 0
2019-10-16 13:41:22 GMT 43.052162 23.935743 39,000 120 443 0
2019-10-16 13:41:19 GMT 43.055279 23.928419 39,000 120 443 0
2019-10-16 13:41:16 GMT 43.057888 23.922337 39,000 120 443 0
2019-10-16 13:41:11 GMT 43.066544 23.902225 39,000 120 442 0
2019-10-16 13:41:08 GMT 43.066544 23.902225 39,000 120 442 0
2019-10-16 13:41:01 GMT 43.073715 23.885521 39,000 120 442 -64
2019-10-16 13:40:58 GMT 43.075790 23.880636 39,000 120 442 0
2019-10-16 13:40:55 GMT 43.079636 23.871695 39,000 120 442 0
2019-10-16 13:40:52 GMT 43.082840 23.864136 39,000 120 442 64
2019-10-16 13:40:48 GMT 43.085957 23.856812 39,000 120 441 64
2019-10-16 13:40:44 GMT 43.093918 23.838175 39,000 120 441 0
2019-10-16 13:40:41 GMT 43.096985 23.830942 39,000 120 441 -64
2019-10-16 13:40:38 GMT 43.096985 23.830942 39,000 120 441 -64
2019-10-16 13:40:34 GMT 43.101273 23.820845 39,000 120 442 0
2019-10-16 13:40:30 GMT 43.105885 23.809990 39,000 120 442 0
2019-10-16 13:40:23 GMT 43.112183 23.795109 39,000 120 442 0
2019-10-16 13:40:19 GMT 43.117218 23.783293 39,000 120 442 0
2019-10-16 13:40:11 GMT 43.124451 23.766237 39,000 120 442 0
2019-10-16 13:40:06 GMT 43.129761 23.753719 39,000 120 442 0
2019-10-16 13:40:02 GMT 43.133163 23.745771 39,000 120 442 0
2019-10-16 13:39:59 GMT 43.138191 23.733870 39,000 120 442 0
2019-10-16 13:39:52 GMT 43.143917 23.720398 39,000 120 443 0
2019-10-16 13:39:48 GMT 43.148197 23.710262 39,000 120 443 0
2019-10-16 13:39:39 GMT 43.158070 23.686981 39,000 120 444 0
2019-10-16 13:39:36 GMT 43.160812 23.680573 39,000 120 444 0
2019-10-16 13:39:29 GMT 43.167160 23.665508 39,000 119 444 0
2019-10-16 13:39:25 GMT 43.172745 23.652479 39,000 119 444 0
2019-10-16 13:39:21 GMT 43.176502 23.643429 39,000 119 444 -64
2019-10-16 13:39:16 GMT 43.182129 23.630186 39,000 119 444 -64
2019-10-16 13:39:13 GMT 43.184326 23.624886 39,000 119 445 0
2019-10-16 13:39:08 GMT 43.189224 23.613260 39,000 119 445 0
2019-10-16 13:39:04 GMT 43.192982 23.604387 39,000 119 445 64
2019-10-16 13:38:59 GMT 43.198471 23.591288 39,000 119 445 0
2019-10-16 13:38:54 GMT 43.203594 23.579210 39,000 119 445 0
2019-10-16 13:38:48 GMT 43.209602 23.564890 39,000 119 446 0
2019-10-16 13:38:43 GMT 43.214676 23.552898 39,000 119 446 0
2019-10-16 13:38:38 GMT 43.220261 23.539646 39,000 119 446 0
2019-10-16 13:38:33 GMT 43.225342 23.527605 39,000 120 447 0
2019-10-16 13:38:28 GMT 43.231899 23.512115 39,000 120 447 64
2019-10-16 13:38:22 GMT 43.236832 23.500523 39,000 120 447 0
2019-10-16 13:38:17 GMT 43.243259 23.485434 39,000 120 447 0
2019-10-16 13:38:12 GMT 43.247360 23.475803 39,000 120 447 0
2019-10-16 13:38:08 GMT 43.251984 23.464882 39,000 120 448 0
2019-10-16 13:38:05 GMT 43.254196 23.459734 39,000 120 448 0
2019-10-16 13:38:01 GMT 43.258667 23.449076 39,000 119 448 0
2019-10-16 13:37:58 GMT 43.266083 23.431475 39,000 119 448 0
2019-10-16 13:37:55 GMT 43.266083 23.431475 39,000 120 449 0
2019-10-16 13:37:52 GMT 43.268814 23.425011 39,000 120 449 0
2019-10-16 13:37:48 GMT 43.272079 23.417295 39,000 120 449 0
2019-10-16 13:37:45 GMT 43.276031 23.407942 39,000 120 449 0
2019-10-16 13:37:39 GMT 43.281281 23.395514 39,000 120 450 0
2019-10-16 13:37:36 GMT 43.284302 23.388359 39,000 119 450 0
2019-10-16 13:37:32 GMT 43.289017 23.377247 39,000 119 450 0
2019-10-16 13:37:28 GMT 43.292679 23.368496 39,000 119 450 0
2019-10-16 13:37:24 GMT 43.297806 23.356359 39,000 119 450 0
2019-10-16 13:37:19 GMT 43.302334 23.345686 39,000 120 451 0
2019-10-16 13:37:16 GMT 43.305035 23.339212 39,000 120 451 0
2019-10-16 13:37:13 GMT 43.309593 23.328421 39,000 120 451 -64
2019-10-16 13:37:09 GMT 43.312866 23.320717 39,000 120 451 -64
2019-10-16 13:37:05 GMT 43.321106 23.301235 39,000 120 451 0
2019-10-16 13:36:58 GMT 43.323761 23.294912 39,000 119 452 64
2019-10-16 13:36:54 GMT 43.329056 23.282253 39,000 119 451 64
2019-10-16 13:36:48 GMT 43.334034 23.270416 39,000 119 452 0
2019-10-16 13:36:44 GMT 43.338459 23.259888 39,000 119 452 0
2019-10-16 13:36:38 GMT 43.345161 23.243801 39,000 119 453 0
2019-10-16 13:36:32 GMT 43.350906 23.230080 39,000 119 452 0
2019-10-16 13:36:27 GMT 43.356171 23.217434 39,000 119 453 0
2019-10-16 13:36:22 GMT 43.361362 23.205088 39,000 119 453 0
2019-10-16 13:36:18 GMT 43.366882 23.191818 39,000 119 453 0
2019-10-16 13:36:12 GMT 43.372330 23.178789 39,000 119 453 0
2019-10-16 13:36:05 GMT 43.382870 23.153425 39,000 119 453 0
2019-10-16 13:36:02 GMT 43.382870 23.153425 39,000 119 453 0
2019-10-16 13:35:56 GMT 43.389107 23.138451 39,000 119 455 0
2019-10-16 13:35:53 GMT 43.391853 23.131910 39,000 119 455 0
2019-10-16 13:35:50 GMT 43.394554 23.125372 39,000 119 454 -64
2019-10-16 13:35:45 GMT 43.400024 23.112232 39,000 119 454 0
2019-10-16 13:35:39 GMT 43.407257 23.094858 39,000 119 454 0
2019-10-16 13:35:32 GMT 43.413128 23.080706 39,000 119 454 0
2019-10-16 13:35:29 GMT 43.417736 23.069590 39,000 119 454 64
2019-10-16 13:35:24 GMT 43.422951 23.057098 39,000 119 455 0
2019-10-16 13:35:19 GMT 43.428349 23.044149 39,000 119 455 0
2019-10-16 13:35:12 GMT 43.434261 23.029894 39,000 119 455 0
2019-10-16 13:35:08 GMT 43.439163 23.018147 39,000 119 455 0
2019-10-16 13:35:03 GMT 43.444084 23.006287 39,000 119 455 0
2019-10-16 13:35:00 GMT 43.447357 22.998409 39,000 119 455 0
2019-10-16 13:34:52 GMT 43.455231 22.979502 39,000 119 455 0
2019-10-16 13:34:49 GMT 43.458378 22.971825 39,000 119 455 0
2019-10-16 13:34:46 GMT 43.461960 22.963150 39,000 119 456 -64
2019-10-16 13:34:43 GMT 43.464661 22.956717 39,000 119 456 -64
2019-10-16 13:34:39 GMT 43.470200 22.943312 39,000 119 456 -64
2019-10-16 13:34:35 GMT 43.473042 22.936445 39,000 119 456 64
2019-10-16 13:34:31 GMT 43.477203 22.926359 39,000 119 456 0
2019-10-16 13:34:27 GMT 43.480865 22.917543 39,000 119 456 0
2019-10-16 13:34:21 GMT 43.487869 22.900555 39,000 119 456 0
2019-10-16 13:34:17 GMT 43.491150 22.892630 39,000 119 456 0
2019-10-16 13:34:11 GMT 43.499107 22.873274 39,000 119 456 0
2019-10-16 13:34:06 GMT 43.502884 22.864145 39,000 119 456 0
2019-10-16 13:34:02 GMT 43.507736 22.852457 39,000 119 457 0
2019-10-16 13:33:59 GMT 43.511257 22.843977 39,000 119 457 0
2019-10-16 13:33:56 GMT 43.513493 22.838484 39,000 119 457 0
2019-10-16 13:33:50 GMT 43.520897 22.820499 39,000 119 458 0
2019-10-16 13:33:46 GMT 43.524155 22.812588 39,000 119 458 -64
2019-10-16 13:33:41 GMT 43.529785 22.798920 39,000 119 458 0
2019-10-16 13:33:38 GMT 43.532021 22.793556 39,000 119 458 0
2019-10-16 13:33:35 GMT 43.535233 22.785774 39,000 119 458 0
2019-10-16 13:33:28 GMT 43.543121 22.766609 39,000 119 458 0
2019-10-16 13:33:25 GMT 43.551064 22.747192 39,000 123 456 0
2019-10-16 13:33:20 GMT 43.551064 22.747192 39,000 119 458 0
2019-10-16 13:33:17 GMT 43.554703 22.738379 39,000 119 459 0
2019-10-16 13:33:14 GMT 43.557255 22.732153 39,000 119 458 0
2019-10-16 13:33:09 GMT 43.563396 22.717176 39,000 119 458 0
2019-10-16 13:33:04 GMT 43.567959 22.706059 39,000 119 459 0
2019-10-16 13:32:59 GMT 43.573128 22.693502 39,000 119 459 0
2019-10-16 13:32:56 GMT 43.576199 22.686049 39,000 119 459 -64
2019-10-16 13:32:53 GMT 43.579514 22.677954 39,000 119 459 -64
2019-10-16 13:32:49 GMT 43.583740 22.667671 39,025 119 459 0
2019-10-16 13:32:46 GMT 43.586906 22.659956 39,025 119 459 0
2019-10-16 13:32:43 GMT 43.589813 22.652849 39,000 119 459 0
2019-10-16 13:32:38 GMT 43.595146 22.639944 39,000 119 458 64
2019-10-16 13:32:33 GMT 43.600433 22.626982 39,000 119 459 64
2019-10-16 13:32:28 GMT 43.605377 22.614973 39,000 119 459 0
2019-10-16 13:32:25 GMT 43.608925 22.606268 39,000 119 458 0
2019-10-16 13:32:22 GMT 43.611145 22.600794 39,000 119 458 0
2019-10-16 13:32:15 GMT 43.622379 22.573439 39,000 119 459 0
2019-10-16 13:32:12 GMT 43.627453 22.561012 39,000 123 456 0
2019-10-16 13:32:07 GMT 43.627453 22.561012 39,000 119 458 0
2019-10-16 13:32:01 GMT 43.633457 22.546366 39,000 119 458 0
2019-10-16 13:31:54 GMT 43.641560 22.526615 39,000 119 458 64
2019-10-16 13:31:51 GMT 43.644104 22.520439 39,000 119 458 64
2019-10-16 13:31:45 GMT 43.650169 22.505493 39,000 119 458 64
2019-10-16 13:31:40 GMT 43.655663 22.492086 39,000 119 458 64
2019-10-16 13:31:35 GMT 43.660812 22.479433 39,000 119 458 -64
2019-10-16 13:31:30 GMT 43.666233 22.466190 39,000 119 458 -64
2019-10-16 13:31:24 GMT 43.672005 22.452654 39,000 121 457 0
2019-10-16 13:31:19 GMT 43.677402 22.440752 39,000 122 457 0
2019-10-16 13:31:13 GMT 43.684387 22.426481 39,000 124 456 0
2019-10-16 13:31:09 GMT 43.689602 22.416426 39,000 126 456 0
2019-10-16 13:31:04 GMT 43.696747 22.403423 39,000 128 454 0
2019-10-16 13:30:59 GMT 43.703148 22.392490 39,000 130 454 0
2019-10-16 13:30:56 GMT 43.707367 22.385666 39,000 132 453 0
2019-10-16 13:30:53 GMT 43.710411 22.380785 39,000 132 453 0
2019-10-16 13:30:47 GMT 43.719818 22.366503 39,000 132 454 0
2019-10-16 13:30:41 GMT 43.728149 22.353985 39,000 132 453 -64
2019-10-16 13:30:36 GMT 43.735107 22.343510 39,000 132 453 -64
2019-10-16 13:30:32 GMT 43.740646 22.335140 39,000 132 453 -64
2019-10-16 13:30:28 GMT 43.746780 22.325943 39,000 132 453 0
2019-10-16 13:30:25 GMT 43.757401 22.309912 39,000 132 453 0
2019-10-16 13:30:21 GMT 43.757401 22.309912 39,000 132 453 0
2019-10-16 13:30:17 GMT 43.762035 22.302900 39,000 132 453 0
2019-10-16 13:30:13 GMT 43.768227 22.293613 39,000 132 453 0
2019-10-16 13:30:10 GMT 43.771774 22.288258 39,000 132 452 0
2019-10-16 13:30:07 GMT 43.781773 22.273211 39,000 132 452 -64
2019-10-16 13:30:01 GMT 43.791317 22.258823 39,000 132 451 0
2019-10-16 13:29:56 GMT 43.791317 22.258823 39,000 132 451 0
2019-10-16 13:29:53 GMT 43.796219 22.251402 39,000 132 451 0
2019-10-16 13:29:49 GMT 43.801003 22.244177 39,000 132 450 0
2019-10-16 13:29:45 GMT 43.806496 22.235935 39,000 132 450 0
2019-10-16 13:29:42 GMT 43.811848 22.227827 39,000 132 450 0
2019-10-16 13:29:38 GMT 43.816864 22.220232 39,000 132 450 0
2019-10-16 13:29:35 GMT 43.820786 22.214291 39,000 132 450 0
2019-10-16 13:29:29 GMT 43.829590 22.200941 39,000 132 450 0
2019-10-16 13:29:25 GMT 43.835678 22.191681 39,000 132 448 0
2019-10-16 13:29:21 GMT 43.844238 22.178650 39,000 132 448 0
2019-10-16 13:29:14 GMT 43.850021 22.169888 39,000 132 448 64
2019-10-16 13:29:11 GMT 43.855606 22.161451 39,000 132 447 -64
2019-10-16 13:29:08 GMT 43.858261 22.157396 39,000 132 447 -64
2019-10-16 13:29:03 GMT 43.866360 22.145102 39,000 132 447 0
2019-10-16 13:29:00 GMT 43.870468 22.138920 39,000 132 447 0
2019-10-16 13:28:55 GMT 43.878510 22.126661 39,000 132 445 0
2019-10-16 13:28:50 GMT 43.883259 22.119402 39,000 132 445 0
2019-10-16 13:28:47 GMT 43.888504 22.111454 39,000 132 445 0
2019-10-16 13:28:43 GMT 43.894154 22.102922 39,000 132 445 0
2019-10-16 13:28:39 GMT 43.900955 22.092611 39,000 132 445 -64
2019-10-16 13:28:36 GMT 43.909149 22.080156 39,000 132 445 0
2019-10-16 13:28:32 GMT 43.909149 22.080156 39,000 132 445 0
2019-10-16 13:28:25 GMT 43.919243 22.064863 39,000 132 445 0
2019-10-16 13:28:19 GMT 43.926773 22.053392 39,000 132 446 0
2019-10-16 13:28:15 GMT 43.934189 22.042023 39,000 132 445 0
2019-10-16 13:28:11 GMT 43.937912 22.036350 39,000 132 446 0
2019-10-16 13:28:07 GMT 43.944939 22.025625 39,000 132 446 0
2019-10-16 13:28:01 GMT 43.952435 22.014181 39,000 132 446 0
2019-10-16 13:27:54 GMT 43.961838 21.999664 39,000 132 446 0
2019-10-16 13:27:49 GMT 43.967743 21.990669 39,000 132 446 64
2019-10-16 13:27:42 GMT 43.978176 21.974619 39,000 132 446 0
2019-10-16 13:27:38 GMT 43.983444 21.966652 39,000 132 446 0
2019-10-16 13:27:32 GMT 43.991638 21.954132 39,000 132 446 0
2019-10-16 13:27:27 GMT 43.998642 21.943338 39,000 132 447 0
2019-10-16 13:27:23 GMT 44.005417 21.933054 39,000 132 446 0
2019-10-16 13:27:19 GMT 44.010361 21.925516 39,000 132 447 0
2019-10-16 13:27:15 GMT 44.015095 21.918247 39,000 132 447 0
2019-10-16 13:27:12 GMT 44.020588 21.909878 39,000 132 448 0
2019-10-16 13:27:09 GMT 44.024406 21.904057 39,000 132 447 0
2019-10-16 13:27:06 GMT 44.034531 21.888597 39,000 132 448 64
2019-10-16 13:27:01 GMT 44.034531 21.888597 39,000 132 448 0
2019-10-16 13:26:58 GMT 44.038651 21.882215 39,000 132 448 0
2019-10-16 13:26:54 GMT 44.045307 21.872013 39,000 132 448 0
2019-10-16 13:26:50 GMT 44.050873 21.863497 39,000 132 448 -64
2019-10-16 13:26:47 GMT 44.053986 21.858706 39,000 132 448 0
2019-10-16 13:26:42 GMT 44.060993 21.848015 39,000 132 448 0
2019-10-16 13:26:38 GMT 44.067581 21.837881 39,000 132 448 64
2019-10-16 13:26:32 GMT 44.075500 21.825747 39,000 132 448 0
2019-10-16 13:26:27 GMT 44.082367 21.815144 39,000 132 448 -64
2019-10-16 13:26:20 GMT 44.091934 21.800388 39,000 132 448 0
2019-10-16 13:26:16 GMT 44.097446 21.791969 39,000 132 448 0
2019-10-16 13:26:07 GMT 44.110062 21.772549 39,000 132 448 0
2019-10-16 13:26:04 GMT 44.114273 21.766151 39,000 132 448 0
2019-10-16 13:25:59 GMT 44.121372 21.755219 39,000 132 448 0
2019-10-16 13:25:55 GMT 44.127148 21.746389 39,000 132 448 0
2019-10-16 13:25:45 GMT 44.142601 21.722652 39,000 131 448 0
2019-10-16 13:25:35 GMT 44.159267 21.696886 39,000 132 449 0
2019-10-16 13:25:26 GMT 44.174286 21.673662 39,000 131 448 0
2019-10-16 13:25:15 GMT 44.182571 21.660952 39,000 132 449 0
2019-10-16 13:25:12 GMT 44.187881 21.652712 39,000 132 449 0
2019-10-16 13:25:02 GMT 44.200653 21.633018 39,000 131 450 0
2019-10-16 13:24:52 GMT 44.215668 21.609779 39,000 131 450 -64
2019-10-16 13:24:43 GMT 44.227020 21.592190 39,000 132 449 64
2019-10-16 13:24:40 GMT 44.231506 21.585323 39,000 132 449 64
2019-10-16 13:24:31 GMT 44.245575 21.563551 39,000 131 450 -64
2019-10-16 13:24:20 GMT 44.259155 21.542555 39,000 131 450 64
2019-10-16 13:24:12 GMT 44.269829 21.526035 39,000 132 449 -64
2019-10-16 13:24:09 GMT 44.273987 21.519602 39,000 132 449 -64
2019-10-16 13:23:59 GMT 44.288773 21.496778 39,000 132 449 0
2019-10-16 13:23:51 GMT 44.299118 21.480692 39,000 132 449 0
2019-10-16 13:23:48 GMT 44.303238 21.474348 39,000 131 449 64
2019-10-16 13:23:41 GMT 44.313541 21.458376 39,000 131 449 0
2019-10-16 13:23:38 GMT 44.318802 21.450216 39,000 131 449 -64
2019-10-16 13:23:34 GMT 44.322338 21.444643 39,000 131 449 -64
2019-10-16 13:23:30 GMT 44.328140 21.435635 39,000 131 449 -64
2019-10-16 13:23:27 GMT 44.333279 21.427628 39,000 131 449 0
2019-10-16 13:23:23 GMT 44.338165 21.420006 39,000 131 449 64
2019-10-16 13:23:19 GMT 44.343754 21.411282 39,000 131 449 64
2019-10-16 13:23:13 GMT 44.356567 21.391296 39,000 131 449 0
2019-10-16 13:23:10 GMT 44.356567 21.391296 39,000 131 449 0
2019-10-16 13:23:06 GMT 44.363026 21.381136 39,000 131 449 -64
2019-10-16 13:23:02 GMT 44.366795 21.375240 39,000 131 449 -64
2019-10-16 13:22:59 GMT 44.370987 21.368608 39,000 131 449 0
2019-10-16 13:22:54 GMT 44.378246 21.357288 39,000 131 449 0
2019-10-16 13:22:51 GMT 44.382339 21.350882 39,000 131 449 -64
2019-10-16 13:22:48 GMT 44.386536 21.344292 39,000 131 449 0
2019-10-16 13:22:42 GMT 44.395191 21.330692 39,000 131 449 0
2019-10-16 13:22:38 GMT 44.399460 21.324005 39,000 131 449 0
2019-10-16 13:22:28 GMT 44.413719 21.301685 39,000 131 449 0
2019-10-16 13:22:22 GMT 44.422798 21.287485 39,000 131 449 0
2019-10-16 13:22:17 GMT 44.428940 21.277836 39,000 131 449 0
2019-10-16 13:22:11 GMT 44.437866 21.263842 39,000 131 449 0
2019-10-16 13:22:07 GMT 44.443001 21.255865 39,000 131 449 0
2019-10-16 13:22:04 GMT 44.447098 21.249434 39,000 131 449 0
2019-10-16 13:21:56 GMT 44.458084 21.232285 39,000 131 449 0
2019-10-16 13:21:51 GMT 44.465672 21.220428 39,000 131 449 0
2019-10-16 13:21:45 GMT 44.473450 21.208303 39,000 131 449 0
2019-10-16 13:21:35 GMT 44.487671 21.185957 39,000 131 449 -64
2019-10-16 13:21:26 GMT 44.500122 21.166273 39,000 131 449 0
2019-10-16 13:21:22 GMT 44.505798 21.157314 39,000 131 449 -64
2019-10-16 13:21:15 GMT 44.514507 21.143591 39,000 131 449 -64
2019-10-16 13:21:12 GMT 44.518463 21.137360 39,000 131 449 0
2019-10-16 13:21:05 GMT 44.529030 21.120747 39,000 131 449 0
2019-10-16 13:21:02 GMT 44.532894 21.114717 39,000 131 448 0
2019-10-16 13:20:54 GMT 44.545715 21.094469 39,000 131 448 0
2019-10-16 13:20:51 GMT 44.548443 21.090267 39,000 131 448 -64
2019-10-16 13:20:44 GMT 44.557568 21.075796 39,025 131 447 -64
2019-10-16 13:20:39 GMT 44.563934 21.065826 39,000 131 447 64
2019-10-16 13:20:33 GMT 44.572277 21.052618 39,000 131 448 64
2019-10-16 13:20:29 GMT 44.589550 21.025286 39,000 131 446 -64
2019-10-16 13:20:21 GMT 44.589550 21.025286 39,000 131 447 -64
2019-10-16 13:20:18 GMT 44.593506 21.018990 39,000 131 447 -64
2019-10-16 13:20:12 GMT 44.601196 21.006907 39,000 131 447 0
2019-10-16 13:20:09 GMT 44.606167 20.999025 39,000 131 446 0
2019-10-16 13:20:06 GMT 44.608978 20.994612 39,000 131 446 0
2019-10-16 13:20:02 GMT 44.615479 20.984356 39,000 131 446 0
2019-10-16 13:19:59 GMT 44.619247 20.978327 39,000 131 446 0
2019-10-16 13:19:56 GMT 44.623531 20.971561 39,000 131 445 0
2019-10-16 13:19:51 GMT 44.629955 20.961378 39,000 131 444 -64
2019-10-16 13:19:48 GMT 44.634659 20.953941 39,000 131 445 -64
2019-10-16 13:19:44 GMT 44.638847 20.947243 39,000 131 444 0
2019-10-16 13:19:38 GMT 44.647274 20.933912 39,000 131 443 64
2019-10-16 13:19:30 GMT 44.658554 20.916073 39,000 131 442 -64
2019-10-16 13:19:27 GMT 44.664219 20.907183 39,000 131 442 0
2019-10-16 13:19:23 GMT 44.668129 20.900953 39,000 131 442 64
2019-10-16 13:19:20 GMT 44.678925 20.883833 39,000 131 442 0
2019-10-16 13:19:12 GMT 44.683819 20.876034 39,000 131 441 0
2019-10-16 13:19:01 GMT 44.697689 20.854059 39,000 131 441 128
2019-10-16 13:18:57 GMT 44.704193 20.843679 39,000 131 441 -64
2019-10-16 13:18:48 GMT 44.715134 20.826220 39,000 131 441 -64
2019-10-16 13:18:44 GMT 44.721909 20.815430 39,000 131 440 -64
2019-10-16 13:18:38 GMT 44.729095 20.804050 39,000 131 440 0
2019-10-16 13:18:35 GMT 44.734680 20.795156 39,000 131 440 0
2019-10-16 13:18:28 GMT 44.742783 20.782339 39,000 131 440 64
2019-10-16 13:18:23 GMT 44.750336 20.770372 39,000 131 440 0
2019-10-16 13:18:20 GMT 44.753693 20.765032 39,000 131 440 0
2019-10-16 13:18:17 GMT 44.757019 20.759779 39,000 131 440 0
2019-10-16 13:18:09 GMT 44.771667 20.736366 39,000 131 439 0
2019-10-16 13:18:06 GMT 44.771667 20.736366 39,000 131 439 0
2019-10-16 13:17:59 GMT 44.781624 20.720551 39,000 131 440 64
2019-10-16 13:17:55 GMT 44.786728 20.712366 39,000 131 440 0
2019-10-16 13:17:49 GMT 44.795425 20.698439 39,000 131 440 0
2019-10-16 13:17:46 GMT 44.799133 20.692617 39,000 131 440 -64
2019-10-16 13:17:36 GMT 44.813324 20.669926 39,000 131 440 -64
2019-10-16 13:17:33 GMT 44.816116 20.665415 39,000 131 440 0
2019-10-16 13:17:27 GMT 44.824265 20.652353 39,000 131 440 0
2019-10-16 13:17:22 GMT 44.831039 20.641544 39,000 131 440 64
2019-10-16 13:17:17 GMT 44.845352 20.618525 39,000 131 441 0
2019-10-16 13:17:13 GMT 44.845352 20.618525 39,000 131 440 -64
2019-10-16 13:17:08 GMT 44.855453 20.602312 39,000 131 440 0
2019-10-16 13:17:04 GMT 44.855453 20.602312 39,000 131 440 0
2019-10-16 13:17:00 GMT 44.860931 20.593611 39,000 131 440 64
2019-10-16 13:16:56 GMT 44.866444 20.584761 39,000 131 440 0
2019-10-16 13:16:53 GMT 44.875671 20.570004 39,000 131 441 0
2019-10-16 13:16:49 GMT 44.875671 20.570004 39,000 131 441 0
2019-10-16 13:16:45 GMT 44.882362 20.559305 39,000 131 441 64
2019-10-16 13:16:41 GMT 44.887810 20.550596 39,000 131 442 64
2019-10-16 13:16:36 GMT 44.894745 20.539410 39,000 131 442 64
2019-10-16 13:16:30 GMT 44.901634 20.528221 39,000 131 442 -64
2019-10-16 13:16:25 GMT 44.908619 20.517035 39,000 130 442 0
2019-10-16 13:16:19 GMT 44.916576 20.504107 39,000 130 442 0
2019-10-16 13:16:14 GMT 44.923004 20.493790 39,000 131 442 0
2019-10-16 13:16:11 GMT 44.930603 20.481459 39,000 130 442 0
2019-10-16 13:16:03 GMT 44.937653 20.470015 39,000 130 442 0
2019-10-16 13:15:59 GMT 44.942787 20.461700 39,000 131 440 -64
2019-10-16 13:15:54 GMT 44.949692 20.450460 39,000 130 442 -64
2019-10-16 13:15:51 GMT 44.953445 20.444380 39,000 130 442 -128
2019-10-16 13:15:48 GMT 44.957405 20.437986 39,000 131 441 -64
2019-10-16 13:15:45 GMT 44.961037 20.432093 39,000 131 440 0
2019-10-16 13:15:42 GMT 44.966854 20.422712 39,000 130 442 64
2019-10-16 13:15:38 GMT 44.971115 20.415802 39,000 130 442 0
2019-10-16 13:15:35 GMT 44.976700 20.406712 39,000 130 442 0
2019-10-16 13:15:31 GMT 44.980728 20.400272 39,000 130 442 -64
2019-10-16 13:15:27 GMT 44.985428 20.392569 39,000 131 442 0
2019-10-16 13:15:24 GMT 44.990223 20.384865 39,000 131 442 0
2019-10-16 13:15:19 GMT 44.995670 20.376020 39,000 131 442 0
2019-10-16 13:15:15 GMT 45.002003 20.365839 39,000 131 442 0
2019-10-16 13:15:09 GMT 45.009682 20.353514 39,000 131 442 0
2019-10-16 13:15:05 GMT 45.014942 20.345005 39,000 131 442 0
2019-10-16 13:15:01 GMT 45.022438 20.332947 39,000 131 442 0
2019-10-16 13:14:57 GMT 45.025681 20.327715 39,000 131 442 0
2019-10-16 13:14:52 GMT 45.032726 20.316401 39,000 131 442 0
2019-10-16 13:14:47 GMT 45.038818 20.306658 39,000 131 442 0
2019-10-16 13:14:43 GMT 45.046970 20.293423 39,000 130 442 0
2019-10-16 13:14:36 GMT 45.053513 20.282854 39,000 130 442 0
2019-10-16 13:14:32 GMT 45.061401 20.270042 39,000 130 442 0
2019-10-16 13:14:25 GMT 45.070107 20.255909 39,000 130 442 0
2019-10-16 13:14:20 GMT 45.076160 20.246061 39,000 130 442 -64
2019-10-16 13:14:17 GMT 45.079418 20.240768 39,000 130 442 0
2019-10-16 13:14:14 GMT 45.082993 20.234985 39,000 130 442 64
2019-10-16 13:14:10 GMT 45.088310 20.226299 39,000 130 442 64
2019-10-16 13:14:07 GMT 45.093063 20.218571 39,000 130 442 64
2019-10-16 13:14:04 GMT 45.097061 20.212030 39,000 130 442 64
2019-10-16 13:14:00 GMT 45.109489 20.191866 39,000 130 442 -64
2019-10-16 13:13:55 GMT 45.109489 20.191866 39,000 130 442 -64
2019-10-16 13:13:51 GMT 45.114532 20.183649 39,000 130 442 0
2019-10-16 13:13:46 GMT 45.126663 20.163900 39,000 130 441 -64
2019-10-16 13:13:42 GMT 45.126663 20.163900 39,000 130 441 -64
2019-10-16 13:13:35 GMT 45.136307 20.148190 39,000 130 441 64
2019-10-16 13:13:31 GMT 45.141541 20.139641 39,000 130 441 64
2019-10-16 13:13:23 GMT 45.157242 20.113939 39,000 130 441 -64
2019-10-16 13:13:19 GMT 45.157242 20.113939 39,000 130 441 -64
2019-10-16 13:13:12 GMT 45.165958 20.099688 39,000 130 441 -64
2019-10-16 13:13:08 GMT 45.171497 20.090645 39,000 130 440 -64
2019-10-16 13:13:02 GMT 45.180634 20.075619 39,000 130 440 64
2019-10-16 13:12:57 GMT 45.185837 20.067198 39,000 130 440 64
2019-10-16 13:12:54 GMT 45.190212 20.059963 39,000 131 440 0
2019-10-16 13:12:51 GMT 45.195419 20.051489 39,000 130 440 -64
2019-10-16 13:12:47 GMT 45.199722 20.044491 39,000 130 440 -64
2019-10-16 13:12:40 GMT 45.210251 20.027290 39,000 130 440 0
2019-10-16 13:12:36 GMT 45.214512 20.020306 39,000 130 441 0
2019-10-16 13:12:32 GMT 45.219681 20.011866 39,000 130 440 0
2019-10-16 13:12:28 GMT 45.224487 20.004011 39,000 130 440 0
2019-10-16 13:12:25 GMT 45.229221 19.996256 39,000 130 440 0
2019-10-16 13:12:19 GMT 45.237625 19.982496 39,000 130 440 64
2019-10-16 13:12:13 GMT 45.244492 19.971313 39,000 130 440 64
2019-10-16 13:12:08 GMT 45.251724 19.959541 39,000 130 441 0
2019-10-16 13:12:04 GMT 45.256989 19.950911 39,000 130 441 0
2019-10-16 13:12:01 GMT 45.266281 19.935673 39,000 130 441 -64
2019-10-16 13:11:52 GMT 45.280838 19.911804 39,000 130 441 0
2019-10-16 13:11:46 GMT 45.280838 19.911804 39,000 130 441 0
2019-10-16 13:11:40 GMT 45.291229 19.894699 39,000 130 442 64
2019-10-16 13:11:37 GMT 45.293655 19.890615 39,000 130 446 -64
2019-10-16 13:11:33 GMT 45.299099 19.881769 39,000 130 444 0
2019-10-16 13:11:30 GMT 45.302444 19.876228 39,000 130 444 0
2019-10-16 13:11:26 GMT 45.311527 19.861204 39,000 130 446 -64
2019-10-16 13:11:19 GMT 45.317368 19.851576 39,000 130 446 64
2019-10-16 13:11:15 GMT 45.322723 19.842747 39,000 130 446 0
2019-10-16 13:11:10 GMT 45.329498 19.831631 39,000 130 446 0
2019-10-16 13:11:07 GMT 45.332661 19.826370 39,000 130 446 -128
2019-10-16 13:11:04 GMT 45.337830 19.817898 39,000 130 446 -64
2019-10-16 13:11:00 GMT 45.342590 19.810116 39,025 130 446 -128
2019-10-16 13:10:55 GMT 45.351379 19.795597 39,000 130 447 0
2019-10-16 13:10:50 GMT 45.356918 19.786442 39,000 130 448 64
2019-10-16 13:10:44 GMT 45.365112 19.772970 39,000 130 451 0
2019-10-16 13:10:39 GMT 45.371300 19.762730 39,000 130 456 -128
2019-10-16 13:10:33 GMT 45.379494 19.749266 39,000 130 456 -128
2019-10-16 13:10:28 GMT 45.386581 19.737528 39,000 130 459 0
2019-10-16 13:10:22 GMT 45.394043 19.725166 39,000 130 459 64
2019-10-16 13:10:17 GMT 45.401321 19.713070 39,000 130 459 0
2019-10-16 13:10:13 GMT 45.406727 19.704113 39,000 130 459 0
2019-10-16 13:10:07 GMT 45.415852 19.688974 39,000 130 459 0
2019-10-16 13:10:01 GMT 45.423248 19.676643 39,000 130 459 0
2019-10-16 13:09:55 GMT 45.431625 19.662781 39,000 130 459 64
2019-10-16 13:09:51 GMT 45.437759 19.652578 39,000 130 459 0
2019-10-16 13:09:41 GMT 45.451649 19.629555 39,000 130 459 0
2019-10-16 13:09:34 GMT 45.460373 19.615108 39,000 130 459 64
2019-10-16 13:09:29 GMT 45.467606 19.603075 39,000 130 459 0
2019-10-16 13:09:24 GMT 45.474380 19.591827 39,000 130 459 0
2019-10-16 13:09:19 GMT 45.482254 19.578814 39,000 130 459 -64
2019-10-16 13:09:13 GMT 45.489635 19.566584 39,000 130 459 0
2019-10-16 13:09:09 GMT 45.495224 19.557272 39,000 130 459 64
2019-10-16 13:09:06 GMT 45.499466 19.550171 39,000 130 459 64
2019-10-16 13:09:03 GMT 45.503742 19.543003 39,000 130 459 0
2019-10-16 13:08:58 GMT 45.514820 19.524582 39,000 130 459 0
2019-10-16 13:08:55 GMT 45.514820 19.524582 39,000 130 459 0
2019-10-16 13:08:52 GMT 45.518555 19.518389 39,000 130 459 0
2019-10-16 13:08:48 GMT 45.533115 19.493965 39,000 130 459 -64
2019-10-16 13:08:42 GMT 45.533115 19.493965 39,000 130 459 0
2019-10-16 13:08:37 GMT 45.540657 19.481304 39,000 130 459 0
2019-10-16 13:08:31 GMT 45.547852 19.469315 39,000 130 459 -64
2019-10-16 13:08:28 GMT 45.552528 19.461525 39,000 130 459 0
2019-10-16 13:08:20 GMT 45.562958 19.444059 39,000 130 459 0
2019-10-16 13:08:17 GMT 45.566868 19.437492 39,000 130 459 0
2019-10-16 13:08:09 GMT 45.577900 19.418953 39,000 130 459 0
2019-10-16 13:08:06 GMT 45.581680 19.412642 39,000 130 459 0
2019-10-16 13:08:00 GMT 45.589725 19.399109 39,000 130 459 0
2019-10-16 13:07:57 GMT 45.595078 19.390182 39,000 130 459 0
2019-10-16 13:07:48 GMT 45.606125 19.371643 39,000 130 459 0
2019-10-16 13:07:45 GMT 45.610252 19.364708 39,000 130 459 0
2019-10-16 13:07:37 GMT 45.621471 19.345963 39,000 130 459 0
2019-10-16 13:07:33 GMT 45.639496 19.315775 39,000 130 458 0
2019-10-16 13:07:25 GMT 45.639496 19.315775 39,000 130 458 -64
2019-10-16 13:07:22 GMT 45.642422 19.310875 39,000 130 458 0
2019-10-16 13:07:17 GMT 45.650024 19.298155 39,000 130 457 0
2019-10-16 13:07:14 GMT 45.652847 19.293434 39,000 130 457 0
2019-10-16 13:07:08 GMT 45.661926 19.278259 39,000 130 457 0
2019-10-16 13:07:05 GMT 45.667419 19.269058 39,000 130 458 0
2019-10-16 13:07:00 GMT 45.672726 19.260132 39,000 130 457 0
2019-10-16 13:06:55 GMT 45.679871 19.248114 39,000 130 456 0
2019-10-16 13:06:52 GMT 45.683292 19.242348 39,000 130 456 0
2019-10-16 13:06:43 GMT 45.695957 19.220924 39,000 130 456 0
2019-10-16 13:06:38 GMT 45.702713 19.209528 39,000 130 456 0
2019-10-16 13:06:34 GMT 45.712418 19.193115 39,000 130 456 64
2019-10-16 13:06:27 GMT 45.718067 19.183502 39,000 130 456 0
2019-10-16 13:06:23 GMT 45.723404 19.174492 39,000 130 455 0
2019-10-16 13:06:20 GMT 45.727425 19.167709 39,000 130 455 0
2019-10-16 13:06:16 GMT 45.731941 19.160088 39,000 130 455 0
2019-10-16 13:06:11 GMT 45.739609 19.147093 39,000 130 455 64
2019-10-16 13:06:02 GMT 45.751740 19.126595 39,000 130 454 0
2019-10-16 13:05:59 GMT 45.755169 19.120743 39,000 130 454 0
2019-10-16 13:05:56 GMT 45.759659 19.113262 39,000 130 454 0
2019-10-16 13:05:51 GMT 45.766575 19.101517 39,000 130 454 -128
2019-10-16 13:05:48 GMT 45.771057 19.094036 39,000 130 454 -128
2019-10-16 13:05:45 GMT 45.774349 19.088470 39,000 130 454 -64
2019-10-16 13:05:40 GMT 45.780853 19.077492 39,000 130 454 0
2019-10-16 13:05:37 GMT 45.784973 19.070591 39,000 130 454 64
2019-10-16 13:05:34 GMT 45.789047 19.063623 39,000 130 454 0
2019-10-16 13:05:31 GMT 45.793388 19.056267 39,000 130 454 -64
2019-10-16 13:05:24 GMT 45.803352 19.039444 39,000 130 453 0
2019-10-16 13:05:19 GMT 45.809418 19.029123 39,000 130 453 64
2019-10-16 13:05:16 GMT 45.814198 19.021042 39,000 130 453 0
2019-10-16 13:05:11 GMT 45.820156 19.010811 39,000 130 453 0
2019-10-16 13:05:08 GMT 45.824440 19.003601 39,000 130 453 0
2019-10-16 13:05:03 GMT 45.831749 18.991173 39,000 129 453 0
2019-10-16 13:05:00 GMT 45.836014 18.983839 39,000 129 452 0
2019-10-16 13:04:51 GMT 45.847717 18.963844 39,000 129 453 0
2019-10-16 13:04:47 GMT 45.853912 18.953224 39,000 129 452 0
2019-10-16 13:04:43 GMT 45.859169 18.944275 39,000 130 452 0
2019-10-16 13:04:40 GMT 45.862381 18.938850 39,000 130 453 -64
2019-10-16 13:04:35 GMT 45.868992 18.927589 39,000 129 452 -64
2019-10-16 13:04:30 GMT 45.875275 18.916878 39,000 129 452 0
2019-10-16 13:04:24 GMT 45.884491 18.901175 39,000 130 453 64
2019-10-16 13:04:20 GMT 45.889847 18.892021 39,000 129 451 0
2019-10-16 13:04:15 GMT 45.896942 18.879938 39,000 130 452 0
2019-10-16 13:04:09 GMT 45.904369 18.867302 39,000 130 451 0
2019-10-16 13:04:06 GMT 45.907608 18.861784 39,000 130 452 0
2019-10-16 13:04:03 GMT 45.912598 18.853275 39,000 130 451 0
2019-10-16 13:03:58 GMT 45.919098 18.842291 39,000 130 450 0
2019-10-16 13:03:55 GMT 45.922394 18.836662 39,000 130 451 0
2019-10-16 13:03:52 GMT 45.926697 18.829294 39,000 130 451 0
2019-10-16 13:03:49 GMT 45.936630 18.812479 39,000 129 451 0
2019-10-16 13:03:45 GMT 45.936630 18.812479 39,000 130 451 64
2019-10-16 13:03:41 GMT 45.941238 18.804611 39,000 130 452 -64
2019-10-16 13:03:38 GMT 45.946033 18.796440 39,000 130 450 0
2019-10-16 13:03:35 GMT 45.949677 18.790173 39,000 129 451 0
2019-10-16 13:03:32 GMT 45.954987 18.781128 39,000 129 451 0
2019-10-16 13:03:28 GMT 45.958511 18.775154 39,000 129 451 0
2019-10-16 13:03:24 GMT 45.964691 18.764582 39,000 129 451 0
2019-10-16 13:03:21 GMT 45.968765 18.757614 39,000 129 451 64
2019-10-16 13:03:18 GMT 45.972710 18.750847 39,000 129 451 0
2019-10-16 13:03:11 GMT 45.982903 18.733269 39,000 129 452 0
2019-10-16 13:03:07 GMT 45.986755 18.726732 39,000 129 452 0
2019-10-16 13:03:00 GMT 45.997009 18.709099 39,000 129 451 0
2019-10-16 13:02:57 GMT 46.000443 18.703218 39,000 129 451 0
2019-10-16 13:02:50 GMT 46.011627 18.683899 39,000 129 451 0
2019-10-16 13:02:46 GMT 46.014931 18.678268 39,000 129 452 64
2019-10-16 13:02:42 GMT 46.021729 18.666527 39,000 129 450 0
2019-10-16 13:02:39 GMT 46.025173 18.660622 39,000 129 451 -64
2019-10-16 13:02:36 GMT 46.028851 18.654305 39,000 129 451 -64
2019-10-16 13:02:29 GMT 46.038712 18.637234 39,000 129 451 0
2019-10-16 13:02:26 GMT 46.042557 18.630602 39,000 129 451 64
2019-10-16 13:02:22 GMT 46.047985 18.621277 39,000 129 450 0
2019-10-16 13:02:18 GMT 46.052219 18.613930 39,000 129 451 -64
2019-10-16 13:02:15 GMT 46.056690 18.606239 39,000 129 451 0
2019-10-16 13:02:11 GMT 46.061810 18.597450 39,000 129 450 0
2019-10-16 13:02:07 GMT 46.068008 18.586723 39,000 129 451 0
2019-10-16 13:02:04 GMT 46.070889 18.581726 39,000 129 451 -64
2019-10-16 13:02:01 GMT 46.077171 18.570946 39,000 129 450 0
2019-10-16 13:01:57 GMT 46.080917 18.564417 39,000 129 451 0
2019-10-16 13:01:54 GMT 46.084900 18.557625 39,000 129 451 -64
2019-10-16 13:01:47 GMT 46.098312 18.534405 39,000 129 451 64
2019-10-16 13:01:44 GMT 46.098312 18.534405 39,000 129 451 64
2019-10-16 13:01:40 GMT 46.104218 18.524254 39,000 129 450 0
2019-10-16 13:01:36 GMT 46.109573 18.514977 39,000 129 451 0
2019-10-16 13:01:33 GMT 46.112915 18.509283 39,000 129 451 0
2019-10-16 13:01:29 GMT 46.118881 18.499054 39,000 130 450 0
2019-10-16 13:01:26 GMT 46.122280 18.493149 39,000 129 451 0
2019-10-16 13:01:23 GMT 46.126190 18.486557 39,000 130 452 -64
2019-10-16 13:01:15 GMT 46.137039 18.467951 39,000 129 451 0
2019-10-16 13:01:10 GMT 46.143742 18.456413 39,000 129 452 0
2019-10-16 13:01:04 GMT 46.153423 18.439659 39,000 129 451 0
2019-10-16 13:01:01 GMT 46.156219 18.434853 39,000 129 451 0
2019-10-16 13:00:52 GMT 46.168274 18.414047 39,000 129 451 0
2019-10-16 13:00:44 GMT 46.182568 18.388023 39,000 123 455 0
2019-10-16 13:00:41 GMT 46.182568 18.388023 39,000 126 454 64
2019-10-16 13:00:31 GMT 46.193504 18.365227 39,000 123 455 0
2019-10-16 13:00:28 GMT 46.197876 18.355677 39,000 123 455 0
2019-10-16 13:00:20 GMT 46.207100 18.335770 39,000 123 455 0
2019-10-16 13:00:13 GMT 46.216084 18.316200 39,000 123 455 0
2019-10-16 13:00:09 GMT 46.219254 18.309319 39,000 123 455 -64
2019-10-16 13:00:05 GMT 46.224426 18.298132 39,000 123 455 -64
2019-10-16 13:00:01 GMT 46.230236 18.285576 39,000 123 455 0
2019-10-16 12:59:58 GMT 46.231842 18.281986 39,000 123 455 0
2019-10-16 12:59:51 GMT 46.240128 18.264034 39,000 123 456 0
2019-10-16 12:59:48 GMT 46.244156 18.255192 39,000 123 456 0
2019-10-16 12:59:44 GMT 46.248230 18.246281 39,000 123 456 64
2019-10-16 12:59:40 GMT 46.257111 18.226921 39,000 123 456 64
2019-10-16 12:59:37 GMT 46.257111 18.226921 39,000 123 456 64
2019-10-16 12:59:29 GMT 46.266541 18.206287 39,000 123 456 -64
2019-10-16 12:59:26 GMT 46.269432 18.200020 39,000 123 456 -64
2019-10-16 12:59:18 GMT 46.278946 18.179157 39,000 123 456 0
2019-10-16 12:59:15 GMT 46.281830 18.172928 39,000 123 457 0
2019-10-16 12:59:09 GMT 46.289730 18.155457 39,000 123 456 0
2019-10-16 12:59:05 GMT 46.294338 18.145363 39,000 123 457 0
2019-10-16 12:58:57 GMT 46.303665 18.124695 39,000 123 456 0
2019-10-16 12:58:53 GMT 46.307186 18.116867 39,000 123 456 0
2019-10-16 12:58:47 GMT 46.315845 18.097710 39,000 123 455 64
2019-10-16 12:58:42 GMT 46.320084 18.088371 39,000 123 455 64
2019-10-16 12:58:36 GMT 46.328835 18.069077 39,000 123 454 -64
2019-10-16 12:58:30 GMT 46.334473 18.056700 39,000 123 454 64
2019-10-16 12:58:25 GMT 46.340973 18.042431 39,000 123 454 0
2019-10-16 12:58:21 GMT 46.344360 18.034927 39,000 123 454 0
2019-10-16 12:58:14 GMT 46.352158 18.017715 39,000 123 453 0
2019-10-16 12:58:11 GMT 46.356400 18.008333 39,000 123 453 0
2019-10-16 12:58:03 GMT 46.366261 17.986542 39,000 123 452 0
2019-10-16 12:57:59 GMT 46.369659 17.979057 39,000 123 452 0
2019-10-16 12:57:50 GMT 46.380661 17.954742 39,000 123 452 0
2019-10-16 12:57:47 GMT 46.383488 17.948502 39,000 123 452 0
2019-10-16 12:57:41 GMT 46.391327 17.931229 39,000 123 452 0
2019-10-16 12:57:36 GMT 46.396042 17.920845 39,000 123 452 0
2019-10-16 12:57:30 GMT 46.403870 17.903561 39,000 123 453 -64
2019-10-16 12:57:25 GMT 46.408722 17.892843 39,000 123 452 0
2019-10-16 12:57:20 GMT 46.415001 17.879082 39,000 123 452 64
2019-10-16 12:57:17 GMT 46.418213 17.871941 39,000 123 452 0
2019-10-16 12:57:14 GMT 46.421585 17.864639 39,000 123 452 0
2019-10-16 12:57:06 GMT 46.430180 17.845573 39,000 123 453 0
2019-10-16 12:57:03 GMT 46.434174 17.836773 39,000 123 453 0
2019-10-16 12:56:58 GMT 46.439255 17.825455 39,000 123 453 -64
2019-10-16 12:56:55 GMT 46.443558 17.815939 39,000 123 453 0
2019-10-16 12:56:52 GMT 46.447083 17.808035 39,000 123 453 0
2019-10-16 12:56:44 GMT 46.455597 17.789143 39,000 123 453 64
2019-10-16 12:56:36 GMT 46.464615 17.769114 39,000 123 453 0
2019-10-16 12:56:33 GMT 46.468769 17.759880 39,000 123 453 0
2019-10-16 12:56:23 GMT 46.480270 17.734211 39,000 123 453 -64
2019-10-16 12:56:16 GMT 46.487438 17.718201 39,000 122 451 64
2019-10-16 12:56:13 GMT 46.491165 17.709961 39,000 122 451 64
2019-10-16 12:56:10 GMT 46.494839 17.701721 39,000 122 451 0
2019-10-16 12:56:06 GMT 46.499355 17.691628 39,000 122 451 0
2019-10-16 12:56:02 GMT 46.504566 17.680023 39,000 122 452 0
2019-10-16 12:55:58 GMT 46.511444 17.664610 39,000 122 452 0
2019-10-16 12:55:55 GMT 46.511444 17.664610 39,000 122 452 0
2019-10-16 12:55:51 GMT 46.520443 17.644455 39,000 122 452 0
2019-10-16 12:55:44 GMT 46.523842 17.636902 39,000 122 452 0
2019-10-16 12:55:39 GMT 46.529297 17.624683 39,000 122 452 0
2019-10-16 12:55:35 GMT 46.535660 17.610415 39,000 122 452 0
2019-10-16 12:55:29 GMT 46.540974 17.598518 39,000 122 452 0
2019-10-16 12:55:22 GMT 46.549397 17.579636 39,000 123 453 0
2019-10-16 12:55:19 GMT 46.552872 17.571896 39,000 123 453 0
2019-10-16 12:55:11 GMT 46.562347 17.550726 39,000 122 454 0
2019-10-16 12:55:08 GMT 46.565231 17.544294 39,000 122 454 0
2019-10-16 12:55:04 GMT 46.569881 17.533836 39,000 122 454 0
2019-10-16 12:55:01 GMT 46.573418 17.526009 39,000 122 454 0
2019-10-16 12:54:58 GMT 46.576813 17.518370 39,000 122 454 0
2019-10-16 12:54:52 GMT 46.583267 17.503834 39,000 122 454 0
2019-10-16 12:54:47 GMT 46.589108 17.490715 39,000 122 454 0
2019-10-16 12:54:40 GMT 46.596817 17.473419 39,000 122 455 -64
2019-10-16 12:54:36 GMT 46.601166 17.463593 39,000 122 455 -64
2019-10-16 12:54:33 GMT 46.609818 17.444145 39,000 122 455 0
2019-10-16 12:54:29 GMT 46.609818 17.444145 39,000 122 457 0
2019-10-16 12:54:25 GMT 46.613503 17.435852 39,000 122 455 0
2019-10-16 12:54:19 GMT 46.625702 17.408373 39,000 122 459 -64
2019-10-16 12:54:15 GMT 46.631191 17.395958 39,000 122 454 64
2019-10-16 12:54:10 GMT 46.631191 17.395958 39,000 122 456 64
2019-10-16 12:54:04 GMT 46.638153 17.380371 39,000 122 458 0
2019-10-16 12:53:58 GMT 46.644608 17.365767 39,000 122 456 0
2019-10-16 12:53:53 GMT 46.650787 17.351900 39,000 122 457 64
2019-10-16 12:53:45 GMT 46.659447 17.332375 39,000 122 457 64
2019-10-16 12:53:42 GMT 46.662689 17.325039 39,000 122 457 64
2019-10-16 12:53:38 GMT 46.668274 17.312443 39,000 122 457 0
2019-10-16 12:53:35 GMT 46.671879 17.304359 39,000 122 457 -64
2019-10-16 12:53:29 GMT 46.677567 17.291542 39,000 122 459 0
2019-10-16 12:53:24 GMT 46.683426 17.278278 39,000 122 458 0
2019-10-16 12:53:20 GMT 46.688496 17.266869 39,000 122 458 0
2019-10-16 12:53:17 GMT 46.692684 17.257393 39,000 122 458 0
2019-10-16 12:53:09 GMT 46.705307 17.228840 39,000 122 466 0
2019-10-16 12:53:05 GMT 46.705307 17.228840 39,000 122 459 0
2019-10-16 12:52:58 GMT 46.713261 17.210838 39,000 122 459 0
2019-10-16 12:52:55 GMT 46.717392 17.201441 39,000 122 459 -64
2019-10-16 12:52:48 GMT 46.725178 17.183784 39,000 122 460 0
2019-10-16 12:52:43 GMT 46.730999 17.170601 39,000 122 460 0
2019-10-16 12:52:38 GMT 46.737259 17.156424 39,000 122 460 0
2019-10-16 12:52:32 GMT 46.743984 17.141144 39,000 122 461 0
2019-10-16 12:52:27 GMT 46.749573 17.128441 39,000 122 461 0
2019-10-16 12:52:23 GMT 46.753761 17.118965 39,000 122 463 0
2019-10-16 12:52:16 GMT 46.762234 17.099670 39,000 122 460 0
2019-10-16 12:52:11 GMT 46.774525 17.071793 39,000 122 461 0
2019-10-16 12:52:05 GMT 46.774525 17.071793 39,000 122 461 64
2019-10-16 12:52:00 GMT 46.780792 17.057547 39,000 122 461 0
2019-10-16 12:51:54 GMT 46.786652 17.044283 39,000 122 461 0
2019-10-16 12:51:51 GMT 46.791470 17.033340 39,000 122 461 0
2019-10-16 12:51:46 GMT 46.799194 17.015745 39,000 122 461 0
2019-10-16 12:51:39 GMT 46.805157 17.002235 39,000 122 461 0
2019-10-16 12:51:32 GMT 46.817772 16.973465 39,000 122 463 0
2019-10-16 12:51:27 GMT 46.817772 16.973465 39,000 122 462 0
2019-10-16 12:51:22 GMT 46.823868 16.959608 39,000 122 464 0
2019-10-16 12:51:16 GMT 46.830620 16.944145 39,000 122 463 64
2019-10-16 12:51:12 GMT 46.835037 16.934017 39,000 122 464 0
2019-10-16 12:51:09 GMT 46.844147 16.913116 39,000 122 464 -64
2019-10-16 12:51:04 GMT 46.844147 16.913116 39,000 122 463 0
2019-10-16 12:51:00 GMT 46.848824 16.902397 39,000 122 463 -64
2019-10-16 12:50:57 GMT 46.852451 16.894089 39,000 122 463 0
2019-10-16 12:50:54 GMT 46.856178 16.885506 39,000 122 464 0
2019-10-16 12:50:50 GMT 46.860878 16.874588 39,000 122 464 -64
2019-10-16 12:50:47 GMT 46.864044 16.867310 39,000 122 464 0
2019-10-16 12:50:40 GMT 46.871841 16.849388 39,000 122 464 0
2019-10-16 12:50:36 GMT 46.876556 16.838470 39,000 122 464 0
2019-10-16 12:50:30 GMT 46.888229 16.811485 39,000 122 465 0
2019-10-16 12:50:26 GMT 46.888229 16.811485 39,000 122 465 0
2019-10-16 12:50:22 GMT 46.894115 16.797955 39,000 122 466 0
2019-10-16 12:50:15 GMT 46.900448 16.783236 39,000 122 466 0
2019-10-16 12:50:09 GMT 46.907665 16.766617 39,000 122 466 0
2019-10-16 12:50:04 GMT 46.913017 16.754292 39,000 122 466 -64
2019-10-16 12:50:00 GMT 46.919720 16.738869 39,000 122 466 -64
2019-10-16 12:49:54 GMT 46.924759 16.727165 39,000 122 466 0
2019-10-16 12:49:48 GMT 46.936752 16.699493 39,000 122 467 64
2019-10-16 12:49:44 GMT 46.936752 16.699493 39,025 122 466 -64
2019-10-16 12:49:38 GMT 46.944489 16.681612 39,000 122 466 64
2019-10-16 12:49:34 GMT 46.949158 16.670860 39,000 122 466 0
2019-10-16 12:49:28 GMT 46.955334 16.656471 39,000 122 464 0
2019-10-16 12:49:23 GMT 46.960964 16.643372 39,000 122 467 64
2019-10-16 12:49:17 GMT 46.967438 16.628370 39,000 122 466 -64
2019-10-16 12:49:14 GMT 46.970695 16.620766 39,000 122 467 0
2019-10-16 12:49:11 GMT 46.974140 16.612806 39,000 122 467 -64
2019-10-16 12:49:05 GMT 46.987610 16.581665 39,000 122 466 0
2019-10-16 12:49:01 GMT 46.987610 16.581665 39,000 122 463 0
2019-10-16 12:48:53 GMT 46.994751 16.564980 39,000 122 467 -64
2019-10-16 12:48:50 GMT 46.998535 16.556185 39,000 122 465 0
2019-10-16 12:48:45 GMT 47.004364 16.542664 39,000 122 465 0
2019-10-16 12:48:40 GMT 47.010406 16.528507 39,000 122 465 -64
2019-10-16 12:48:34 GMT 47.016266 16.514923 39,000 122 464 0
2019-10-16 12:48:30 GMT 47.022881 16.499493 39,000 122 463 0
2019-10-16 12:48:23 GMT 47.028992 16.485260 39,000 122 463 128
2019-10-16 12:48:20 GMT 47.033249 16.475372 39,000 122 462 64
2019-10-16 12:48:13 GMT 47.041168 16.456833 39,000 122 461 -64
2019-10-16 12:48:10 GMT 47.045227 16.447449 39,000 122 460 0
2019-10-16 12:48:02 GMT 47.053467 16.428293 39,000 122 460 0
2019-10-16 12:47:56 GMT 47.060074 16.412888 39,000 122 459 0
2019-10-16 12:47:52 GMT 47.064545 16.402447 39,000 122 459 0
2019-10-16 12:47:48 GMT 47.068733 16.392658 39,000 121 457 64
2019-10-16 12:47:45 GMT 47.072800 16.383156 39,000 122 457 -64
2019-10-16 12:47:40 GMT 47.077534 16.372093 39,000 121 457 64
2019-10-16 12:47:36 GMT 47.082233 16.361036 39,000 121 457 64
2019-10-16 12:47:33 GMT 47.087357 16.349066 39,000 121 451 0
2019-10-16 12:47:30 GMT 47.088959 16.345253 39,000 122 456 0
2019-10-16 12:47:26 GMT 47.093582 16.334473 39,000 121 455 -64
2019-10-16 12:47:23 GMT 47.097969 16.324135 39,000 121 455 -128
2019-10-16 12:47:20 GMT 47.100540 16.318130 39,025 122 454 64
2019-10-16 12:47:17 GMT 47.103508 16.311176 39,000 122 452 -64
2019-10-16 12:47:09 GMT 47.111984 16.291283 39,000 122 454 64
2019-10-16 12:47:06 GMT 47.115288 16.283569 39,000 122 454 64
2019-10-16 12:47:00 GMT 47.122734 16.266104 39,000 122 454 0
2019-10-16 12:46:57 GMT 47.136375 16.234131 39,000 121 452 0
2019-10-16 12:46:48 GMT 47.139496 16.226948 39,000 122 451 64
2019-10-16 12:46:39 GMT 47.146454 16.210602 39,000 121 451 64
2019-10-16 12:46:36 GMT 47.150253 16.201675 39,000 122 450 64
2019-10-16 12:46:32 GMT 47.153687 16.193642 39,000 121 450 -64
2019-10-16 12:46:27 GMT 47.158955 16.181242 39,000 121 450 -64
2019-10-16 12:46:24 GMT 47.162659 16.172493 39,000 121 450 -64
2019-10-16 12:46:16 GMT 47.171707 16.151171 39,000 121 450 64
2019-10-16 12:46:13 GMT 47.174835 16.143929 39,000 121 452 0
2019-10-16 12:46:05 GMT 47.183811 16.122719 39,000 121 450 64
2019-10-16 12:46:02 GMT 47.186783 16.115707 38,975 121 454 64
2019-10-16 12:45:55 GMT 47.194244 16.098061 39,000 121 451 -128
2019-10-16 12:45:51 GMT 47.205780 16.070801 39,000 121 454 64
2019-10-16 12:45:44 GMT 47.205780 16.070801 39,000 121 452 -64
2019-10-16 12:45:40 GMT 47.210632 16.059402 39,000 121 452 0
2019-10-16 12:45:36 GMT 47.216721 16.044983 39,000 121 452 0
2019-10-16 12:45:33 GMT 47.218399 16.041025 39,000 121 452 0
2019-10-16 12:45:30 GMT 47.222946 16.030289 39,000 121 454 64
2019-10-16 12:45:26 GMT 47.226471 16.022049 39,000 121 452 -64
2019-10-16 12:45:23 GMT 47.228989 16.016006 39,000 121 453 0
2019-10-16 12:45:19 GMT 47.234756 16.002411 39,000 121 454 64
2019-10-16 12:45:14 GMT 47.239243 15.991837 39,000 121 453 0
2019-10-16 12:45:11 GMT 47.242653 15.983769 39,000 121 453 0
2019-10-16 12:45:08 GMT 47.246845 15.973839 39,000 121 454 64
2019-10-16 12:45:03 GMT 47.252014 15.961555 39,000 121 454 -64
2019-10-16 12:44:59 GMT 47.256271 15.951530 39,000 121 458 0
2019-10-16 12:44:56 GMT 47.259521 15.943771 39,000 121 455 0
2019-10-16 12:44:52 GMT 47.263641 15.934021 39,000 121 455 0
2019-10-16 12:44:48 GMT 47.267746 15.924260 39,000 121 458 0
2019-10-16 12:44:44 GMT 47.272678 15.912429 39,000 121 455 -64
2019-10-16 12:44:41 GMT 47.275566 15.905597 39,000 121 455 -64
2019-10-16 12:44:38 GMT 47.279522 15.896160 39,000 121 455 0
2019-10-16 12:44:32 GMT 47.286942 15.878403 39,000 121 457 0
2019-10-16 12:44:29 GMT 47.290283 15.870506 39,000 121 456 64
2019-10-16 12:44:26 GMT 47.291954 15.866441 39,000 121 457 0
2019-10-16 12:44:21 GMT 47.298191 15.851581 39,000 121 457 0
2019-10-16 12:44:18 GMT 47.302845 15.840454 39,000 121 457 -64
2019-10-16 12:44:10 GMT 47.310425 15.822372 39,000 121 457 -64
2019-10-16 12:44:07 GMT 47.313877 15.814186 39,000 121 458 64
2019-10-16 12:44:00 GMT 47.322350 15.793833 39,000 121 458 64
2019-10-16 12:43:57 GMT 47.325005 15.787424 39,000 121 459 -64
2019-10-16 12:43:48 GMT 47.334183 15.765450 39,000 121 458 0
2019-10-16 12:43:45 GMT 47.337482 15.757564 39,000 121 459 -64
2019-10-16 12:43:42 GMT 47.342194 15.746292 39,000 121 458 0
2019-10-16 12:43:38 GMT 47.345535 15.738258 39,000 121 459 -64
2019-10-16 12:43:34 GMT 47.354507 15.716835 39,000 121 459 0
2019-10-16 12:43:30 GMT 47.358662 15.706858 39,000 121 460 0
2019-10-16 12:43:27 GMT 47.363388 15.695480 39,000 121 460 0
2019-10-16 12:43:23 GMT 47.363388 15.695480 39,000 121 460 0
2019-10-16 12:43:18 GMT 47.369137 15.681786 39,000 121 460 128
2019-10-16 12:43:15 GMT 47.371510 15.676082 39,000 121 460 64
2019-10-16 12:43:12 GMT 47.375107 15.667534 39,000 121 460 128
2019-10-16 12:43:06 GMT 47.385178 15.643295 39,000 121 461 -128
2019-10-16 12:43:02 GMT 47.385178 15.643295 39,000 121 461 0
2019-10-16 12:42:56 GMT 47.393295 15.623897 39,000 121 461 -128
2019-10-16 12:42:49 GMT 47.400009 15.607727 39,000 121 461 -64
2019-10-16 12:42:45 GMT 47.405777 15.593857 39,000 121 461 64
2019-10-16 12:42:40 GMT 47.410492 15.582458 39,000 121 461 64
2019-10-16 12:42:36 GMT 47.415455 15.570514 39,000 121 462 -64
2019-10-16 12:42:33 GMT 47.418064 15.564247 39,000 121 462 -64
2019-10-16 12:42:29 GMT 47.422020 15.554669 39,000 121 462 0
2019-10-16 12:42:26 GMT 47.425827 15.545517 39,000 121 462 0
2019-10-16 12:42:23 GMT 47.429214 15.537346 39,000 121 462 0
2019-10-16 12:42:18 GMT 47.435612 15.521851 39,000 121 461 0
2019-10-16 12:42:12 GMT 47.442455 15.505371 39,000 121 462 0
2019-10-16 12:42:09 GMT 47.446152 15.496422 39,000 121 462 0
2019-10-16 12:42:06 GMT 47.447762 15.492483 39,000 121 461 -64
2019-10-16 12:42:02 GMT 47.453629 15.478398 39,000 121 463 0
2019-10-16 12:41:56 GMT 47.459263 15.464736 39,000 121 463 64
2019-10-16 12:41:53 GMT 47.463264 15.455088 39,000 121 464 64
2019-10-16 12:41:47 GMT 47.468811 15.441696 39,000 121 464 0
2019-10-16 12:41:44 GMT 47.475601 15.425298 39,000 121 464 0
2019-10-16 12:41:41 GMT 47.475601 15.425298 39,000 121 464 0
2019-10-16 12:41:38 GMT 47.480816 15.412762 39,000 121 464 0
2019-10-16 12:41:35 GMT 47.487076 15.397682 39,000 121 464 0
2019-10-16 12:41:31 GMT 47.487076 15.397682 39,000 121 464 0
2019-10-16 12:41:27 GMT 47.497250 15.373113 39,000 121 464 -64
2019-10-16 12:41:23 GMT 47.497250 15.373113 39,000 121 464 0
2019-10-16 12:41:20 GMT 47.499016 15.368887 39,000 121 464 0
2019-10-16 12:41:17 GMT 47.503719 15.357549 39,000 121 464 -64
2019-10-16 12:41:14 GMT 47.506393 15.351128 39,000 121 464 0
2019-10-16 12:41:11 GMT 47.510330 15.341492 39,000 121 464 -64
2019-10-16 12:41:06 GMT 47.515823 15.328181 39,000 121 464 0
2019-10-16 12:41:03 GMT 47.517975 15.322975 39,000 121 464 0
2019-10-16 12:41:00 GMT 47.521912 15.313431 39,000 121 464 0
2019-10-16 12:40:55 GMT 47.530151 15.293449 39,000 121 464 0
2019-10-16 12:40:52 GMT 47.530151 15.293449 39,000 121 463 0
2019-10-16 12:40:49 GMT 47.534584 15.282687 39,000 121 464 0
2019-10-16 12:40:43 GMT 47.540497 15.268318 39,000 121 464 0
2019-10-16 12:40:39 GMT 47.545055 15.257193 39,000 121 464 -64
2019-10-16 12:40:36 GMT 47.553406 15.236870 39,000 121 464 0
2019-10-16 12:40:32 GMT 47.553406 15.236870 39,000 121 464 0
2019-10-16 12:40:29 GMT 47.557617 15.226570 39,000 121 464 0
2019-10-16 12:40:22 GMT 47.564053 15.210853 39,000 121 464 0
2019-10-16 12:40:17 GMT 47.570847 15.194298 39,000 121 464 0
2019-10-16 12:40:12 GMT 47.575333 15.183311 39,000 121 464 0
2019-10-16 12:40:09 GMT 47.579319 15.173598 39,000 121 463 0
2019-10-16 12:40:06 GMT 47.589294 15.149254 39,000 121 463 64
2019-10-16 12:39:59 GMT 47.589294 15.149254 39,000 121 463 64
2019-10-16 12:39:56 GMT 47.601242 15.120071 39,000 121 463 64
2019-10-16 12:39:50 GMT 47.601242 15.120071 39,000 121 463 64
2019-10-16 12:39:47 GMT 47.602921 15.115990 39,000 121 463 64
2019-10-16 12:39:44 GMT 47.605682 15.109222 39,000 121 463 64
2019-10-16 12:39:41 GMT 47.610043 15.098525 39,000 121 463 0
2019-10-16 12:39:37 GMT 47.617401 15.080496 39,000 121 463 0
2019-10-16 12:39:34 GMT 47.617401 15.080496 39,000 121 463 -64
2019-10-16 12:39:31 GMT 47.622253 15.068573 39,000 121 463 -64
2019-10-16 12:39:27 GMT 47.629120 15.051682 39,000 121 463 -64
2019-10-16 12:39:24 GMT 47.629120 15.051682 39,000 121 463 -64
2019-10-16 12:39:19 GMT 47.634842 15.037674 39,000 121 463 0
2019-10-16 12:39:15 GMT 47.638813 15.027888 39,000 121 463 0
2019-10-16 12:39:12 GMT 47.641003 15.022536 39,000 121 463 0
2019-10-16 12:39:09 GMT 47.645737 15.010963 39,000 121 463 0
2019-10-16 12:39:05 GMT 47.649902 15.000732 39,000 121 463 0
2019-10-16 12:39:02 GMT 47.652603 14.994072 39,000 121 463 0
2019-10-16 12:38:55 GMT 47.660786 14.973872 39,000 120 463 -64
2019-10-16 12:38:52 GMT 47.664326 14.965210 39,000 120 464 64
2019-10-16 12:38:48 GMT 47.668488 14.955002 39,000 120 463 0
2019-10-16 12:38:44 GMT 47.672657 14.944646 39,000 120 463 0
2019-10-16 12:38:41 GMT 47.675903 14.936668 39,000 120 463 64
2019-10-16 12:38:38 GMT 47.683037 14.918941 39,000 120 463 0
2019-10-16 12:38:34 GMT 47.687321 14.908377 39,000 120 463 -64
2019-10-16 12:38:27 GMT 47.695889 14.887179 39,000 120 463 -64
2019-10-16 12:38:24 GMT 47.695889 14.887179 39,000 120 463 -64
2019-10-16 12:38:19 GMT 47.699478 14.878235 39,000 120 463 0
2019-10-16 12:38:16 GMT 47.704777 14.865065 39,000 120 463 64
2019-10-16 12:38:13 GMT 47.711060 14.849464 39,000 120 463 64
2019-10-16 12:38:10 GMT 47.711060 14.849464 39,000 120 463 0
2019-10-16 12:38:07 GMT 47.713669 14.843010 39,000 120 463 0
2019-10-16 12:38:03 GMT 47.718063 14.832161 39,000 120 463 64
2019-10-16 12:37:58 GMT 47.723026 14.819852 39,000 120 462 0
2019-10-16 12:37:54 GMT 47.727356 14.809148 39,000 120 463 0
2019-10-16 12:37:51 GMT 47.731174 14.799640 39,000 120 464 0
2019-10-16 12:37:48 GMT 47.739716 14.778534 39,000 120 465 -64
2019-10-16 12:37:43 GMT 47.739716 14.778534 39,000 120 465 0
2019-10-16 12:37:40 GMT 47.742531 14.771470 39,000 120 465 0
2019-10-16 12:37:36 GMT 47.747372 14.759568 39,000 120 465 0
2019-10-16 12:37:31 GMT 47.757294 14.734863 39,000 120 465 0
2019-10-16 12:37:27 GMT 47.757294 14.734863 39,000 120 465 0
2019-10-16 12:37:24 GMT 47.760780 14.726328 39,000 120 465 -64
2019-10-16 12:37:21 GMT 47.764069 14.718109 39,000 120 465 0
2019-10-16 12:37:18 GMT 47.767998 14.708369 39,000 120 465 64
2019-10-16 12:37:14 GMT 47.771759 14.699020 39,000 120 465 0
2019-10-16 12:37:10 GMT 47.776142 14.688016 39,000 120 465 -64
2019-10-16 12:37:05 GMT 47.781052 14.675880 39,000 120 465 -64
2019-10-16 12:37:02 GMT 47.785828 14.664001 39,000 120 465 -64
2019-10-16 12:36:56 GMT 47.791645 14.649564 39,000 120 465 128
2019-10-16 12:36:53 GMT 47.799374 14.630268 39,000 120 465 128
2019-10-16 12:36:50 GMT 47.799374 14.630268 39,000 120 465 128
2019-10-16 12:36:44 GMT 47.806122 14.613507 39,000 120 465 64
2019-10-16 12:36:41 GMT 47.808884 14.606598 39,000 120 465 128
2019-10-16 12:36:35 GMT 47.816036 14.588858 39,000 120 465 64
2019-10-16 12:36:32 GMT 47.818180 14.583576 39,000 120 465 64
2019-10-16 12:36:29 GMT 47.821884 14.574257 39,000 120 465 0
2019-10-16 12:36:25 GMT 47.826553 14.562721 39,000 120 465 -64
2019-10-16 12:36:20 GMT 47.831726 14.549772 39,000 120 466 -64
2019-10-16 12:36:14 GMT 47.838150 14.533785 39,000 120 466 0
2019-10-16 12:36:10 GMT 47.842117 14.523857 39,000 120 466 0
2019-10-16 12:36:07 GMT 47.848812 14.507094 39,000 120 466 -128
2019-10-16 12:36:00 GMT 47.854073 14.493854 39,000 120 466 -64
2019-10-16 12:35:57 GMT 47.857178 14.485954 39,000 120 467 0
2019-10-16 12:35:53 GMT 47.861099 14.476178 39,000 120 468 0
2019-10-16 12:35:49 GMT 47.868027 14.458832 39,000 120 468 -64
2019-10-16 12:35:43 GMT 47.871277 14.450592 38,875 120 467 384
2019-10-16 12:35:39 GMT 47.877766 14.434345 39,025 120 467 64
2019-10-16 12:35:35 GMT 47.880936 14.426353 38,975 120 467 576
2019-10-16 12:35:29 GMT 47.888260 14.408089 38,925 120 468 896
2019-10-16 12:35:26 GMT 47.890045 14.403625 38,900 120 467 768
2019-10-16 12:35:23 GMT 47.894257 14.392914 38,850 120 467 704
2019-10-16 12:35:19 GMT 47.897873 14.383713 38,775 120 467 640
2019-10-16 12:35:16 GMT 47.902817 14.371216 38,750 120 467 896
2019-10-16 12:35:13 GMT 47.905090 14.365399 38,725 120 467 960
2019-10-16 12:35:09 GMT 47.910141 14.352676 38,625 120 469 1728
2019-10-16 12:35:06 GMT 47.912933 14.345673 38,550 120 470 1984
2019-10-16 12:35:03 GMT 47.915497 14.339218 38,450 120 471 2112
2019-10-16 12:35:00 GMT 47.919067 14.330292 38,275 120 474 2048
2019-10-16 12:34:56 GMT 47.927345 14.309552 38,175 120 476 1152
2019-10-16 12:34:53 GMT 47.927345 14.309552 38,150 120 477 768
2019-10-16 12:34:50 GMT 47.931347 14.299481 38,075 120 477 768
2019-10-16 12:34:47 GMT 47.934036 14.292595 38,075 120 477 768
2019-10-16 12:34:44 GMT 47.937027 14.285114 38,050 120 476 640
2019-10-16 12:34:41 GMT 47.940628 14.276047 38,025 120 476 640
2019-10-16 12:34:37 GMT 47.945175 14.264691 37,975 120 476 704
2019-10-16 12:34:34 GMT 47.949505 14.253845 37,900 120 476 896
2019-10-16 12:34:30 GMT 47.952896 14.245216 37,900 120 474 896
2019-10-16 12:34:26 GMT 47.956814 14.235394 37,850 120 476 896
2019-10-16 12:34:23 GMT 47.961594 14.223381 37,775 120 475 768
2019-10-16 12:34:20 GMT 47.964432 14.216171 37,750 120 474 832
2019-10-16 12:34:16 GMT 47.969196 14.204266 37,700 120 474 896
2019-10-16 12:34:13 GMT 47.972397 14.196121 37,550 120 473 960
2019-10-16 12:34:10 GMT 47.975292 14.188772 37,600 120 474 896
2019-10-16 12:34:07 GMT 47.978645 14.180392 37,525 120 475 896
2019-10-16 12:34:04 GMT 47.982422 14.170715 37,500 120 475 1024
2019-10-16 12:34:01 GMT 47.986038 14.161583 37,425 120 474 1088
2019-10-16 12:33:58 GMT 47.989471 14.152863 37,400 120 474 1024
2019-10-16 12:33:55 GMT 47.993309 14.143207 37,350 120 474 896
2019-10-16 12:33:52 GMT 47.995514 14.137619 37,275 120 474 832
2019-10-16 12:33:48 GMT 47.999268 14.128143 37,275 120 474 832
2019-10-16 12:33:45 GMT 48.007179 14.108065 36,825 120 472 832
2019-10-16 12:33:42 GMT 48.007179 14.108065 37,125 120 473 768
2019-10-16 12:33:39 GMT 48.010529 14.099510 37,125 120 473 768
2019-10-16 12:33:35 GMT 48.017807 14.081108 37,050 120 473 704
2019-10-16 12:33:31 GMT 48.022636 14.068979 37,000 120 472 768
2019-10-16 12:33:28 GMT 48.022636 14.068979 36,975 120 472 832
2019-10-16 12:33:25 GMT 48.029247 14.052147 36,900 120 471 768
2019-10-16 12:33:22 GMT 48.034786 14.038133 36,850 120 471 768
2019-10-16 12:33:17 GMT 48.038464 14.028766 36,800 120 470 832
2019-10-16 12:33:10 GMT 48.042343 14.018761 36,700 118 470 768
2019-10-16 12:33:05 GMT 48.047684 14.004047 36,675 117 471 768
2019-10-16 12:33:02 GMT 48.050629 13.995483 36,625 116 471 832
2019-10-16 12:32:59 GMT 48.052597 13.989441 36,625 115 471 896
2019-10-16 12:32:54 GMT 48.058365 13.970970 36,500 114 472 1088
2019-10-16 12:32:51 GMT 48.059967 13.965752 36,050 114 470 1472
2019-10-16 12:32:48 GMT 48.063137 13.955383 36,325 114 478 2112
2019-10-16 12:32:45 GMT 48.065742 13.946932 36,325 114 472 1472
2019-10-16 12:32:42 GMT 48.072464 13.925171 36,225 114 472 1024
2019-10-16 12:32:38 GMT 48.072464 13.925171 36,175 114 472 896
2019-10-16 12:32:35 GMT 48.074589 13.918128 36,125 114 470 1280
2019-10-16 12:32:31 GMT 48.078266 13.906156 36,100 114 472 896
2019-10-16 12:32:28 GMT 48.080967 13.897423 36,025 114 471 960
2019-10-16 12:32:25 GMT 48.084225 13.886789 36,000 114 470 1280
2019-10-16 12:32:22 GMT 48.086426 13.879646 35,925 114 471 1280
2019-10-16 12:32:19 GMT 48.089264 13.870514 35,875 114 471 896
2019-10-16 12:32:16 GMT 48.091232 13.864059 35,850 114 478 2112
2019-10-16 12:32:13 GMT 48.094093 13.854816 35,825 114 470 832
2019-10-16 12:32:10 GMT 48.098190 13.841295 35,750 114 469 1344
2019-10-16 12:32:07 GMT 48.100067 13.835289 35,675 114 470 1536
2019-10-16 12:32:03 GMT 48.103497 13.824111 35,575 114 470 1664
2019-10-16 12:32:00 GMT 48.106293 13.814896 35,475 114 471 1792
2019-10-16 12:31:57 GMT 48.109680 13.803635 35,400 114 472 1856
2019-10-16 12:31:53 GMT 48.112202 13.795377 35,275 114 473 2048
2019-10-16 12:31:50 GMT 48.115768 13.783585 35,100 114 473 2112
2019-10-16 12:31:47 GMT 48.118057 13.776031 34,650 114 474 2048
2019-10-16 12:31:44 GMT 48.121189 13.765658 34,925 114 475 2048
2019-10-16 12:31:41 GMT 48.126167 13.749178 34,800 114 476 2240
2019-10-16 12:31:38 GMT 48.126167 13.749178 34,675 114 478 1920
2019-10-16 12:31:35 GMT 48.128632 13.741150 34,600 114 479 1984
2019-10-16 12:31:31 GMT 48.133106 13.726361 34,500 114 479 1728
2019-10-16 12:31:25 GMT 48.137878 13.710594 34,375 114 479 1920
2019-10-16 12:31:20 GMT 48.146255 13.683060 34,025 114 483 2048
2019-10-16 12:31:16 GMT 48.146255 13.683060 34,025 114 483 2048
2019-10-16 12:31:13 GMT 48.148911 13.674408 33,275 114 492 1984
2019-10-16 12:31:09 GMT 48.152802 13.661430 33,800 114 484 2048
2019-10-16 12:31:06 GMT 48.156521 13.649315 33,675 114 486 2240
2019-10-16 12:31:03 GMT 48.161682 13.632202 33,450 114 487 1984
2019-10-16 12:31:00 GMT 48.161682 13.632202 33,400 114 488 1856
2019-10-16 12:30:56 GMT 48.165070 13.620934 33,300 114 488 1920
2019-10-16 12:30:52 GMT 48.168903 13.608230 33,150 114 489 1920
2019-10-16 12:30:49 GMT 48.171883 13.598328 33,075 114 490 1856
2019-10-16 12:30:46 GMT 48.174908 13.588281 32,975 114 490 1792
2019-10-16 12:30:40 GMT 48.180450 13.569946 32,675 114 491 1728
2019-10-16 12:30:37 GMT 48.182327 13.563608 32,700 114 491 1664
2019-10-16 12:30:34 GMT 48.185291 13.553732 32,650 114 492 1920
2019-10-16 12:30:31 GMT 48.188461 13.543185 32,450 114 492 1984
2019-10-16 12:30:28 GMT 48.191761 13.532265 32,425 114 493 1920
2019-10-16 12:30:23 GMT 48.194881 13.521785 32,350 114 493 1600
2019-10-16 12:30:17 GMT 48.204655 13.489259 32,175 114 492 1088
2019-10-16 12:30:14 GMT 48.204655 13.489259 32,125 114 491 1152
2019-10-16 12:30:11 GMT 48.206566 13.482899 32,100 114 491 1216
2019-10-16 12:30:08 GMT 48.209728 13.472419 31,950 114 491 1280
2019-10-16 12:30:05 GMT 48.212540 13.462970 31,900 114 491 1280
2019-10-16 12:30:02 GMT 48.216293 13.450446 31,850 114 489 1216
2019-10-16 12:29:57 GMT 48.222672 13.429124 31,725 114 488 1152
2019-10-16 12:29:54 GMT 48.226349 13.416836 31,600 114 488 1152
2019-10-16 12:29:51 GMT 48.226349 13.416836 31,350 114 488 1216
2019-10-16 12:29:48 GMT 48.228104 13.410926 31,325 114 488 1216
2019-10-16 12:29:41 GMT 48.235565 13.386066 31,450 114 487 1216
2019-10-16 12:29:36 GMT 48.241245 13.366964 31,300 114 485 1088
2019-10-16 12:29:33 GMT 48.244675 13.355431 31,325 114 485 1088
2019-10-16 12:29:30 GMT 48.244675 13.355431 31,275 114 484 1216
2019-10-16 12:29:27 GMT 48.247238 13.346910 31,150 114 483 704
2019-10-16 12:29:23 GMT 48.251488 13.332777 31,150 114 476 128
2019-10-16 12:29:19 GMT 48.256607 13.315647 31,100 114 478 192
2019-10-16 12:29:16 GMT 48.257858 13.311345 31,100 113 479 256
2019-10-16 12:29:10 GMT 48.262756 13.295006 31,100 114 474 192
2019-10-16 12:29:05 GMT 48.269459 13.272352 31,000 113 469 64
2019-10-16 12:28:59 GMT 48.275600 13.251825 31,000 113 469 0
2019-10-16 12:28:55 GMT 48.275600 13.251825 31,000 113 469 -64
2019-10-16 12:28:52 GMT 48.279190 13.239652 31,000 113 469 0
2019-10-16 12:28:49 GMT 48.281654 13.231370 31,000 113 469 64
2019-10-16 12:28:45 GMT 48.284725 13.220962 31,000 113 469 64
2019-10-16 12:28:41 GMT 48.288300 13.209088 31,000 113 469 0
2019-10-16 12:28:37 GMT 48.291477 13.198339 31,000 112 470 0
2019-10-16 12:28:32 GMT 48.298458 13.172752 31,000 110 470 0
2019-10-16 12:28:26 GMT 48.300293 13.165283 31,000 109 470 0
2019-10-16 12:28:23 GMT 48.302929 13.154104 31,000 109 471 64
2019-10-16 12:28:19 GMT 48.305969 13.140987 31,000 109 471 0
2019-10-16 12:28:16 GMT 48.308235 13.131192 31,000 109 471 0
2019-10-16 12:28:11 GMT 48.311306 13.117893 31,000 109 471 0
2019-10-16 12:28:08 GMT 48.313889 13.106901 31,000 109 471 0
2019-10-16 12:28:05 GMT 48.315720 13.099154 31,000 109 471 0
2019-10-16 12:28:02 GMT 48.318058 13.089054 31,000 109 471 -64
2019-10-16 12:27:59 GMT 48.319794 13.081548 31,000 109 471 0
2019-10-16 12:27:55 GMT 48.323738 13.064623 31,000 109 471 0
2019-10-16 12:27:52 GMT 48.325134 13.058552 31,000 109 471 0
2019-10-16 12:27:49 GMT 48.331192 13.032602 31,000 109 471 0
2019-10-16 12:27:44 GMT 48.331192 13.032602 31,000 109 471 0
2019-10-16 12:27:41 GMT 48.334724 13.017498 31,000 109 471 0
2019-10-16 12:27:38 GMT 48.334724 13.017498 31,000 109 471 0
2019-10-16 12:27:35 GMT 48.337608 13.005066 31,000 109 471 0
2019-10-16 12:27:31 GMT 48.339752 12.995911 31,000 109 471 0
2019-10-16 12:27:28 GMT 48.341949 12.986615 31,000 109 470 0
2019-10-16 12:27:24 GMT 48.345291 12.972396 31,000 109 470 0
2019-10-16 12:27:21 GMT 48.347534 12.962740 31,000 109 470 0
2019-10-16 12:27:18 GMT 48.349060 12.956133 31,000 103 473 0
2019-10-16 12:27:12 GMT 48.354740 12.931848 31,000 109 470 0
2019-10-16 12:27:09 GMT 48.355820 12.927246 31,000 109 470 0
2019-10-16 12:27:06 GMT 48.359070 12.913345 31,000 109 471 0
2019-10-16 12:27:03 GMT 48.360420 12.907345 31,000 103 473 0
2019-10-16 12:26:58 GMT 48.363865 12.892456 31,000 103 473 0
2019-10-16 12:26:55 GMT 48.366055 12.883132 31,000 109 470 0
2019-10-16 12:26:52 GMT 48.369003 12.870483 31,000 109 471 0
2019-10-16 12:26:47 GMT 48.371685 12.858847 31,000 109 470 0
2019-10-16 12:26:40 GMT 48.376804 12.836657 31,000 109 470 0
2019-10-16 12:26:37 GMT 48.383091 12.809408 31,000 108 471 0
2019-10-16 12:26:31 GMT 48.386070 12.796543 31,000 109 471 0
2019-10-16 12:26:27 GMT 48.386070 12.796543 31,000 109 471 0
2019-10-16 12:26:24 GMT 48.388397 12.786568 31,000 103 473 0
2019-10-16 12:26:20 GMT 48.390957 12.775509 31,000 105 472 0
2019-10-16 12:26:16 GMT 48.395706 12.753537 31,000 106 472 0
2019-10-16 12:26:13 GMT 48.395706 12.753537 31,000 106 472 0
2019-10-16 12:26:10 GMT 48.397289 12.745369 31,000 104 472 -64
2019-10-16 12:26:06 GMT 48.401093 12.723224 31,000 103 473 0
2019-10-16 12:26:03 GMT 48.401093 12.723224 31,000 103 473 0
2019-10-16 12:26:00 GMT 48.402603 12.713576 31,000 103 473 0
2019-10-16 12:25:56 GMT 48.404755 12.699773 31,000 103 473 0
2019-10-16 12:25:52 GMT 48.406551 12.688197 31,000 103 472 0
2019-10-16 12:25:49 GMT 48.408417 12.676199 31,000 103 473 0
2019-10-16 12:25:46 GMT 48.410248 12.664208 31,000 103 473 0
2019-10-16 12:25:43 GMT 48.411255 12.657768 31,000 103 473 0
2019-10-16 12:25:40 GMT 48.412746 12.648155 31,000 103 473 0
2019-10-16 12:25:37 GMT 48.414139 12.639278 31,000 103 473 0
2019-10-16 12:25:34 GMT 48.415558 12.630052 31,000 103 473 0
2019-10-16 12:25:31 GMT 48.417618 12.616530 31,000 103 473 0
2019-10-16 12:25:27 GMT 48.419266 12.605896 31,000 103 473 0
2019-10-16 12:25:23 GMT 48.421143 12.593783 31,000 103 473 0
2019-10-16 12:25:20 GMT 48.422745 12.583501 31,000 103 473 64
2019-10-16 12:25:17 GMT 48.424210 12.574064 31,000 103 472 0
2019-10-16 12:25:13 GMT 48.427734 12.551229 31,000 103 472 0
2019-10-16 12:25:10 GMT 48.427734 12.551229 31,000 103 472 0
2019-10-16 12:25:04 GMT 48.431740 12.525571 31,000 103 472 0
2019-10-16 12:24:58 GMT 48.433823 12.512231 31,000 102 472 0
2019-10-16 12:24:55 GMT 48.434998 12.504610 31,000 102 472 0
2019-10-16 12:24:52 GMT 48.436859 12.492539 31,000 102 472 0
2019-10-16 12:24:49 GMT 48.439499 12.475046 31,000 102 471 0
2019-10-16 12:24:46 GMT 48.439499 12.475046 31,000 102 472 0
2019-10-16 12:24:43 GMT 48.440964 12.465398 31,000 102 473 0
2019-10-16 12:24:39 GMT 48.443024 12.451876 31,000 102 473 0
2019-10-16 12:24:36 GMT 48.444214 12.444185 31,000 102 472 0
2019-10-16 12:24:33 GMT 48.447285 12.423730 31,000 102 472 0
2019-10-16 12:24:30 GMT 48.447285 12.423730 31,000 102 472 0
2019-10-16 12:24:26 GMT 48.450729 12.400962 31,000 102 472 0
2019-10-16 12:24:23 GMT 48.450729 12.400962 31,000 102 472 0
2019-10-16 12:24:17 GMT 48.453480 12.382676 31,000 102 472 0
2019-10-16 12:24:14 GMT 48.455200 12.371473 31,000 102 472 0
2019-10-16 12:24:11 GMT 48.456116 12.365394 31,000 102 472 0
2019-10-16 12:24:07 GMT 48.458275 12.350873 31,000 102 471 0
2019-10-16 12:24:04 GMT 48.460007 12.339337 31,000 102 472 64
2019-10-16 12:24:00 GMT 48.461578 12.328684 31,000 102 472 64
2019-10-16 12:23:57 GMT 48.463623 12.315251 31,000 102 472 0
2019-10-16 12:23:54 GMT 48.466373 12.296737 31,000 102 472 0
2019-10-16 12:23:50 GMT 48.466373 12.296737 31,000 102 472 0
2019-10-16 12:23:47 GMT 48.467972 12.286236 31,000 102 472 0
2019-10-16 12:23:44 GMT 48.469723 12.274475 31,000 102 472 0
2019-10-16 12:23:40 GMT 48.470947 12.266306 31,000 102 472 0
2019-10-16 12:23:35 GMT 48.473831 12.247221 31,000 102 472 0
2019-10-16 12:23:32 GMT 48.475033 12.239348 31,000 102 471 0
2019-10-16 12:23:26 GMT 48.478134 12.218910 31,000 102 472 0
2019-10-16 12:23:23 GMT 48.479546 12.209641 31,000 102 472 0
2019-10-16 12:23:20 GMT 48.481018 12.199754 31,000 102 472 0
2019-10-16 12:23:15 GMT 48.483353 12.184260 31,000 102 471 0
2019-10-16 12:23:12 GMT 48.484818 12.174753 31,000 102 471 0
2019-10-16 12:23:09 GMT 48.486156 12.165913 31,000 102 471 0
2019-10-16 12:23:05 GMT 48.488625 12.149722 31,000 102 471 0
2019-10-16 12:23:02 GMT 48.489578 12.143484 31,000 102 472 0
2019-10-16 12:22:59 GMT 48.491138 12.133315 31,000 102 472 0
2019-10-16 12:22:54 GMT 48.493607 12.116836 31,000 102 472 0
2019-10-16 12:22:51 GMT 48.496445 12.098060 31,000 102 472 0
2019-10-16 12:22:48 GMT 48.498539 12.084310 31,000 102 472 0
2019-10-16 12:22:44 GMT 48.498539 12.084310 31,000 102 472 0
2019-10-16 12:22:41 GMT 48.499969 12.074749 31,000 102 472 0
2019-10-16 12:22:38 GMT 48.501053 12.067686 31,000 102 473 0
2019-10-16 12:22:34 GMT 48.503357 12.052425 31,000 102 473 0
2019-10-16 12:22:31 GMT 48.504639 12.044044 31,000 102 473 64
2019-10-16 12:22:28 GMT 48.506424 12.032072 31,000 102 473 64
2019-10-16 12:22:25 GMT 48.507896 12.022512 31,000 102 473 64
2019-10-16 12:22:22 GMT 48.508987 12.015170 31,000 102 474 0
2019-10-16 12:22:19 GMT 48.510784 12.003214 31,000 102 474 0
2019-10-16 12:22:16 GMT 48.512238 11.993549 31,000 102 474 64
2019-10-16 12:22:12 GMT 48.513855 11.982687 31,000 102 474 64
2019-10-16 12:22:09 GMT 48.516697 11.963533 31,000 102 475 0
2019-10-16 12:22:03 GMT 48.518372 11.952402 31,000 102 475 0
2019-10-16 12:22:00 GMT 48.520046 11.941054 31,000 102 476 0
2019-10-16 12:21:56 GMT 48.521210 11.933176 31,000 102 476 0
2019-10-16 12:21:53 GMT 48.525539 11.903831 31,000 102 476 0
2019-10-16 12:21:48 GMT 48.525539 11.903831 31,000 102 476 0
2019-10-16 12:21:45 GMT 48.526890 11.894652 31,000 102 476 -64
2019-10-16 12:21:42 GMT 48.529633 11.875798 31,000 102 477 0
2019-10-16 12:21:39 GMT 48.529633 11.875798 31,000 102 477 0
2019-10-16 12:21:36 GMT 48.531601 11.862206 31,000 102 477 0
2019-10-16 12:21:32 GMT 48.533020 11.852417 31,000 102 477 0
2019-10-16 12:21:28 GMT 48.534988 11.838895 31,000 102 477 0
2019-10-16 12:21:25 GMT 48.536224 11.830726 31,000 102 477 0
2019-10-16 12:21:22 GMT 48.537643 11.820937 31,000 102 477 0
2019-10-16 12:21:19 GMT 48.539040 11.811459 31,000 102 477 64
2019-10-16 12:21:16 GMT 48.540344 11.802352 31,000 102 477 64
2019-10-16 12:21:13 GMT 48.543324 11.782186 31,000 102 478 0
2019-10-16 12:21:10 GMT 48.543324 11.782186 31,000 102 484 0
2019-10-16 12:21:07 GMT 48.544830 11.772062 30,975 102 481 0
2019-10-16 12:21:04 GMT 48.546387 11.761357 30,975 102 482 -64
2019-10-16 12:21:01 GMT 48.547794 11.751757 31,000 102 483 0
2019-10-16 12:20:58 GMT 48.548996 11.743399 31,000 102 484 0
2019-10-16 12:20:55 GMT 48.550957 11.730074 31,000 102 484 -64
2019-10-16 12:20:52 GMT 48.552216 11.721472 31,000 102 484 0
2019-10-16 12:20:49 GMT 48.553574 11.712130 31,000 102 484 0
2019-10-16 12:20:46 GMT 48.555450 11.698961 31,000 102 484 0
2019-10-16 12:20:43 GMT 48.556404 11.692561 31,000 102 484 0
2019-10-16 12:20:40 GMT 48.558289 11.679453 31,000 102 484 0
2019-10-16 12:20:36 GMT 48.559616 11.670509 31,000 102 485 -64
2019-10-16 12:20:33 GMT 48.561264 11.658818 31,000 102 485 -64
2019-10-16 12:20:30 GMT 48.562729 11.648888 31,000 102 485 0
2019-10-16 12:20:27 GMT 48.563919 11.640508 31,000 102 484 0
2019-10-16 12:20:24 GMT 48.565296 11.631124 31,000 102 485 0
2019-10-16 12:20:21 GMT 48.566528 11.622338 31,000 102 484 0
2019-10-16 12:20:18 GMT 48.567951 11.612693 31,000 103 484 0
2019-10-16 12:20:15 GMT 48.569530 11.602358 31,000 103 484 0
2019-10-16 12:20:12 GMT 48.571861 11.588625 31,000 105 484 0
2019-10-16 12:20:09 GMT 48.573257 11.581180 31,000 106 485 0
2019-10-16 12:20:03 GMT 48.577354 11.560075 31,000 106 485 0
2019-10-16 12:20:00 GMT 48.579216 11.550462 31,000 106 485 0
2019-10-16 12:19:57 GMT 48.580799 11.542222 31,000 106 485 0
2019-10-16 12:19:54 GMT 48.582458 11.533743 31,000 106 485 0
2019-10-16 12:19:51 GMT 48.587082 11.509728 31,000 106 486 0
2019-10-16 12:19:48 GMT 48.587082 11.509728 31,000 106 486 -64
2019-10-16 12:19:45 GMT 48.588547 11.502333 31,000 106 486 -64
2019-10-16 12:19:41 GMT 48.590561 11.491910 31,000 106 487 0
2019-10-16 12:19:38 GMT 48.593552 11.476376 31,000 106 487 0
2019-10-16 12:19:34 GMT 48.595367 11.466908 31,000 106 487 64
2019-10-16 12:19:31 GMT 48.597427 11.456275 31,000 106 487 64
2019-10-16 12:19:28 GMT 48.598938 11.448317 31,000 106 487 0
2019-10-16 12:19:24 GMT 48.601364 11.435922 31,000 106 488 0
2019-10-16 12:19:21 GMT 48.605942 11.412189 31,000 106 488 -64
2019-10-16 12:19:13 GMT 48.608311 11.399906 31,000 106 489 -64
2019-10-16 12:19:10 GMT 48.612919 11.375909 31,000 106 489 -64
2019-10-16 12:19:06 GMT 48.612919 11.375909 31,000 106 489 -64
2019-10-16 12:19:03 GMT 48.615524 11.362248 31,000 106 490 0
2019-10-16 12:19:00 GMT 48.617203 11.353455 31,000 106 490 0
2019-10-16 12:18:57 GMT 48.619125 11.343313 31,000 105 489 64
2019-10-16 12:18:54 GMT 48.620544 11.335919 31,000 105 489 64
2019-10-16 12:18:49 GMT 48.623383 11.320989 31,000 105 489 0
2019-10-16 12:18:46 GMT 48.625809 11.308242 31,000 105 489 64
2019-10-16 12:18:42 GMT 48.627491 11.299438 31,000 105 489 0
2019-10-16 12:18:39 GMT 48.631577 11.277748 31,000 105 489 0
2019-10-16 12:18:36 GMT 48.633636 11.266902 31,000 105 489 0
2019-10-16 12:18:32 GMT 48.633636 11.266902 31,000 105 489 0
2019-10-16 12:18:28 GMT 48.638672 11.240211 31,000 105 489 0
2019-10-16 12:18:25 GMT 48.640274 11.231901 31,000 105 489 0
2019-10-16 12:18:19 GMT 48.641781 11.223980 31,000 105 489 0
2019-10-16 12:18:16 GMT 48.646133 11.200984 31,000 105 489 64
2019-10-16 12:18:13 GMT 48.646133 11.200984 31,000 105 489 0
2019-10-16 12:18:09 GMT 48.648205 11.190009 31,000 105 489 0
2019-10-16 12:18:06 GMT 48.650764 11.176565 31,000 105 489 0
2019-10-16 12:18:02 GMT 48.655003 11.154303 31,000 105 490 0
2019-10-16 12:17:58 GMT 48.655003 11.154303 31,000 105 490 0
2019-10-16 12:17:55 GMT 48.657051 11.143462 31,000 105 490 0
2019-10-16 12:17:52 GMT 48.661381 11.120694 31,000 105 490 0
2019-10-16 12:17:48 GMT 48.661381 11.120694 31,000 105 490 0
2019-10-16 12:17:44 GMT 48.664444 11.104642 31,000 105 491 0
2019-10-16 12:17:41 GMT 48.667831 11.086825 31,000 105 491 0
2019-10-16 12:17:38 GMT 48.667831 11.086825 31,000 105 491 0
2019-10-16 12:17:35 GMT 48.670364 11.073279 31,000 105 491 0
2019-10-16 12:17:32 GMT 48.673508 11.056683 31,000 105 492 0
2019-10-16 12:17:25 GMT 48.675888 11.044006 31,000 105 492 0
2019-10-16 12:17:21 GMT 48.677952 11.033020 31,000 105 492 0
2019-10-16 12:17:18 GMT 48.680794 11.018058 31,000 105 492 0
2019-10-16 12:17:15 GMT 48.682434 11.009357 31,000 105 492 0
2019-10-16 12:17:12 GMT 48.684238 10.999844 31,000 105 492 0
2019-10-16 12:17:09 GMT 48.685959 10.990694 31,000 105 492 0
2019-10-16 12:17:06 GMT 48.687286 10.983511 31,000 105 492 0
2019-10-16 12:17:03 GMT 48.689713 10.970764 31,000 105 492 -64
2019-10-16 12:16:59 GMT 48.692001 10.958369 31,000 105 492 0
2019-10-16 12:16:56 GMT 48.693829 10.948888 31,000 105 492 -64
2019-10-16 12:16:52 GMT 48.696808 10.932987 31,000 105 492 0
2019-10-16 12:16:49 GMT 48.698273 10.925269 31,000 105 492 0
2019-10-16 12:16:46 GMT 48.700195 10.915058 31,000 105 492 0
2019-10-16 12:16:42 GMT 48.702805 10.901466 31,000 106 493 0
2019-10-16 12:16:39 GMT 48.704350 10.893161 31,000 106 493 0
2019-10-16 12:16:36 GMT 48.706924 10.879704 31,000 105 492 0
2019-10-16 12:16:33 GMT 48.708725 10.869960 31,000 105 493 0
2019-10-16 12:16:30 GMT 48.709991 10.863295 31,000 105 492 0
2019-10-16 12:16:27 GMT 48.712215 10.851384 31,000 105 493 0
2019-10-16 12:16:24 GMT 48.713566 10.844301 31,000 105 493 0
2019-10-16 12:16:21 GMT 48.715752 10.832520 31,000 105 493 0
2019-10-16 12:16:18 GMT 48.717819 10.821533 31,000 105 493 0
2019-10-16 12:16:15 GMT 48.719894 10.810330 31,000 105 493 64
2019-10-16 12:16:11 GMT 48.721619 10.800862 31,000 105 493 0
2019-10-16 12:16:08 GMT 48.723808 10.789008 31,000 105 493 0
2019-10-16 12:16:03 GMT 48.729069 10.760313 31,000 105 493 0
2019-10-16 12:16:00 GMT 48.730324 10.753519 31,000 105 493 0
2019-10-16 12:15:53 GMT 48.733109 10.738361 31,000 105 493 64
2019-10-16 12:15:50 GMT 48.734375 10.731330 31,000 105 493 0
2019-10-16 12:15:47 GMT 48.738796 10.707261 31,000 105 493 0
2019-10-16 12:15:44 GMT 48.738796 10.707261 31,000 105 493 0
2019-10-16 12:15:41 GMT 48.740238 10.699310 31,000 105 493 64
2019-10-16 12:15:38 GMT 48.742195 10.688758 31,000 105 492 64
2019-10-16 12:15:34 GMT 48.745174 10.672350 31,000 105 492 64
2019-10-16 12:15:30 GMT 48.747070 10.661879 31,000 105 492 64
2019-10-16 12:15:27 GMT 48.748901 10.651949 31,000 105 492 64
2019-10-16 12:15:24 GMT 48.750732 10.641738 31,000 105 493 0
2019-10-16 12:15:20 GMT 48.752853 10.629923 31,000 105 492 0
2019-10-16 12:15:17 GMT 48.754765 10.619370 31,000 105 492 0
2019-10-16 12:15:13 GMT 48.759186 10.595374 31,000 106 493 0
2019-10-16 12:15:10 GMT 48.759186 10.595374 31,000 107 493 0
2019-10-16 12:15:07 GMT 48.760437 10.589201 31,000 107 493 -64
2019-10-16 12:15:04 GMT 48.763779 10.574059 31,000 109 493 0
2019-10-16 12:15:01 GMT 48.765377 10.567474 31,000 112 493 0
2019-10-16 12:14:58 GMT 48.767853 10.557861 31,000 112 493 0
2019-10-16 12:14:55 GMT 48.771286 10.545396 31,000 113 493 -64
2019-10-16 12:14:52 GMT 48.773117 10.539199 31,000 118 493 0
2019-10-16 12:14:49 GMT 48.776505 10.528516 31,000 117 493 0
2019-10-16 12:14:46 GMT 48.778610 10.522156 31,000 118 493 0
2019-10-16 12:14:43 GMT 48.782547 10.511029 31,000 123 493 0
2019-10-16 12:14:40 GMT 48.785797 10.502437 31,000 128 494 -64
2019-10-16 12:14:37 GMT 48.790424 10.490931 31,000 122 493 64
2019-10-16 12:14:34 GMT 48.794632 10.481239 31,000 135 496 64
2019-10-16 12:14:31 GMT 48.802711 10.464188 31,000 125 494 -64
2019-10-16 12:14:28 GMT 48.802711 10.464188 31,000 126 494 -64
2019-10-16 12:14:25 GMT 48.805367 10.458912 31,000 129 494 -64
2019-10-16 12:14:21 GMT 48.811512 10.447637 31,000 132 495 0
2019-10-16 12:14:18 GMT 48.820961 10.431952 31,000 134 495 64
2019-10-16 12:14:12 GMT 48.824265 10.426676 31,000 134 495 0
2019-10-16 12:14:09 GMT 48.831253 10.415955 31,000 136 498 0
2019-10-16 12:14:06 GMT 48.833908 10.412081 31,000 136 497 0
2019-10-16 12:14:02 GMT 48.841724 10.400945 31,000 136 498 0
2019-10-16 12:13:56 GMT 48.852997 10.384968 31,000 137 500 0
2019-10-16 12:13:53 GMT 48.855690 10.381140 31,000 136 499 -64
2019-10-16 12:13:50 GMT 48.861282 10.373277 31,000 136 499 0
2019-10-16 12:13:47 GMT 48.866409 10.366023 31,000 137 500 0
2019-10-16 12:13:44 GMT 48.873550 10.355882 31,000 137 500 0
2019-10-16 12:13:40 GMT 48.879364 10.347713 31,000 137 500 64
2019-10-16 12:13:34 GMT 48.889812 10.333003 31,000 137 500 0
2019-10-16 12:13:28 GMT 48.900936 10.317319 31,000 137 501 -64
2019-10-16 12:13:25 GMT 48.903946 10.313063 31,000 137 501 0
2019-10-16 12:13:22 GMT 48.908897 10.306043 31,000 137 501 0
2019-10-16 12:13:19 GMT 48.914299 10.298526 31,000 137 501 64
2019-10-16 12:13:12 GMT 48.926403 10.281541 31,000 137 501 0
2019-10-16 12:13:09 GMT 48.930267 10.276192 31,000 137 501 64
2019-10-16 12:13:06 GMT 48.936363 10.267736 31,000 137 501 0
2019-10-16 12:13:02 GMT 48.943588 10.257639 31,000 137 501 0
2019-10-16 12:12:59 GMT 48.948578 10.250737 31,000 137 501 0
2019-10-16 12:12:55 GMT 48.956497 10.239751 31,000 137 501 64
2019-10-16 12:12:52 GMT 48.961826 10.232319 31,000 137 501 0
2019-10-16 12:12:49 GMT 48.966297 10.226175 31,000 137 501 -64
2019-10-16 12:12:46 GMT 48.970348 10.220538 31,000 137 501 0
2019-10-16 12:12:43 GMT 48.980354 10.206660 31,000 137 501 0
2019-10-16 12:12:37 GMT 48.985336 10.199749 31,000 137 501 64
2019-10-16 12:12:34 GMT 48.991241 10.191580 31,000 137 501 64
2019-10-16 12:12:31 GMT 48.997742 10.182566 31,000 137 501 64
2019-10-16 12:12:28 GMT 49.006348 10.170593 31,000 137 501 0
2019-10-16 12:12:25 GMT 49.006348 10.170593 31,000 137 501 64
2019-10-16 12:12:22 GMT 49.011612 10.163269 31,000 137 501 0
2019-10-16 12:12:19 GMT 49.018204 10.154041 31,000 137 501 0
2019-10-16 12:12:15 GMT 49.023277 10.146886 31,000 137 500 0
2019-10-16 12:12:12 GMT 49.028679 10.139224 31,000 137 500 0
2019-10-16 12:12:09 GMT 49.033676 10.132141 31,000 136 497 0
2019-10-16 12:12:06 GMT 49.038712 10.125028 31,000 136 498 0
2019-10-16 12:12:03 GMT 49.043575 10.117975 31,000 135 495 0
2019-10-16 12:11:59 GMT 49.051712 10.106225 31,000 135 495 0
2019-10-16 12:11:54 GMT 49.059677 10.094393 31,025 135 494 0
2019-10-16 12:11:51 GMT 49.063019 10.089463 31,025 135 494 -64
2019-10-16 12:11:48 GMT 49.068375 10.081435 30,525 135 485 1856
2019-10-16 12:11:45 GMT 49.073601 10.073668 31,000 135 490 64
2019-10-16 12:11:42 GMT 49.078308 10.066575 31,000 135 490 64
2019-10-16 12:11:39 GMT 49.083237 10.059212 31,000 135 489 320
2019-10-16 12:11:36 GMT 49.089752 10.049527 30,975 135 487 832
2019-10-16 12:11:33 GMT 49.092911 10.044743 30,950 135 486 960
2019-10-16 12:11:30 GMT 49.098862 10.035799 30,900 134 478 2304
2019-10-16 12:11:26 GMT 49.102837 10.029867 30,850 135 485 1600
2019-10-16 12:11:23 GMT 49.110443 10.018404 30,650 135 485 1792
2019-10-16 12:11:20 GMT 49.113403 10.013966 30,575 135 485 1728
2019-10-16 12:11:17 GMT 49.118382 10.006449 30,425 135 485 1792
2019-10-16 12:11:11 GMT 49.127602 9.992571 30,350 135 484 1920
2019-10-16 12:11:08 GMT 49.131886 9.986066 30,225 135 484 1664
2019-10-16 12:11:05 GMT 49.136810 9.978685 30,000 135 482 1600
2019-10-16 12:11:01 GMT 49.150551 9.957805 29,900 135 482 1472
2019-10-16 12:10:57 GMT 49.150551 9.957805 29,925 135 482 1280
2019-10-16 12:10:54 GMT 49.155857 9.949783 29,325 135 479 1920
2019-10-16 12:10:49 GMT 49.162933 9.939013 29,575 135 480 2048
2019-10-16 12:10:46 GMT 49.167404 9.932291 29,675 135 480 2112
2019-10-16 12:10:43 GMT 49.172058 9.925208 29,500 135 480 1536
2019-10-16 12:10:40 GMT 49.176636 9.918260 29,500 135 480 1536
2019-10-16 12:10:37 GMT 49.181946 9.910161 29,350 135 479 1920
2019-10-16 12:10:30 GMT 49.192680 9.893767 29,150 134 478 2048
2019-10-16 12:10:27 GMT 49.197289 9.886756 29,025 135 479 2176
2019-10-16 12:10:24 GMT 49.201035 9.881005 29,025 135 479 2368
2019-10-16 12:10:20 GMT 49.208092 9.870204 28,850 135 479 1664
2019-10-16 12:10:17 GMT 49.211765 9.864638 28,775 135 479 1408
2019-10-16 12:10:14 GMT 49.218292 9.854666 28,700 134 475 1920
2019-10-16 12:10:10 GMT 49.225220 9.843967 28,600 134 475 1472
2019-10-16 12:10:07 GMT 49.228455 9.839032 28,500 134 475 2304
2019-10-16 12:10:04 GMT 49.232857 9.832258 28,450 134 475 1984
2019-10-16 12:10:01 GMT 49.238068 9.824235 27,875 134 475 2240
2019-10-16 12:09:58 GMT 49.243927 9.815228 28,300 134 475 2304
2019-10-16 12:09:54 GMT 49.248825 9.807763 28,025 135 476 1984
2019-10-16 12:09:51 GMT 49.258347 9.793255 27,875 135 475 1600
2019-10-16 12:09:48 GMT 49.258347 9.793255 27,900 135 475 1536
2019-10-16 12:09:45 GMT 49.262970 9.786213 27,400 135 474 1792
2019-10-16 12:09:42 GMT 49.268608 9.777615 27,225 135 473 1728
2019-10-16 12:09:39 GMT 49.276382 9.765762 27,575 135 474 1920
2019-10-16 12:09:36 GMT 49.282562 9.756352 27,450 135 473 1728
2019-10-16 12:09:32 GMT 49.282562 9.756352 27,350 135 473 1728
2019-10-16 12:09:29 GMT 49.288605 9.747127 27,175 140 462 1920
2019-10-16 12:09:25 GMT 49.292675 9.740825 27,225 135 472 1792
2019-10-16 12:09:22 GMT 49.297714 9.733182 27,100 135 470 1792
2019-10-16 12:09:19 GMT 49.304306 9.723112 27,025 135 470 1792
2019-10-16 12:09:16 GMT 49.306686 9.719450 26,975 136 466 1856
2019-10-16 12:09:13 GMT 49.311996 9.711351 26,850 135 469 1856
2019-10-16 12:09:10 GMT 49.316605 9.704253 26,700 141 460 1984
2019-10-16 12:09:07 GMT 49.321701 9.696491 26,525 136 466 1856
2019-10-16 12:09:02 GMT 49.329071 9.685434 26,325 138 464 1920
2019-10-16 12:08:59 GMT 49.333145 9.679589 26,075 140 462 1920
2019-10-16 12:08:56 GMT 49.337830 9.673028 26,225 139 463 1920
2019-10-16 12:08:53 GMT 49.342621 9.666560 26,150 140 462 1920
2019-10-16 12:08:49 GMT 49.349979 9.657055 24,975 142 457 2048
2019-10-16 12:08:45 GMT 49.355530 9.650222 25,600 142 457 2048
2019-10-16 12:08:41 GMT 49.363899 9.640286 25,875 142 459 2112
2019-10-16 12:08:38 GMT 49.368137 9.635371 25,750 142 459 1984
2019-10-16 12:08:35 GMT 49.375027 9.627276 25,650 142 457 1920
2019-10-16 12:08:31 GMT 49.380009 9.621349 24,650 142 450 2048
2019-10-16 12:08:28 GMT 49.384689 9.615925 25,350 142 456 2240
2019-10-16 12:08:25 GMT 49.389542 9.610220 25,225 142 456 2240
2019-10-16 12:08:22 GMT 49.393799 9.605220 25,225 142 456 2176
2019-10-16 12:08:18 GMT 49.403320 9.594022 24,775 142 455 2048
2019-10-16 12:08:15 GMT 49.406124 9.590703 24,850 142 455 2112
2019-10-16 12:08:12 GMT 49.411522 9.584415 24,800 142 455 2368
2019-10-16 12:08:08 GMT 49.418243 9.576416 24,725 142 454 2432
2019-10-16 12:08:04 GMT 49.425064 9.568458 24,475 142 453 2368
2019-10-16 12:08:01 GMT 49.433624 9.558395 24,250 142 453 2240
2019-10-16 12:07:58 GMT 49.442760 9.547639 24,200 142 453 2240
2019-10-16 12:07:54 GMT 49.442760 9.547639 24,075 142 452 2240
2019-10-16 12:07:51 GMT 49.450974 9.537940 22,750 142 445 2176
2019-10-16 12:07:44 GMT 49.457844 9.529897 23,675 142 451 2304
2019-10-16 12:07:41 GMT 49.462601 9.524279 23,625 142 451 2176
2019-10-16 12:07:38 GMT 49.468410 9.517426 23,525 142 450 2048
2019-10-16 12:07:32 GMT 49.479263 9.504692 23,325 142 448 2112
2019-10-16 12:07:29 GMT 49.489014 9.493199 22,975 142 443 1984
2019-10-16 12:07:25 GMT 49.489014 9.493199 22,900 142 445 2304
2019-10-16 12:07:22 GMT 49.493687 9.487734 22,925 142 447 2176
2019-10-16 12:07:19 GMT 49.500484 9.479717 22,875 142 446 2304
2019-10-16 12:07:16 GMT 49.504719 9.474743 22,600 142 443 1984
2019-10-16 12:07:12 GMT 49.510262 9.468211 22,525 142 445 2112
2019-10-16 12:07:09 GMT 49.514969 9.462626 22,450 142 443 1984
2019-10-16 12:07:04 GMT 49.522888 9.453302 22,275 142 440 2240
2019-10-16 12:07:01 GMT 49.527878 9.447447 22,200 142 441 2240
2019-10-16 12:06:58 GMT 49.532227 9.442315 22,125 142 441 2240
2019-10-16 12:06:55 GMT 49.537075 9.436588 22,000 142 440 2240
2019-10-16 12:06:51 GMT 49.543777 9.428719 21,725 142 438 2176
2019-10-16 12:06:48 GMT 49.550491 9.420776 21,575 142 437 2240
2019-10-16 12:06:45 GMT 49.554657 9.415861 20,250 142 432 2176
2019-10-16 12:06:42 GMT 49.559418 9.410224 21,475 142 436 2240
2019-10-16 12:06:39 GMT 49.564178 9.404586 21,300 142 435 2176
2019-10-16 12:06:35 GMT 49.570965 9.396577 21,200 142 434 2176
2019-10-16 12:06:32 GMT 49.579670 9.386259 21,000 142 430 2176
2019-10-16 12:06:26 GMT 49.584229 9.380879 20,800 142 426 2112
2019-10-16 12:06:23 GMT 49.588840 9.375421 20,875 142 430 2240
2019-10-16 12:06:19 GMT 49.596863 9.365917 20,650 142 428 2112
2019-10-16 12:06:13 GMT 49.604736 9.356593 20,300 142 425 2112
2019-10-16 12:06:09 GMT 49.609974 9.350404 19,675 142 418 2560
2019-10-16 12:06:06 GMT 49.616585 9.342536 20,150 142 422 2240
2019-10-16 12:06:03 GMT 49.620804 9.337584 20,075 142 422 2304
2019-10-16 12:06:00 GMT 49.624603 9.333103 19,975 142 421 2368
2019-10-16 12:05:56 GMT 49.637440 9.317965 19,475 131 416 0
2019-10-16 12:05:52 GMT 49.641632 9.313081 19,525 142 418 2560
2019-10-16 12:05:49 GMT 49.641632 9.313081 19,325 141 418 2560
2019-10-16 12:05:43 GMT 49.650284 9.302529 19,075 137 418 2560
2019-10-16 12:05:40 GMT 49.655365 9.295879 19,100 138 418 2496
2019-10-16 12:05:36 GMT 49.662689 9.285688 18,875 136 417 2560
2019-10-16 12:05:33 GMT 49.665298 9.281857 18,750 135 417 2560
2019-10-16 12:05:30 GMT 49.669647 9.275208 18,650 133 417 2368
2019-10-16 12:05:27 GMT 49.673264 9.269425 18,525 129 416 2624
2019-10-16 12:05:24 GMT 49.677662 9.262068 18,450 129 416 2688
2019-10-16 12:05:21 GMT 49.681549 9.255186 18,225 129 416 2624
2019-10-16 12:05:18 GMT 49.684662 9.249549 18,225 129 416 2624
2019-10-16 12:05:15 GMT 49.689999 9.239131 18,000 126 415 2624
2019-10-16 12:05:09 GMT 49.695236 9.228227 17,750 124 415 2560
2019-10-16 12:05:06 GMT 49.698761 9.220131 17,550 123 416 2560
2019-10-16 12:05:02 GMT 49.702560 9.211024 17,375 122 415 2752
2019-10-16 12:04:59 GMT 49.706085 9.202423 17,325 122 414 2752
2019-10-16 12:04:56 GMT 49.708992 9.195334 17,200 122 413 2752
2019-10-16 12:04:53 GMT 49.712063 9.187911 17,050 122 413 2816
2019-10-16 12:04:49 GMT 49.717232 9.175217 16,800 122 410 2944
2019-10-16 12:04:46 GMT 49.719635 9.169392 16,575 122 410 3136
2019-10-16 12:04:41 GMT 49.724541 9.157476 16,425 122 409 3520
2019-10-16 12:04:37 GMT 49.732689 9.137656 15,900 122 410 4224
2019-10-16 12:04:33 GMT 49.732689 9.137656 15,900 122 410 4032
2019-10-16 12:04:29 GMT 49.737579 9.125808 15,625 122 411 2304
2019-10-16 12:04:26 GMT 49.739227 9.121760 15,500 122 409 1792
2019-10-16 12:04:22 GMT 49.743904 9.110413 15,425 122 406 1728
2019-10-16 12:04:18 GMT 49.747490 9.101653 15,275 122 401 1728
2019-10-16 12:04:15 GMT 49.750214 9.095090 15,250 122 400 1728
2019-10-16 12:04:12 GMT 49.753738 9.086488 15,150 122 396 1664
2019-10-16 12:04:08 GMT 49.758335 9.075375 15,025 122 392 1664
2019-10-16 12:04:04 GMT 49.761269 9.068175 14,950 122 387 1600
2019-10-16 12:04:01 GMT 49.764713 9.059786 14,850 122 384 1536
2019-10-16 12:03:57 GMT 49.768066 9.051578 14,725 122 381 1472
2019-10-16 12:03:54 GMT 49.776352 9.031412 14,650 122 377 1408
2019-10-16 12:03:50 GMT 49.776352 9.031412 14,575 122 371 1344
2019-10-16 12:03:47 GMT 49.777657 9.028164 14,525 122 368 1280
2019-10-16 12:03:43 GMT 49.781113 9.019631 14,425 122 361 1088
2019-10-16 12:03:37 GMT 49.786880 9.005537 14,275 122 354 2432
2019-10-16 12:03:34 GMT 49.789017 9.000252 14,175 122 353 2944
2019-10-16 12:03:31 GMT 49.791550 8.994044 14,075 122 352 3136
2019-10-16 12:03:28 GMT 49.794834 8.986074 13,825 122 351 3200
2019-10-16 12:03:24 GMT 49.798462 8.977203 13,600 122 350 3136
2019-10-16 12:03:20 GMT 49.800705 8.971710 13,500 122 349 3072
2019-10-16 12:03:15 GMT 49.805355 8.960390 13,225 122 348 2944
2019-10-16 12:03:12 GMT 49.807961 8.954080 13,100 122 347 3008
2019-10-16 12:03:09 GMT 49.810150 8.948735 13,050 122 346 3072
2019-10-16 12:03:06 GMT 49.812988 8.941832 12,425 122 343 2880
2019-10-16 12:03:03 GMT 49.816154 8.934186 12,200 122 339 2560
2019-10-16 12:02:59 GMT 49.818810 8.927728 12,425 122 342 2816
2019-10-16 12:02:55 GMT 49.823322 8.916816 12,175 122 332 2432
2019-10-16 12:02:51 GMT 49.826340 8.909551 12,075 122 332 2432
2019-10-16 12:02:47 GMT 49.829144 8.902786 11,925 122 334 2368
2019-10-16 12:02:44 GMT 49.831650 8.896613 11,800 122 334 2368
2019-10-16 12:02:41 GMT 49.834900 8.888662 11,625 122 331 2432
2019-10-16 12:02:37 GMT 49.837326 8.882735 11,500 122 329 2432
2019-10-16 12:02:34 GMT 49.842968 8.868862 11,225 122 327 2752
2019-10-16 12:02:30 GMT 49.842968 8.868862 11,100 120 325 2560
2019-10-16 12:02:26 GMT 49.845840 8.861558 10,950 119 324 2304
2019-10-16 12:02:23 GMT 49.848633 8.854041 10,950 119 324 2304
2019-10-16 12:02:19 GMT 49.851242 8.846813 10,775 118 317 1984
2019-10-16 12:02:16 GMT 49.853302 8.841031 10,350 118 273 1664
2019-10-16 12:02:13 GMT 49.856190 8.832934 10,575 118 314 2304
2019-10-16 12:02:10 GMT 49.858147 8.827366 10,375 118 311 2944
2019-10-16 12:02:07 GMT 49.859894 8.822600 10,275 119 311 3456
2019-10-16 12:02:02 GMT 49.865871 8.805913 9,700 119 311 3392
2019-10-16 12:01:55 GMT 49.871521 8.790291 9,025 119 310 3200
2019-10-16 12:01:51 GMT 49.871521 8.790291 9,350 119 309 2880
2019-10-16 12:01:48 GMT 49.873077 8.785955 9,150 119 308 2816
2019-10-16 12:01:42 GMT 49.876812 8.775552 8,575 119 305 3264
2019-10-16 12:01:39 GMT 49.879559 8.767981 8,775 119 305 3264
2019-10-16 12:01:36 GMT 49.881134 8.763765 8,650 119 305 3200
2019-10-16 12:01:32 GMT 49.886581 8.748659 8,300 119 304 3008
2019-10-16 12:01:29 GMT 49.886581 8.748659 8,250 119 302 3072
2019-10-16 12:01:25 GMT 49.888916 8.742226 7,875 119 301 3264
2019-10-16 12:01:21 GMT 49.894913 8.725674 7,775 119 301 3264
2019-10-16 12:01:17 GMT 49.894913 8.725674 7,600 119 301 3264
2019-10-16 12:01:14 GMT 49.896652 8.720976 7,450 119 301 3136
2019-10-16 12:01:10 GMT 49.899216 8.713821 7,250 119 299 3072
2019-10-16 12:01:06 GMT 49.902229 8.705403 6,975 118 298 3136
2019-10-16 12:01:03 GMT 49.906139 8.694491 6,800 118 297 3136
2019-10-16 12:00:59 GMT 49.906139 8.694491 6,500 118 296 3136
2019-10-16 12:00:56 GMT 49.908234 8.688627 6,575 118 295 3264
2019-10-16 12:00:53 GMT 49.910469 8.682391 6,450 118 294 3328
2019-10-16 12:00:50 GMT 49.916008 8.666802 6,050 118 292 2880
2019-10-16 12:00:45 GMT 49.916008 8.666802 5,900 118 293 3200
2019-10-16 12:00:41 GMT 49.918056 8.661087 5,775 118 292 2880
2019-10-16 12:00:36 GMT 49.923225 8.646463 5,350 118 289 2496
2019-10-16 12:00:30 GMT 49.925629 8.639807 5,225 118 284 1728
2019-10-16 12:00:25 GMT 49.928833 8.630700 5,100 118 277 1536
2019-10-16 12:00:21 GMT 49.931232 8.623971 5,050 118 273 1600
2019-10-16 12:00:18 GMT 49.932583 8.620259 4,950 118 261 2432
2019-10-16 12:00:15 GMT 49.934921 8.613643 4,750 118 262 2304
2019-10-16 12:00:12 GMT 49.936867 8.608233 4,450 119 259 2688
2019-10-16 12:00:09 GMT 49.938309 8.604151 4,400 119 257 2752
2019-10-16 12:00:04 GMT 49.941238 8.595934 4,325 119 255 2176
2019-10-16 12:00:00 GMT 49.943474 8.589750 4,300 119 242 768
2019-10-16 11:59:56 GMT 49.945896 8.582995 4,175 119 236 832
2019-10-16 11:59:53 GMT 49.947479 8.578615 4,125 119 234 960
2019-10-16 11:59:49 GMT 49.949669 8.572379 4,050 119 226 1088
2019-10-16 11:59:46 GMT 49.950485 8.570131 4,025 118 225 1088
2019-10-16 11:59:41 GMT 49.953323 8.562180 3,925 119 215 1088
2019-10-16 11:59:38 GMT 49.954880 8.557916 3,875 119 203 1216
2019-10-16 11:59:32 GMT 49.957397 8.551122 3,750 121 193 1536
2019-10-16 11:59:29 GMT 49.958836 8.547586 3,675 125 187 1920
2019-10-16 11:59:26 GMT 49.960052 8.544978 3,600 128 184 2112
2019-10-16 11:59:22 GMT 49.962982 8.539919 3,350 147 168 2496
2019-10-16 11:59:16 GMT 49.966370 8.535510 3,175 144 170 2496
2019-10-16 11:59:12 GMT 49.969078 8.532740 2,950 150 166 2496
2019-10-16 11:59:09 GMT 49.970802 8.531403 2,900 155 163 2496
2019-10-16 11:59:06 GMT 49.972851 8.529993 2,725 161 160 2496
2019-10-16 11:59:03 GMT 49.975876 8.528434 2,600 174 153 2496
2019-10-16 11:59:00 GMT 49.977402 8.527848 2,375 169 155 2496
2019-10-16 11:58:56 GMT 49.979874 8.527198 2,425 169 155 2496
2019-10-16 11:58:53 GMT 49.982021 8.526949 2,000 182 150 2240
2019-10-16 11:58:49 GMT 49.985138 8.526949 2,050 182 151 2304
2019-10-16 11:58:42 GMT 49.989841 8.527172 1,800 182 150 2304
2019-10-16 11:58:39 GMT 49.992554 8.527270 1,625 181 150 2752
2019-10-16 11:58:33 GMT 49.997059 8.527321 1,300 179 153 2944
2019-10-16 11:58:29 GMT 49.998688 8.527246 1,050 177 155 2752
2019-10-16 11:58:26 GMT 50.000828 8.527098 1,075 176 156 2368
2019-10-16 11:58:21 GMT 50.004925 8.526727 350 177 155 2752
2019-10-16 11:58:16 GMT 50.008530 8.526475 625 177 158 2368
2019-10-16 11:58:08 GMT 50.014297 8.526113 350 180 151 192
2019-10-16 11:55:49 GMT 50.036652 8.536600 0 247 19
2019-10-16 11:55:38 GMT 50.036968 8.537949 0 247 19
2019-10-16 11:55:27 GMT 50.037277 8.539214 0 247 18
2019-10-16 11:55:22 GMT 50.037418 8.539773 0 247 18
2019-10-16 11:55:11 GMT 50.037743 8.541146 0 247 17
2019-10-16 11:55:00 GMT 50.038010 8.542268 0 244 17
2019-10-16 11:54:05 GMT 50.039886 8.548917 0 250 17
2019-10-16 11:53:35 GMT 50.040642 8.552061 0 247 16
2019-10-16 11:53:27 GMT 50.040829 8.552819 0 250 16
2019-10-16 11:53:15 GMT 50.041145 8.554212 0 247 17
2019-10-16 11:53:06 GMT 50.041386 8.555158 0 250 18
2019-10-16 11:52:39 GMT 50.042107 8.558201 0 247 16
2019-10-16 11:52:33 GMT 50.042255 8.558837 0 250 16
2019-10-16 11:52:21 GMT 50.042549 8.560057 0 247 14
2019-10-16 11:52:09 GMT 50.042793 8.561060 0 250 10
2019-10-16 11:51:59 GMT 50.042900 8.561523 0 267 7
2019-10-16 11:51:53 GMT 50.042896 8.561819 0 295 7
We lost coverage of the aircraft here for a total of 85 minutes
2019-10-16 10:27:15 GMT 50.041809 8.559416 0 157 10 0
2019-10-16 10:27:11 GMT 50.041946 8.559333 0 157 9 0
2019-10-16 10:26:56 GMT 50.042393 8.559398 0 255 9 0
2019-10-16 10:26:46 GMT 50.042439 8.559976 0 295 10 0
2019-10-16 10:26:39 GMT 50.042175 8.560410 0 337 13 0
2019-10-16 10:26:06 GMT 50.040375 8.561486 0 320 15 0
2019-10-16 10:25:53 GMT 50.040047 8.562637 0 278 15 0
2019-10-16 10:25:44 GMT 50.039921 8.563769 0 278 27 0
2019-10-16 10:25:31 GMT 50.040573 8.567872 0 250 72 0
2019-10-16 10:25:28 GMT 50.041111 8.570131 0 247 78 0
2019-10-16 10:25:14 GMT 50.043091 8.578371 275 250 130 -64
2019-10-16 10:25:04 GMT 50.045242 8.587333 375 250 139 -768
2019-10-16 10:24:54 GMT 50.047798 8.597989 525 250 136 -640
2019-10-16 10:24:46 GMT 50.049545 8.605403 625 250 136 -640
2019-10-16 10:24:41 GMT 50.050407 8.608976 675 250 135 -704
2019-10-16 10:24:35 GMT 50.051788 8.614871 750 250 135 -576
2019-10-16 10:24:32 GMT 50.052593 8.618255 1,075 251 135 -704
2019-10-16 10:24:24 GMT 50.054035 8.624416 900 250 133 -768
2019-10-16 10:24:21 GMT 50.054855 8.627882 1,075 251 131 -832
2019-10-16 10:24:13 GMT 50.056412 8.634437 1,025 250 131 -640
2019-10-16 10:24:10 GMT 50.057201 8.637704 1,075 250 131 -704
2019-10-16 10:24:03 GMT 50.058552 8.643271 1,150 250 130 -704
2019-10-16 10:23:59 GMT 50.059624 8.647725 1,475 250 128 -768
2019-10-16 10:23:51 GMT 50.060944 8.653324 1,250 250 128 -704
2019-10-16 10:23:48 GMT 50.061951 8.657301 1,350 251 128 -640
2019-10-16 10:23:43 GMT 50.062958 8.661708 1,375 250 125 -640
2019-10-16 10:23:39 GMT 50.063488 8.663907 1,400 250 125 -640
2019-10-16 10:23:36 GMT 50.065475 8.672333 1,550 250 125 -704
2019-10-16 10:23:30 GMT 50.065475 8.672333 1,500 250 125 -704
2019-10-16 10:23:25 GMT 50.066326 8.675710 1,825 250 134 -640
2019-10-16 10:23:22 GMT 50.067165 8.679273 1,625 250 128 -704
2019-10-16 10:23:19 GMT 50.067535 8.680862 1,700 250 129 -768
2019-10-16 10:23:11 GMT 50.069351 8.688552 1,725 250 133 -576
2019-10-16 10:23:06 GMT 50.070286 8.692338 1,750 250 136 -768
2019-10-16 10:23:02 GMT 50.071289 8.696691 1,825 250 136 -768
2019-10-16 10:22:59 GMT 50.071793 8.698931 1,875 250 137 -768
2019-10-16 10:22:55 GMT 50.072845 8.703399 1,925 251 141 -576
2019-10-16 10:22:51 GMT 50.073761 8.707171 2,000 251 144 -640
2019-10-16 10:22:47 GMT 50.074493 8.710351 2,025 251 141 -576
2019-10-16 10:22:44 GMT 50.075272 8.713821 2,075 250 138 -576
2019-10-16 10:22:40 GMT 50.076801 8.720249 2,125 250 138 -640
2019-10-16 10:22:37 GMT 50.076801 8.720249 2,125 249 140 -768
2019-10-16 10:22:34 GMT 50.077560 8.723289 2,175 249 141 -704
2019-10-16 10:22:30 GMT 50.078522 8.727120 2,250 250 143 -768
2019-10-16 10:22:27 GMT 50.079224 8.730122 2,325 250 145 -896
2019-10-16 10:22:22 GMT 50.080200 8.734131 2,300 250 147 -896
2019-10-16 10:22:19 GMT 50.080994 8.737456 2,350 251 149 -704
2019-10-16 10:22:16 GMT 50.081680 8.740419 2,375 251 152 -704
2019-10-16 10:22:13 GMT 50.082481 8.743929 2,425 251 153 -704
2019-10-16 10:22:09 GMT 50.083504 8.748532 2,475 251 153 -384
2019-10-16 10:22:06 GMT 50.084110 8.750982 2,475 250 154 0
2019-10-16 10:22:03 GMT 50.084900 8.754396 2,475 251 155 0
2019-10-16 10:21:59 GMT 50.085880 8.758627 2,475 250 156 0
2019-10-16 10:21:56 GMT 50.086899 8.762753 2,475 250 157 64
2019-10-16 10:21:52 GMT 50.087677 8.765861 2,475 249 156 0
2019-10-16 10:21:49 GMT 50.088951 8.770950 2,475 248 154 0
2019-10-16 10:21:46 GMT 50.089321 8.772435 2,475 248 154 -64
2019-10-16 10:21:41 GMT 50.090443 8.776666 2,475 248 154 0
2019-10-16 10:21:38 GMT 50.091511 8.780749 2,475 247 153 0
2019-10-16 10:21:34 GMT 50.092392 8.783714 2,475 242 153 64
2019-10-16 10:21:30 GMT 50.093903 8.788340 2,475 243 152 -64
2019-10-16 10:21:27 GMT 50.095142 8.791735 2,475 238 153 0
2019-10-16 10:21:24 GMT 50.095886 8.793516 2,775 223 167 -256
2019-10-16 10:21:21 GMT 50.097610 8.797302 2,475 231 156 -192
2019-10-16 10:21:17 GMT 50.099167 8.800121 2,475 228 157 -64
2019-10-16 10:21:14 GMT 50.100723 8.802434 2,500 223 159 -256
2019-10-16 10:21:09 GMT 50.105709 8.809476 2,525 223 164 -512
2019-10-16 10:21:05 GMT 50.105709 8.809476 2,550 223 163 -320
2019-10-16 10:21:01 GMT 50.107758 8.812446 2,575 223 164 -576
2019-10-16 10:20:58 GMT 50.109386 8.814747 2,600 223 164 -576
2019-10-16 10:20:53 GMT 50.112305 8.818769 2,625 223 164 -576
2019-10-16 10:20:50 GMT 50.113861 8.821010 2,675 223 165 -512
2019-10-16 10:20:46 GMT 50.115856 8.823952 2,700 223 166 -512
2019-10-16 10:20:43 GMT 50.117954 8.826921 2,725 224 168 -448
2019-10-16 10:20:40 GMT 50.119816 8.829593 2,775 224 168 -384
2019-10-16 10:20:37 GMT 50.121277 8.831707 2,775 223 167 -256
2019-10-16 10:20:34 GMT 50.123016 8.834164 2,800 222 166 -320
2019-10-16 10:20:31 GMT 50.124619 8.836405 3,050 223 164 -384
2019-10-16 10:20:28 GMT 50.126614 8.839169 2,850 223 165 -448
2019-10-16 10:20:23 GMT 50.129730 8.843623 2,875 223 163 -512
2019-10-16 10:20:20 GMT 50.131454 8.846073 2,900 223 162 -512
2019-10-16 10:20:17 GMT 50.132446 8.847464 2,925 223 162 -512
2019-10-16 10:20:11 GMT 50.135971 8.852306 3,000 223 164 -512
2019-10-16 10:20:07 GMT 50.138214 8.855486 3,025 223 164 -448
2019-10-16 10:20:01 GMT 50.144207 8.863888 3,075 222 166 -384
2019-10-16 10:19:57 GMT 50.144207 8.863888 3,100 222 167 -512
2019-10-16 10:19:52 GMT 50.147232 8.867991 3,150 221 168 -576
2019-10-16 10:19:49 GMT 50.148724 8.869975 3,175 220 169 -576
2019-10-16 10:19:46 GMT 50.150215 8.871905 3,200 219 170 -640
2019-10-16 10:19:43 GMT 50.152729 8.874726 3,250 209 173 -1024
2019-10-16 10:19:40 GMT 50.154510 8.876230 3,325 201 175 -1344
2019-10-16 10:19:36 GMT 50.157475 8.878067 3,375 200 175 -1344
2019-10-16 10:19:33 GMT 50.160271 8.879551 3,450 199 175 -1024
2019-10-16 10:19:29 GMT 50.162643 8.880813 3,500 199 176 -640
2019-10-16 10:19:26 GMT 50.165359 8.882157 3,550 198 178 -640
2019-10-16 10:19:23 GMT 50.168041 8.883486 3,600 198 181 -1024
2019-10-16 10:19:20 GMT 50.170532 8.884687 3,625 198 182 -1152
2019-10-16 10:19:17 GMT 50.173073 8.885935 3,750 198 182 -1280
2019-10-16 10:19:13 GMT 50.175522 8.887144 3,825 198 184 -832
2019-10-16 10:19:10 GMT 50.180008 8.889350 3,925 141 269 -2688
2019-10-16 10:19:04 GMT 50.184036 8.891337 3,875 198 189 -576
2019-10-16 10:19:01 GMT 50.185776 8.892204 3,900 198 191 -768
2019-10-16 10:18:58 GMT 50.188850 8.893730 3,925 198 193 -512
2019-10-16 10:18:55 GMT 50.190899 8.894769 3,950 196 200 0
2019-10-16 10:18:52 GMT 50.193924 8.896251 3,950 198 198 0
2019-10-16 10:18:48 GMT 50.199371 8.898777 3,950 155 219 -960
2019-10-16 10:18:45 GMT 50.199371 8.898777 3,975 170 209 -192
2019-10-16 10:18:41 GMT 50.203796 8.900188 4,225 155 219 -960
2019-10-16 10:18:37 GMT 50.206730 8.900410 3,975 179 206 0
2019-10-16 10:18:33 GMT 50.210079 8.899965 3,975 170 209 -192
2019-10-16 10:18:30 GMT 50.213245 8.898852 4,025 161 215 -704
2019-10-16 10:18:26 GMT 50.223587 8.892132 4,100 156 217 -960
2019-10-16 10:18:21 GMT 50.223587 8.892132 4,175 155 219 -960
2019-10-16 10:18:18 GMT 50.224560 8.891428 4,200 155 219 -1024
2019-10-16 10:18:15 GMT 50.227352 8.889498 4,500 141 269 -2688
2019-10-16 10:18:11 GMT 50.231369 8.886711 4,300 155 223 -832
2019-10-16 10:18:08 GMT 50.234665 8.884398 4,350 156 224 -768
2019-10-16 10:18:05 GMT 50.236660 8.883040 4,450 156 227 -832
2019-10-16 10:18:01 GMT 50.241074 8.880061 4,475 156 228 -768
2019-10-16 10:17:58 GMT 50.243969 8.878067 4,475 156 229 -832
2019-10-16 10:17:55 GMT 50.246796 8.876230 4,575 156 231 -1152
2019-10-16 10:17:52 GMT 50.249603 8.874281 4,800 156 232 -1152
2019-10-16 10:17:48 GMT 50.252956 8.872054 4,625 156 232 -1216
2019-10-16 10:17:45 GMT 50.256912 8.869233 4,675 149 237 -1408
2019-10-16 10:17:42 GMT 50.260391 8.866473 4,925 141 241 -1472
2019-10-16 10:17:39 GMT 50.262497 8.864482 4,925 141 241 -1472
2019-10-16 10:17:36 GMT 50.265381 8.861341 4,950 143 240 -1472
2019-10-16 10:17:30 GMT 50.270416 8.855125 5,150 141 244 -1344
2019-10-16 10:17:26 GMT 50.279160 8.844356 5,250 141 242 -1408
2019-10-16 10:17:20 GMT 50.279160 8.844356 5,275 141 242 -1344
2019-10-16 10:17:16 GMT 50.283352 8.839169 5,500 141 245 -1728
2019-10-16 10:17:13 GMT 50.285263 8.836719 5,525 141 243 -832
2019-10-16 10:17:08 GMT 50.290146 8.830623 5,700 141 241 -2048
2019-10-16 10:17:04 GMT 50.292801 8.827370 5,800 141 241 -1216
2019-10-16 10:17:01 GMT 50.295734 8.823580 5,875 141 241 -1088
2019-10-16 10:16:56 GMT 50.300529 8.817642 5,950 141 244 -512
2019-10-16 10:16:53 GMT 50.303276 8.814301 5,975 142 248 -192
2019-10-16 10:16:50 GMT 50.305187 8.811926 5,975 142 248 -64
2019-10-16 10:16:47 GMT 50.308582 8.807843 5,975 142 251 -128
2019-10-16 10:16:43 GMT 50.311386 8.804458 6,950 142 258 -1088
2019-10-16 10:16:40 GMT 50.314499 8.800643 6,000 142 255 -192
2019-10-16 10:16:33 GMT 50.323853 8.789359 6,100 142 258 -1088
2019-10-16 10:16:30 GMT 50.323853 8.789359 6,250 142 258 -1088
2019-10-16 10:16:23 GMT 50.330704 8.781040 6,325 142 260 -1344
2019-10-16 10:16:20 GMT 50.333542 8.777570 6,325 141 259 -1344
2019-10-16 10:16:17 GMT 50.337250 8.773017 6,425 142 259 -1408
2019-10-16 10:16:13 GMT 50.340706 8.768797 6,625 142 261 -640
2019-10-16 10:16:10 GMT 50.342926 8.766078 6,550 142 259 -1088
2019-10-16 10:16:02 GMT 50.351120 8.756176 6,650 142 262 -384
2019-10-16 10:15:59 GMT 50.353134 8.753791 6,700 142 264 -832
2019-10-16 10:15:54 GMT 50.358860 8.746825 6,800 141 267 -1344
2019-10-16 10:15:51 GMT 50.361748 8.743336 6,850 142 267 -1344
2019-10-16 10:15:48 GMT 50.364120 8.740419 6,900 141 267 -1344
2019-10-16 10:15:40 GMT 50.372501 8.730271 7,075 142 272 -1344
2019-10-16 10:15:37 GMT 50.374557 8.727770 7,200 142 275 -1536
2019-10-16 10:15:31 GMT 50.384903 8.715194 7,375 141 274 -1792
2019-10-16 10:15:28 GMT 50.384903 8.715194 8,075 141 277 -896
2019-10-16 10:15:24 GMT 50.387421 8.712086 7,475 142 275 -1856
2019-10-16 10:15:21 GMT 50.391312 8.707316 7,575 141 277 -960
2019-10-16 10:15:18 GMT 50.393867 8.704141 7,600 141 279 -2176
2019-10-16 10:15:14 GMT 50.397453 8.699761 7,675 141 279 -1088
2019-10-16 10:15:10 GMT 50.401642 8.694565 7,750 142 280 -1152
2019-10-16 10:15:07 GMT 50.406113 8.689146 7,825 142 280 -1280
2019-10-16 10:15:04 GMT 50.408440 8.686325 7,875 142 280 -1280
2019-10-16 10:14:58 GMT 50.415005 8.678383 7,975 142 280 -1344
2019-10-16 10:14:55 GMT 50.417282 8.675636 9,975 142 280 -1344
2019-10-16 10:14:51 GMT 50.422440 8.669369 8,200 142 280 -1472
2019-10-16 10:14:48 GMT 50.424500 8.666877 8,250 142 280 -1408
2019-10-16 10:14:45 GMT 50.427338 8.663462 8,300 141 281 -1152
2019-10-16 10:14:42 GMT 50.430862 8.659106 8,425 141 281 -1856
2019-10-16 10:14:39 GMT 50.434742 8.654332 8,500 141 281 -1216
2019-10-16 10:14:36 GMT 50.436951 8.651661 8,525 141 281 -1216
2019-10-16 10:14:33 GMT 50.439583 8.648393 8,575 141 281 -1088
2019-10-16 10:14:30 GMT 50.443634 8.643349 10,000 141 271 -2688
2019-10-16 10:14:27 GMT 50.446701 8.639591 8,675 141 282 -1280
2019-10-16 10:14:24 GMT 50.449593 8.635922 8,725 141 282 -1472
2019-10-16 10:14:17 GMT 50.456268 8.627592 8,950 141 279 -2176
2019-10-16 10:14:14 GMT 50.460159 8.622783 9,125 141 278 -2496
2019-10-16 10:14:09 GMT 50.465469 8.616172 9,325 141 271 -2688
2019-10-16 10:14:06 GMT 50.468353 8.612687 9,500 141 269 -2688
2019-10-16 10:14:03 GMT 50.470322 8.610173 9,575 141 267 -2624
2019-10-16 10:14:00 GMT 50.473053 8.606823 9,675 141 264 -128
2019-10-16 10:13:57 GMT 50.476032 8.603111 9,775 141 263 -2048
2019-10-16 10:13:52 GMT 50.480530 8.597452 9,925 141 262 -1216
2019-10-16 10:13:49 GMT 50.483734 8.593477 9,975 141 263 -576
2019-10-16 10:13:46 GMT 50.486649 8.589824 9,975 141 263 -320
2019-10-16 10:13:43 GMT 50.488743 8.587226 10,000 141 264 -64
2019-10-16 10:13:40 GMT 50.492249 8.582852 10,000 141 264 0
2019-10-16 10:13:37 GMT 50.495445 8.578912 10,000 141 264 0
2019-10-16 10:13:34 GMT 50.500381 8.572751 10,000 141 264 0
2019-10-16 10:13:28 GMT 50.503326 8.569047 10,000 141 262 0
2019-10-16 10:13:25 GMT 50.506531 8.565144 10,000 141 263 0
2019-10-16 10:13:21 GMT 50.510559 8.560084 10,000 141 262 0
2019-10-16 10:13:18 GMT 50.513508 8.556494 10,000 142 263 0
2019-10-16 10:13:10 GMT 50.521225 8.547219 10,000 142 264 0
2019-10-16 10:13:07 GMT 50.524914 8.542761 10,000 142 264 0
2019-10-16 10:13:04 GMT 50.526901 8.540352 10,000 142 265 0
2019-10-16 10:13:01 GMT 50.530918 8.535560 10,000 142 265 0
2019-10-16 10:12:57 GMT 50.533905 8.532040 10,000 143 265 0
2019-10-16 10:12:54 GMT 50.537064 8.528360 10,000 143 265 0
2019-10-16 10:12:50 GMT 50.540497 8.524306 10,000 143 265 0
2019-10-16 10:12:46 GMT 50.545490 8.518487 10,000 143 266 0
2019-10-16 10:12:42 GMT 50.548328 8.515221 10,000 143 265 64
2019-10-16 10:12:38 GMT 50.556522 8.505571 10,000 143 266 0
2019-10-16 10:12:34 GMT 50.556522 8.505571 10,000 142 266 0
2019-10-16 10:12:31 GMT 50.558990 8.502623 10,000 142 266 0
2019-10-16 10:12:27 GMT 50.562481 8.498444 9,975 140 268 64
2019-10-16 10:12:23 GMT 50.567276 8.492580 10,000 139 268 64
2019-10-16 10:12:18 GMT 50.572128 8.486143 9,975 137 270 64
2019-10-16 10:12:15 GMT 50.575142 8.481816 9,975 136 270 64
2019-10-16 10:12:12 GMT 50.578400 8.476991 9,975 136 271 0
2019-10-16 10:12:09 GMT 50.580822 8.473428 9,975 136 271 0
2019-10-16 10:12:06 GMT 50.582405 8.471276 9,975 155 273 -128
2019-10-16 10:12:02 GMT 50.589844 8.462942 10,575 244 282 -1152
2019-10-16 10:11:59 GMT 50.589844 8.462942 10,000 151 273 -128
2019-10-16 10:11:56 GMT 50.593716 8.459918 10,025 230 278 -1216
2019-10-16 10:11:52 GMT 50.597534 8.457617 10,000 165 273 -128
2019-10-16 10:11:48 GMT 50.604263 8.455136 10,025 176 274 -192
2019-10-16 10:11:40 GMT 50.614700 8.454847 10,100 198 274 -768
2019-10-16 10:11:35 GMT 50.619598 8.456206 10,150 193 274 -768
2019-10-16 10:11:30 GMT 50.626648 8.459762 10,900 231 278 -1152
2019-10-16 10:11:27 GMT 50.630127 8.462364 10,250 223 278 -1216
2019-10-16 10:11:23 GMT 50.634338 8.466339 10,500 216 277 -1024
2019-10-16 10:11:20 GMT 50.637478 8.470088 10,400 238 280 -1152
2019-10-16 10:11:16 GMT 50.640129 8.473874 10,500 230 278 -1216
2019-10-16 10:11:12 GMT 50.643723 8.480072 10,575 244 282 -1152
2019-10-16 10:11:07 GMT 50.648346 8.490986 10,625 243 282 -1152
2019-10-16 10:11:04 GMT 50.649536 8.494745 10,675 244 282 -1152
2019-10-16 10:11:01 GMT 50.652100 8.505948 10,750 254 286 -1152
2019-10-16 10:10:58 GMT 50.652100 8.505948 10,775 258 287 -1088
2019-10-16 10:10:55 GMT 50.653629 8.519229 10,850 264 290 -1024
2019-10-16 10:10:52 GMT 50.653629 8.519229 10,875 267 292 -1024
2019-10-16 10:10:46 GMT 50.653656 8.531896 11,050 280 299 -1344
2019-10-16 10:10:43 GMT 50.653118 8.538901 11,050 280 299 -1344
2019-10-16 10:10:40 GMT 50.652512 8.543388 11,550 296 305 -2304
2019-10-16 10:10:37 GMT 50.649582 8.557049 11,275 295 305 -2240
2019-10-16 10:10:33 GMT 50.649582 8.557049 11,350 296 305 -2304
2019-10-16 10:10:30 GMT 50.647625 8.563249 11,600 310 311 -2496
2019-10-16 10:10:27 GMT 50.644638 8.570782 11,625 307 310 -2496
2019-10-16 10:10:23 GMT 50.641338 8.577501 11,800 314 312 -2432
2019-10-16 10:10:19 GMT 50.638268 8.582846 11,950 345 325 -2624
2019-10-16 10:10:12 GMT 50.629143 8.594352 12,250 328 318 -2752
2019-10-16 10:10:09 GMT 50.626694 8.596729 12,375 332 320 -2752
2019-10-16 10:10:05 GMT 50.620743 8.601500 12,575 336 321 -2688
2019-10-16 10:10:02 GMT 50.615734 8.604448 12,800 344 324 -2624
2019-10-16 10:09:58 GMT 50.609024 8.607354 13,575 0 334 -2560
2019-10-16 10:09:53 GMT 50.601929 8.609089 13,100 358 332 -2496
2019-10-16 10:09:50 GMT 50.598885 8.609421 13,325 0 334 -2624
2019-10-16 10:09:47 GMT 50.594090 8.609421 13,325 0 334 -2624
2019-10-16 10:09:40 GMT 50.582428 8.607065 13,875 11 339 -2624
2019-10-16 10:09:37 GMT 50.578262 8.605487 13,775 18 343 -2688
2019-10-16 10:09:32 GMT 50.571743 8.601924 13,975 22 345 -2624
2019-10-16 10:09:29 GMT 50.565399 8.597308 14,150 28 349 -2496
2019-10-16 10:09:25 GMT 50.559906 8.592248 14,375 42 356 -2624
2019-10-16 10:09:20 GMT 50.555172 8.586855 14,500 39 355 -2688
2019-10-16 10:09:17 GMT 50.550842 8.581117 14,650 46 359 -2496
2019-10-16 10:09:14 GMT 50.546173 8.573745 14,800 48 360 -2432
2019-10-16 10:09:10 GMT 50.541733 8.565288 15,100 51 362 -2496
2019-10-16 10:09:06 GMT 50.536377 8.552567 15,175 63 370 -2432
2019-10-16 10:09:03 GMT 50.533619 8.544023 15,350 65 372 -2432
2019-10-16 10:08:59 GMT 50.533619 8.544023 17,350 76 378 -2368
2019-10-16 10:08:56 GMT 50.531433 8.536088 15,600 90 388 -1984
2019-10-16 10:08:53 GMT 50.529709 8.528434 15,825 83 383 -2240
2019-10-16 10:08:50 GMT 50.527908 8.517729 15,950 82 382 -2304
2019-10-16 10:08:47 GMT 50.526901 8.509417 15,950 83 383 -2240
2019-10-16 10:08:44 GMT 50.526306 8.502189 15,950 84 384 -2176
2019-10-16 10:08:40 GMT 50.525894 8.485059 16,150 133 416 -2176
2019-10-16 10:08:37 GMT 50.526215 8.476314 16,850 94 391 -1984
2019-10-16 10:08:34 GMT 50.526215 8.476314 16,300 97 392 -2112
2019-10-16 10:08:31 GMT 50.526947 8.466990 16,350 101 394 -2240
2019-10-16 10:08:28 GMT 50.528172 8.457468 17,050 129 407 -1984
2019-10-16 10:08:24 GMT 50.530060 8.446535 16,675 107 396 -2176
2019-10-16 10:08:21 GMT 50.531570 8.439668 17,125 112 399 -1856
2019-10-16 10:08:18 GMT 50.534737 8.427924 17,000 120 403 -1664
2019-10-16 10:08:15 GMT 50.537342 8.420055 16,975 125 406 -1536
2019-10-16 10:08:11 GMT 50.539993 8.412925 17,025 121 404 -1600
2019-10-16 10:08:08 GMT 50.543610 8.404541 17,175 127 406 -1728
2019-10-16 10:08:05 GMT 50.546539 8.398614 17,625 131 407 -2176
2019-10-16 10:08:01 GMT 50.551392 8.389796 17,700 132 411 -1920
2019-10-16 10:07:57 GMT 50.556702 8.380761 17,500 132 409 -2112
2019-10-16 10:07:53 GMT 50.562248 8.371359 17,650 132 411 -1920
2019-10-16 10:07:50 GMT 50.566177 8.364788 17,700 133 413 -1792
2019-10-16 10:07:47 GMT 50.570675 8.357255 17,825 133 415 -1856
2019-10-16 10:07:43 GMT 50.580048 8.341514 18,050 133 418 -2432
2019-10-16 10:07:40 GMT 50.580048 8.341514 18,125 133 418 -2496
2019-10-16 10:07:36 GMT 50.589523 8.325685 18,375 133 419 -2752
2019-10-16 10:07:33 GMT 50.589523 8.325685 19,575 132 421 -2880
2019-10-16 10:07:29 GMT 50.594646 8.317022 18,550 132 420 -2880
2019-10-16 10:07:26 GMT 50.597260 8.312603 18,725 132 420 -2880
2019-10-16 10:07:23 GMT 50.608978 8.292798 19,475 132 421 -2880
2019-10-16 10:07:18 GMT 50.608978 8.292798 19,050 132 420 -2880
2019-10-16 10:07:15 GMT 50.612617 8.286735 19,300 132 421 -2880
2019-10-16 10:07:12 GMT 50.620949 8.272631 19,550 132 422 -2880
2019-10-16 10:07:08 GMT 50.620949 8.272631 19,925 132 424 -2752
2019-10-16 10:07:04 GMT 50.626907 8.262461 20,000 132 424 -2752
2019-10-16 10:07:01 GMT 50.632278 8.253334 19,900 132 423 -2816
2019-10-16 10:06:57 GMT 50.636581 8.246034 24,300 132 425 -2752
2019-10-16 10:06:54 GMT 50.639942 8.240340 24,300 133 491 -2944
2019-10-16 10:06:51 GMT 50.643204 8.234773 20,350 132 426 -2752
2019-10-16 10:06:48 GMT 50.647903 8.226756 20,675 132 426 -2816
2019-10-16 10:06:45 GMT 50.655716 8.213364 21,300 132 438 -2176
2019-10-16 10:06:42 GMT 50.655716 8.213364 20,850 132 428 -2624
2019-10-16 10:06:39 GMT 50.660660 8.204836 20,950 132 428 -2560
2019-10-16 10:06:36 GMT 50.665733 8.196023 21,100 132 428 -2560
2019-10-16 10:06:32 GMT 50.669998 8.188717 21,200 132 431 -2560
2019-10-16 10:06:25 GMT 50.679047 8.173141 21,825 132 433 -2560
2019-10-16 10:06:22 GMT 50.682541 8.167221 21,650 132 434 -2560
2019-10-16 10:06:19 GMT 50.688126 8.157646 21,825 132 435 -2368
2019-10-16 10:06:16 GMT 50.690964 8.152746 22,400 133 488 -3072
2019-10-16 10:06:13 GMT 50.695084 8.145620 22,350 132 439 -2176
2019-10-16 10:06:10 GMT 50.699158 8.138657 22,125 132 439 -2176
2019-10-16 10:06:07 GMT 50.703552 8.131071 22,225 132 440 -2304
2019-10-16 10:06:03 GMT 50.709167 8.121490 22,350 132 443 -2432
2019-10-16 10:06:00 GMT 50.714706 8.111954 22,500 132 443 -2368
2019-10-16 10:05:57 GMT 50.716755 8.108444 22,775 132 446 -2432
2019-10-16 10:05:53 GMT 50.723690 8.096542 22,825 132 447 -2432
2019-10-16 10:05:50 GMT 50.726852 8.091060 23,025 132 447 -2432
2019-10-16 10:05:47 GMT 50.732300 8.081706 23,000 132 447 -2432
2019-10-16 10:05:44 GMT 50.735916 8.075471 23,050 132 448 -2432
2019-10-16 10:05:41 GMT 50.738937 8.070200 23,250 132 450 -2432
2019-10-16 10:05:38 GMT 50.743847 8.061752 24,350 132 481 -2880
2019-10-16 10:05:35 GMT 50.747200 8.055878 23,500 132 454 -2432
2019-10-16 10:05:32 GMT 50.751671 8.048172 23,675 132 454 -2432
2019-10-16 10:05:29 GMT 50.757339 8.038281 23,750 132 456 -2432
2019-10-16 10:05:26 GMT 50.760189 8.033295 23,825 132 456 -2432
2019-10-16 10:05:23 GMT 50.765961 8.023300 24,725 132 460 -2368
2019-10-16 10:05:19 GMT 50.771687 8.013382 24,225 132 460 -2432
2019-10-16 10:05:16 GMT 50.780136 7.998715 24,350 132 464 -2304
2019-10-16 10:05:12 GMT 50.780136 7.998715 24,450 132 463 -2304
2019-10-16 10:05:09 GMT 50.789051 7.983322 24,650 132 465 -2304
2019-10-16 10:05:03 GMT 50.794170 7.974548 24,975 132 468 -2368
2019-10-16 10:05:00 GMT 50.797897 7.968131 25,225 132 469 -2304
2019-10-16 10:04:56 GMT 50.807903 7.950897 25,400 132 475 -2048
2019-10-16 10:04:50 GMT 50.811768 7.944229 25,725 132 478 -2688
2019-10-16 10:04:46 GMT 50.818405 7.932871 25,725 132 477 -2368
2019-10-16 10:04:43 GMT 50.822845 7.925300 30,425 132 486 -3008
2019-10-16 10:04:39 GMT 50.829208 7.914462 25,725 132 480 -2816
2019-10-16 10:04:36 GMT 50.833786 7.906647 25,825 132 483 -2944
2019-10-16 10:04:33 GMT 50.839466 7.897034 26,300 132 482 -2880
2019-10-16 10:04:29 GMT 50.844170 7.889099 26,175 132 482 -2880
2019-10-16 10:04:26 GMT 50.852921 7.874154 26,500 132 483 -3008
2019-10-16 10:04:20 GMT 50.858086 7.865448 26,975 133 486 -3008
2019-10-16 10:04:16 GMT 50.864044 7.855373 27,325 133 486 -3008
2019-10-16 10:04:12 GMT 50.874985 7.836761 27,225 133 488 -3008
2019-10-16 10:04:09 GMT 50.874985 7.836761 27,625 133 489 -3200
2019-10-16 10:04:06 GMT 50.880157 7.827981 27,375 133 489 -3264
2019-10-16 10:04:03 GMT 50.889679 7.811873 27,625 133 489 -3328
2019-10-16 10:03:59 GMT 50.889679 7.811873 27,650 133 489 -3264
2019-10-16 10:03:56 GMT 50.895657 7.801743 28,450 132 491 -3008
2019-10-16 10:03:50 GMT 50.905243 7.785447 28,200 132 492 -3776
2019-10-16 10:03:47 GMT 50.908173 7.780473 28,725 132 491 -2944
2019-10-16 10:03:44 GMT 50.914555 7.769547 28,450 132 492 -3584
2019-10-16 10:03:40 GMT 50.921398 7.757874 29,800 132 491 -3072
2019-10-16 10:03:37 GMT 50.923725 7.753906 28,975 132 492 -3008
2019-10-16 10:03:34 GMT 50.928661 7.745438 29,125 132 491 -2816
2019-10-16 10:03:31 GMT 50.938297 7.729111 29,225 132 491 -2816
2019-10-16 10:03:28 GMT 50.938297 7.729111 29,300 132 491 -2944
2019-10-16 10:03:25 GMT 50.943047 7.720947 30,375 132 489 -3264
2019-10-16 10:03:22 GMT 50.947189 7.713928 31,250 132 474 -4480
2019-10-16 10:03:17 GMT 50.956825 7.697449 29,850 132 484 -4480
2019-10-16 10:03:13 GMT 50.962234 7.688277 31,400 132 485 -4352
2019-10-16 10:03:10 GMT 50.966675 7.680631 30,375 132 484 -4480
2019-10-16 10:03:07 GMT 50.971024 7.673264 30,575 132 481 -4480
2019-10-16 10:03:03 GMT 50.981094 7.655986 31,025 132 466 -4096
2019-10-16 10:03:00 GMT 50.981094 7.655986 31,100 132 474 -4480
2019-10-16 10:02:57 GMT 50.987274 7.645371 31,400 132 471 -4416
2019-10-16 10:02:53 GMT 50.990295 7.640249 31,925 132 463 -3328
2019-10-16 10:02:50 GMT 50.997345 7.628075 32,000 132 464 -3584
2019-10-16 10:02:47 GMT 51.000027 7.623520 32,050 132 464 -3840
2019-10-16 10:02:44 GMT 51.005219 7.614565 32,225 132 463 -3328
2019-10-16 10:02:41 GMT 51.009521 7.607117 32,475 132 463 -2624
2019-10-16 10:02:38 GMT 51.014874 7.597733 32,550 132 463 -2240
2019-10-16 10:02:35 GMT 51.018173 7.591998 33,075 131 463 -2240
2019-10-16 10:02:32 GMT 51.021515 7.586060 32,725 131 463 -2240
2019-10-16 10:02:28 GMT 51.027210 7.575836 32,825 131 463 -2368
2019-10-16 10:02:25 GMT 51.031540 7.568021 33,100 130 463 -2432
2019-10-16 10:02:22 GMT 51.035915 7.560043 33,175 130 462 -2560
2019-10-16 10:02:19 GMT 51.040058 7.552338 33,250 130 463 -2304
2019-10-16 10:02:16 GMT 51.044666 7.543869 33,350 130 462 -2560
2019-10-16 10:02:13 GMT 51.049622 7.534765 33,550 130 462 -2368
2019-10-16 10:02:07 GMT 51.056900 7.521478 33,775 130 462 -2240
2019-10-16 10:02:04 GMT 51.061066 7.513832 33,900 130 468 -64
2019-10-16 10:02:01 GMT 51.066467 7.503959 33,950 130 469 -1216
2019-10-16 10:01:57 GMT 51.071762 7.494278 34,100 130 465 -1216
2019-10-16 10:01:54 GMT 51.076603 7.485428 34,125 130 465 -1216
2019-10-16 10:01:51 GMT 51.081253 7.476939 34,200 130 467 -1216
2019-10-16 10:01:48 GMT 51.083542 7.472687 34,400 130 467 -1216
2019-10-16 10:01:45 GMT 51.088428 7.463760 34,300 131 469 -1216
2019-10-16 10:01:42 GMT 51.092243 7.456818 34,350 131 470 -1280
2019-10-16 10:01:39 GMT 51.096634 7.448730 35,025 130 472 -1280
2019-10-16 10:01:36 GMT 51.101879 7.439117 34,550 130 473 -1280
2019-10-16 10:01:33 GMT 51.106071 7.431335 34,600 130 476 -1344
2019-10-16 10:01:27 GMT 51.113983 7.416763 34,675 130 479 -1344
2019-10-16 10:01:24 GMT 51.118965 7.407684 35,000 130 489 -64
2019-10-16 10:01:21 GMT 51.124008 7.398253 34,825 130 482 -1280
2019-10-16 10:01:18 GMT 51.126251 7.394170 34,825 130 483 -1152
2019-10-16 10:01:15 GMT 51.131069 7.385330 35,000 130 486 -960
2019-10-16 10:01:12 GMT 51.136780 7.374795 34,950 130 487 -768
2019-10-16 10:01:09 GMT 51.139633 7.369537 34,975 130 488 -448
2019-10-16 10:01:05 GMT 51.145294 7.359133 35,000 130 490 0
2019-10-16 10:01:02 GMT 51.149971 7.350464 35,000 130 490 0
2019-10-16 10:00:59 GMT 51.153809 7.343395 35,000 130 490 0
2019-10-16 10:00:56 GMT 51.159485 7.332854 35,000 130 490 0
2019-10-16 10:00:53 GMT 51.162277 7.327732 35,000 130 489 -64
2019-10-16 10:00:50 GMT 51.168358 7.316437 35,000 130 490 0
2019-10-16 10:00:47 GMT 51.172966 7.307968 35,000 130 490 0
2019-10-16 10:00:44 GMT 51.175667 7.302933 35,000 130 490 0
2019-10-16 10:00:41 GMT 51.182743 7.289810 35,000 130 490 0
2019-10-16 10:00:38 GMT 51.187443 7.281189 35,000 130 490 -64
2019-10-16 10:00:34 GMT 51.191681 7.273254 35,000 130 490 -64
2019-10-16 10:00:31 GMT 51.195915 7.265472 35,000 130 490 0
2019-10-16 10:00:28 GMT 51.204857 7.248917 35,000 130 489 0
2019-10-16 10:00:25 GMT 51.204857 7.248917 35,000 130 489 0
2019-10-16 10:00:22 GMT 51.209152 7.241029 35,000 130 489 64
2019-10-16 10:00:18 GMT 51.216660 7.227148 35,000 130 489 0
2019-10-16 10:00:15 GMT 51.219681 7.221506 35,025 130 489 0
2019-10-16 10:00:11 GMT 51.224991 7.211634 35,025 130 480 -64
2019-10-16 10:00:08 GMT 51.231110 7.200394 35,000 130 489 -64
2019-10-16 10:00:05 GMT 51.235161 7.192841 35,025 130 489 -64
2019-10-16 09:59:59 GMT 51.242794 7.178650 35,000 130 488 0
2019-10-16 09:59:56 GMT 51.248016 7.168950 35,000 130 489 0
2019-10-16 09:59:53 GMT 51.251732 7.162094 35,000 130 489 0
2019-10-16 09:59:50 GMT 51.255295 7.155514 35,000 130 489 0
2019-10-16 09:59:47 GMT 51.260578 7.145691 35,000 130 488 0
2019-10-16 09:59:43 GMT 51.267933 7.132034 35,000 130 482 -64
2019-10-16 09:59:40 GMT 51.270905 7.126564 35,000 130 485 0
2019-10-16 09:59:37 GMT 51.275253 7.118473 35,025 130 486 0
2019-10-16 09:59:34 GMT 51.285049 7.100137 35,025 130 468 -64
2019-10-16 09:59:28 GMT 51.288788 7.093124 35,025 130 467 -64
2019-10-16 09:59:25 GMT 51.292885 7.085495 35,025 130 480 -64
2019-10-16 09:59:22 GMT 51.296749 7.078323 35,025 130 482 -64
2019-10-16 09:59:18 GMT 51.304688 7.063541 35,025 130 479 0
2019-10-16 09:59:15 GMT 51.307549 7.058258 35,025 130 479 0
2019-10-16 09:59:12 GMT 51.312424 7.049214 35,025 130 477 0
2019-10-16 09:59:06 GMT 51.320206 7.034665 35,025 130 475 64
2019-10-16 09:59:03 GMT 51.324589 7.026520 35,025 130 473 64
2019-10-16 09:59:00 GMT 51.327892 7.020416 35,025 130 474 64
2019-10-16 09:58:57 GMT 51.333755 7.009426 35,025 130 472 64
2019-10-16 09:58:54 GMT 51.338039 7.001495 35,025 130 471 64
2019-10-16 09:58:51 GMT 51.342316 6.993466 35,025 130 470 0
2019-10-16 09:58:47 GMT 51.347675 6.983490 35,025 130 469 0
2019-10-16 09:58:44 GMT 51.351772 6.975784 35,025 130 468 -64
2019-10-16 09:58:41 GMT 51.356522 6.966934 35,025 130 466 -64
2019-10-16 09:58:38 GMT 51.364296 6.952362 35,025 130 466 -64
2019-10-16 09:58:35 GMT 51.364296 6.952362 35,025 130 465 0
2019-10-16 09:58:32 GMT 51.368454 6.944547 35,025 130 463 0
2019-10-16 09:58:28 GMT 51.375366 6.931631 35,000 130 461 640
2019-10-16 09:58:25 GMT 51.379211 6.924356 34,925 130 460 960
2019-10-16 09:58:22 GMT 51.386360 6.910934 34,800 130 459 960
2019-10-16 09:58:19 GMT 51.386360 6.910934 34,850 130 459 960
2019-10-16 09:58:16 GMT 51.391342 6.901703 34,800 130 458 960
2019-10-16 09:58:13 GMT 51.394974 6.894913 34,800 130 458 960
2019-10-16 09:58:09 GMT 51.401119 6.883392 34,650 130 458 960
2019-10-16 09:58:06 GMT 51.404434 6.877144 34,625 130 457 960
2019-10-16 09:58:03 GMT 51.408463 6.869573 34,625 130 457 960
2019-10-16 09:58:00 GMT 51.412720 6.861630 34,600 130 456 960
2019-10-16 09:57:57 GMT 51.416840 6.853836 34,350 130 455 640
2019-10-16 09:57:54 GMT 51.420811 6.846313 34,475 130 455 640
2019-10-16 09:57:51 GMT 51.424114 6.840134 34,425 130 453 384
2019-10-16 09:57:48 GMT 51.429657 6.829636 34,425 130 453 512
2019-10-16 09:57:45 GMT 51.433891 6.821671 34,400 130 453 704
2019-10-16 09:57:42 GMT 51.438080 6.813736 34,350 130 451 1152
2019-10-16 09:57:39 GMT 51.442039 6.806259 34,250 130 453 1856
2019-10-16 09:57:35 GMT 51.447830 6.795341 34,100 130 454 1856
2019-10-16 09:57:32 GMT 51.450649 6.790009 33,925 130 455 1920
2019-10-16 09:57:29 GMT 51.454422 6.782837 33,925 130 455 1856
2019-10-16 09:57:26 GMT 51.457821 6.776428 33,875 130 455 1856
2019-10-16 09:57:23 GMT 51.462616 6.767281 33,800 130 456 1728
2019-10-16 09:57:20 GMT 51.468060 6.757050 33,700 130 456 1728
2019-10-16 09:57:16 GMT 51.472111 6.749420 33,600 130 457 1664
2019-10-16 09:57:13 GMT 51.476074 6.741820 33,225 130 458 1280
2019-10-16 09:57:10 GMT 51.480286 6.733877 33,350 130 458 0
2019-10-16 09:57:07 GMT 51.484402 6.726151 33,350 130 458 1280
2019-10-16 09:57:04 GMT 51.488754 6.717843 33,300 130 458 1280
2019-10-16 09:57:01 GMT 51.491730 6.712201 32,375 130 458 1408
2019-10-16 09:56:58 GMT 51.496410 6.703339 33,125 130 458 1536
2019-10-16 09:56:55 GMT 51.501160 6.694385 33,100 130 458 1536
2019-10-16 09:56:50 GMT 51.508301 6.680727 32,975 130 458 1408
2019-10-16 09:56:46 GMT 51.512333 6.673126 32,925 130 458 1408
2019-10-16 09:56:43 GMT 51.516312 6.665658 32,850 130 458 1408
2019-10-16 09:56:40 GMT 51.521301 6.656082 32,750 130 457 1408
2019-10-16 09:56:37 GMT 51.524155 6.650772 32,550 130 456 1344
2019-10-16 09:56:34 GMT 51.529835 6.640015 32,600 130 456 1280
2019-10-16 09:56:29 GMT 51.536491 6.627350 32,325 130 455 1472
2019-10-16 09:56:25 GMT 51.547806 6.605901 32,350 130 455 1472
2019-10-16 09:56:21 GMT 51.547806 6.605901 32,000 130 454 1472
2019-10-16 09:56:18 GMT 51.551250 6.599350 32,125 130 454 1472
2019-10-16 09:56:15 GMT 51.554184 6.593781 32,175 130 454 1472
2019-10-16 09:56:12 GMT 51.558243 6.586081 32,000 130 454 1600
2019-10-16 09:56:09 GMT 51.564842 6.573486 32,000 130 454 1728
2019-10-16 09:56:06 GMT 51.567589 6.568298 31,825 130 454 1728
2019-10-16 09:56:03 GMT 51.571747 6.560471 31,400 130 454 1728
2019-10-16 09:55:59 GMT 51.577698 6.549114 31,650 130 454 2048
2019-10-16 09:55:55 GMT 51.582413 6.540057 31,600 129 462 2048
2019-10-16 09:55:52 GMT 51.585560 6.534042 30,925 130 457 2368
2019-10-16 09:55:49 GMT 51.591377 6.522980 31,325 130 456 2240
2019-10-16 09:55:46 GMT 51.595520 6.515121 31,050 130 456 2304
2019-10-16 09:55:43 GMT 51.599525 6.507492 31,175 130 457 2368
2019-10-16 09:55:40 GMT 51.609650 6.488243 30,900 130 459 2368
2019-10-16 09:55:36 GMT 51.609650 6.488243 30,825 130 459 2368
2019-10-16 09:55:33 GMT 51.612350 6.483047 30,725 130 459 2304
2019-10-16 09:55:30 GMT 51.617588 6.473083 30,625 130 461 2176
2019-10-16 09:55:27 GMT 51.625168 6.458551 30,375 129 462 2112
2019-10-16 09:55:24 GMT 51.625168 6.458551 30,400 129 462 2176
2019-10-16 09:55:21 GMT 51.628479 6.452179 30,250 130 462 1728
2019-10-16 09:55:18 GMT 51.632309 6.444892 30,150 130 462 1920
2019-10-16 09:55:15 GMT 51.637745 6.434479 30,150 130 462 1792
2019-10-16 09:55:12 GMT 51.640724 6.428757 30,075 130 462 1792
2019-10-16 09:55:09 GMT 51.649841 6.411413 29,875 130 462 3072
2019-10-16 09:55:06 GMT 51.649841 6.411413 29,775 130 462 3136
2019-10-16 09:55:03 GMT 51.654083 6.403351 29,575 130 465 3264
2019-10-16 09:55:00 GMT 51.658493 6.394934 29,450 130 469 3072
2019-10-16 09:54:57 GMT 51.661488 6.389160 29,350 130 468 3200
2019-10-16 09:54:54 GMT 51.665451 6.381572 29,025 130 469 3072
2019-10-16 09:54:51 GMT 51.670258 6.372441 29,025 130 471 2880
2019-10-16 09:54:48 GMT 51.674286 6.364670 28,800 130 474 2560
2019-10-16 09:54:45 GMT 51.679367 6.354997 28,425 130 474 2496
2019-10-16 09:54:42 GMT 51.683456 6.347198 28,600 130 474 2368
2019-10-16 09:54:39 GMT 51.688019 6.338443 28,425 129 476 3776
2019-10-16 09:54:36 GMT 51.691956 6.330946 28,250 129 476 3776
2019-10-16 09:54:33 GMT 51.695435 6.324191 28,200 129 477 3840
2019-10-16 09:54:30 GMT 51.700745 6.314021 27,800 130 486 3264
2019-10-16 09:54:27 GMT 51.708691 6.298828 27,675 129 484 3648
2019-10-16 09:54:24 GMT 51.708691 6.298828 27,450 130 486 3392
2019-10-16 09:54:21 GMT 51.712234 6.291974 27,325 130 487 3072
2019-10-16 09:54:18 GMT 51.715904 6.284943 27,175 129 489 2624
2019-10-16 09:54:15 GMT 51.721756 6.273713 27,150 130 489 2176
2019-10-16 09:54:12 GMT 51.725464 6.266661 27,075 130 489 1664
2019-10-16 09:54:09 GMT 51.729126 6.259609 27,025 129 489 1152
2019-10-16 09:54:06 GMT 51.734207 6.249588 27,000 127 485 320
2019-10-16 09:54:03 GMT 51.739647 6.238174 26,900 126 476 320
2019-10-16 09:54:00 GMT 51.742439 6.232147 26,900 126 476 320
2019-10-16 09:53:57 GMT 51.747208 6.221899 26,925 126 477 384
2019-10-16 09:53:54 GMT 51.751190 6.213362 26,900 126 477 320
2019-10-16 09:53:51 GMT 51.754498 6.206284 26,900 126 475 256
2019-10-16 09:53:48 GMT 51.761902 6.190351 26,875 126 470 448
2019-10-16 09:53:42 GMT 51.765198 6.183224 26,850 126 468 512
2019-10-16 09:53:39 GMT 51.770325 6.172238 26,825 126 464 384
2019-10-16 09:53:36 GMT 51.775452 6.161252 26,800 126 461 256
2019-10-16 09:53:33 GMT 51.781357 6.148484 26,650 126 456 384
2019-10-16 09:53:30 GMT 51.781357 6.148484 26,775 126 438 1856
2019-10-16 09:53:27 GMT 51.785934 6.138537 26,750 126 448 192
2019-10-16 09:53:24 GMT 51.788498 6.133043 26,725 126 452 576
2019-10-16 09:53:21 GMT 51.792389 6.124655 26,700 126 451 384
2019-10-16 09:53:18 GMT 51.795975 6.116791 26,700 126 448 128
2019-10-16 09:53:15 GMT 51.800995 6.105875 26,700 126 445 128
2019-10-16 09:53:12 GMT 51.804886 6.097486 26,650 126 441 1088
2019-10-16 09:53:09 GMT 51.807037 6.092810 26,600 126 440 1408
2019-10-16 09:53:06 GMT 51.815460 6.074549 26,425 126 438 1792
2019-10-16 09:53:02 GMT 51.815460 6.074549 26,375 126 438 1792
2019-10-16 09:52:59 GMT 51.820450 6.063711 26,275 126 437 1792
2019-10-16 09:52:56 GMT 51.824387 6.055248 26,225 126 437 1792
2019-10-16 09:52:53 GMT 51.831482 6.039808 25,950 126 418 1728
2019-10-16 09:52:50 GMT 51.831482 6.039808 25,975 126 434 1728
2019-10-16 09:52:47 GMT 51.834286 6.033707 25,925 126 434 1792
2019-10-16 09:52:43 GMT 51.839218 6.022957 25,825 126 433 1792
2019-10-16 09:52:40 GMT 51.843567 6.013456 25,650 126 431 1792
2019-10-16 09:52:37 GMT 51.846222 6.007666 25,625 126 431 1792
2019-10-16 09:52:34 GMT 51.849197 6.001208 25,550 126 431 1792
2019-10-16 09:52:31 GMT 51.852539 5.994007 25,100 126 428 1792
2019-10-16 09:52:28 GMT 51.856659 5.984876 25,400 126 429 1728
2019-10-16 09:52:25 GMT 51.860825 5.975894 25,250 126 428 1792
2019-10-16 09:52:21 GMT 51.864487 5.967877 25,150 126 426 1792
2019-10-16 09:52:18 GMT 51.868057 5.960083 25,025 126 426 1792
2019-10-16 09:52:15 GMT 51.871857 5.951843 24,775 126 425 1728
2019-10-16 09:52:12 GMT 51.876251 5.942267 24,850 126 424 1792
2019-10-16 09:52:08 GMT 51.879627 5.934830 24,700 126 421 1728
2019-10-16 09:52:05 GMT 51.883163 5.927124 24,700 126 421 1728
2019-10-16 09:52:02 GMT 51.886799 5.919266 24,625 126 421 1728
2019-10-16 09:51:59 GMT 51.893780 5.903974 23,425 126 412 2176
2019-10-16 09:51:56 GMT 51.893780 5.903974 23,150 126 418 1792
2019-10-16 09:51:53 GMT 51.897308 5.896225 24,300 126 416 1920
2019-10-16 09:51:50 GMT 51.900787 5.888672 24,225 126 416 1984
2019-10-16 09:51:47 GMT 51.909096 5.870466 24,100 126 415 1984
2019-10-16 09:51:43 GMT 51.909096 5.870466 24,025 126 414 2176
2019-10-16 09:51:40 GMT 51.913193 5.861511 23,875 126 414 2112
2019-10-16 09:51:37 GMT 51.916168 5.855026 23,800 126 414 2176
2019-10-16 09:51:34 GMT 51.919014 5.848807 23,500 126 411 2112
2019-10-16 09:51:31 GMT 51.922085 5.842058 23,575 126 412 2176
2019-10-16 09:51:28 GMT 51.927017 5.831299 23,525 126 412 2112
2019-10-16 09:51:25 GMT 51.930046 5.824637 23,350 126 411 2048
2019-10-16 09:51:22 GMT 51.932980 5.818124 23,225 126 409 2048
2019-10-16 09:51:19 GMT 51.936607 5.810198 23,150 126 409 2176
2019-10-16 09:51:16 GMT 51.939651 5.803528 23,075 126 409 2176
2019-10-16 09:51:13 GMT 51.942810 5.796661 22,950 126 407 2112
2019-10-16 09:51:10 GMT 51.945557 5.790558 22,800 126 406 2048
2019-10-16 09:51:07 GMT 51.949539 5.781784 22,750 126 406 2048
2019-10-16 09:51:04 GMT 51.955975 5.767744 21,925 126 404 2112
2019-10-16 09:51:01 GMT 51.955975 5.767744 22,450 126 404 2112
2019-10-16 09:50:58 GMT 51.959244 5.760498 22,450 126 404 2112
2019-10-16 09:50:55 GMT 51.963192 5.751892 22,325 126 402 2112
2019-10-16 09:50:49 GMT 51.969589 5.737839 22,125 126 400 1920
2019-10-16 09:50:46 GMT 51.972427 5.731583 22,025 126 399 1856
2019-10-16 09:50:43 GMT 51.975632 5.724564 21,775 126 397 1920
2019-10-16 09:50:40 GMT 51.979530 5.715951 21,800 126 397 1984
2019-10-16 09:50:37 GMT 51.982601 5.709202 21,725 126 396 2048
2019-10-16 09:50:34 GMT 51.986389 5.700912 21,400 126 385 2304
2019-10-16 09:50:31 GMT 51.989540 5.693900 21,500 126 393 2176
2019-10-16 09:50:28 GMT 51.992981 5.686340 21,400 126 393 2176
2019-10-16 09:50:25 GMT 51.995266 5.681344 21,325 126 390 2240
2019-10-16 09:50:22 GMT 51.998943 5.673261 21,150 126 390 2240
2019-10-16 09:50:19 GMT 52.001736 5.666983 21,100 126 389 2240
2019-10-16 09:50:16 GMT 52.004482 5.661019 21,000 126 389 2240
2019-10-16 09:50:13 GMT 52.011749 5.644989 20,800 126 388 2304
2019-10-16 09:50:10 GMT 52.014027 5.639910 20,725 126 387 2304
2019-10-16 09:50:04 GMT 52.017750 5.631749 20,525 126 385 2304
2019-10-16 09:50:00 GMT 52.021984 5.622410 20,425 126 384 2240
2019-10-16 09:49:57 GMT 52.028275 5.608521 20,200 126 382 2368
2019-10-16 09:49:54 GMT 52.030876 5.602792 20,125 126 382 2432
2019-10-16 09:49:51 GMT 52.030876 5.602792 19,900 126 381 2624
2019-10-16 09:49:48 GMT 52.034042 5.595703 19,900 125 379 2624
2019-10-16 09:49:45 GMT 52.038094 5.586705 19,725 126 380 2752
2019-10-16 09:49:42 GMT 52.039722 5.583095 19,425 126 380 2688
2019-10-16 09:49:39 GMT 52.043633 5.574384 19,450 125 379 2688
2019-10-16 09:49:36 GMT 52.049313 5.561829 19,050 125 378 2752
2019-10-16 09:49:30 GMT 52.052856 5.553818 19,050 126 377 2880
2019-10-16 09:49:27 GMT 52.056015 5.546875 18,925 126 377 2944
2019-10-16 09:49:24 GMT 52.059265 5.539703 18,825 126 377 2944
2019-10-16 09:49:20 GMT 52.063137 5.530988 18,550 126 377 2624
2019-10-16 09:49:17 GMT 52.067184 5.522156 18,400 126 375 2560
2019-10-16 09:49:14 GMT 52.069748 5.516434 18,300 126 374 2624
2019-10-16 09:49:10 GMT 52.073288 5.508623 18,200 126 374 2624
2019-10-16 09:49:07 GMT 52.076267 5.502032 17,900 126 373 2624
2019-10-16 09:49:04 GMT 52.080132 5.493478 17,800 126 372 2624
2019-10-16 09:49:01 GMT 52.083061 5.486965 17,800 126 372 2624
2019-10-16 09:48:58 GMT 52.085575 5.481471 17,700 126 370 2624
2019-10-16 09:48:55 GMT 52.089203 5.473480 17,350 126 369 2560
2019-10-16 09:48:52 GMT 52.091675 5.467987 17,375 126 368 2560
2019-10-16 09:48:49 GMT 52.095016 5.460587 17,250 126 366 2432
2019-10-16 09:48:46 GMT 52.099358 5.450867 17,050 126 365 2432
2019-10-16 09:48:43 GMT 52.104172 5.440292 16,925 126 362 2368
2019-10-16 09:48:40 GMT 52.104172 5.440292 16,850 126 362 2368
2019-10-16 09:48:37 GMT 52.106480 5.435093 16,725 126 358 2176
2019-10-16 09:48:34 GMT 52.109505 5.428345 16,650 126 359 2240
2019-10-16 09:48:29 GMT 52.114765 5.416731 16,475 126 357 2176
2019-10-16 09:48:26 GMT 52.117558 5.410531 16,425 126 355 2240
2019-10-16 09:48:23 GMT 52.119698 5.405744 16,250 126 352 2496
2019-10-16 09:48:20 GMT 52.127056 5.389343 15,000 125 333 2496
2019-10-16 09:48:17 GMT 52.127056 5.389343 16,000 126 350 2496
2019-10-16 09:48:13 GMT 52.129383 5.384164 15,825 126 348 2496
2019-10-16 09:48:10 GMT 52.132595 5.377023 15,625 125 345 2752
2019-10-16 09:48:07 GMT 52.136307 5.368652 15,450 126 344 2816
2019-10-16 09:48:04 GMT 52.138687 5.363312 15,450 126 344 2816
2019-10-16 09:48:01 GMT 52.140610 5.359116 15,050 126 342 2688
2019-10-16 09:47:58 GMT 52.147491 5.343750 14,950 126 340 2688
2019-10-16 09:47:55 GMT 52.147491 5.343750 14,900 126 339 2688
2019-10-16 09:47:52 GMT 52.149307 5.339737 14,800 126 339 2752
2019-10-16 09:47:49 GMT 52.152695 5.332184 14,650 126 337 2752
2019-10-16 09:47:46 GMT 52.154892 5.327271 14,525 126 336 2752
2019-10-16 09:47:43 GMT 52.157825 5.320757 14,475 126 335 2624
2019-10-16 09:47:40 GMT 52.165100 5.304489 13,875 125 320 3072
2019-10-16 09:47:36 GMT 52.165100 5.304489 13,875 126 331 2880
2019-10-16 09:47:33 GMT 52.166904 5.300432 13,975 126 330 2944
2019-10-16 09:47:29 GMT 52.170769 5.291800 12,950 125 323 2816
2019-10-16 09:47:26 GMT 52.172562 5.287857 13,725 126 327 2816
2019-10-16 09:47:23 GMT 52.178055 5.275497 13,400 125 325 2880
2019-10-16 09:47:20 GMT 52.181625 5.267410 13,350 125 325 2880
2019-10-16 09:47:17 GMT 52.181625 5.267410 13,150 125 323 2816
2019-10-16 09:47:14 GMT 52.183941 5.262216 13,075 125 323 2816
2019-10-16 09:47:11 GMT 52.185699 5.258255 12,975 125 322 2816
2019-10-16 09:47:08 GMT 52.189819 5.249023 12,675 125 320 2944
2019-10-16 09:47:05 GMT 52.191879 5.244370 12,575 125 320 3072
2019-10-16 09:47:02 GMT 52.194927 5.237575 12,450 125 318 2944
2019-10-16 09:46:59 GMT 52.196697 5.233573 12,350 125 318 2944
2019-10-16 09:46:55 GMT 52.202362 5.220795 12,075 126 316 2880
2019-10-16 09:46:52 GMT 52.205357 5.214111 11,825 125 315 2944
2019-10-16 09:46:49 GMT 52.205357 5.214111 11,875 92 289 3200
2019-10-16 09:46:46 GMT 52.208755 5.206499 11,775 126 314 3008
2019-10-16 09:46:43 GMT 52.210289 5.203047 11,350 126 311 3136
2019-10-16 09:46:40 GMT 52.212849 5.197396 11,400 126 313 3136
2019-10-16 09:46:37 GMT 52.215084 5.192374 10,200 126 310 2944
2019-10-16 09:46:34 GMT 52.218018 5.185861 11,075 126 311 3136
2019-10-16 09:46:31 GMT 52.220993 5.179291 10,900 126 311 3136
2019-10-16 09:46:28 GMT 52.223465 5.173776 10,800 126 311 3136
2019-10-16 09:46:24 GMT 52.227608 5.164673 10,525 122 304 2496
2019-10-16 09:46:20 GMT 52.233936 5.151018 10,275 126 307 2432
2019-10-16 09:46:17 GMT 52.233936 5.151018 10,200 126 307 2304
2019-10-16 09:46:14 GMT 52.235275 5.148010 10,050 125 306 2368
2019-10-16 09:46:11 GMT 52.237198 5.143433 9,850 121 304 2624
2019-10-16 09:46:08 GMT 52.239944 5.136265 9,925 120 304 2688
2019-10-16 09:46:05 GMT 52.242325 5.129166 9,725 115 303 2752
2019-10-16 09:46:02 GMT 52.243744 5.124207 9,550 108 302 2560
2019-10-16 09:45:59 GMT 52.245110 5.118687 9,500 109 303 2624
2019-10-16 09:45:56 GMT 52.246647 5.111311 9,200 107 302 2560
2019-10-16 09:45:53 GMT 52.248508 5.097735 9,100 96 301 2432
2019-10-16 09:45:50 GMT 52.248882 5.092791 9,075 96 301 2432
2019-10-16 09:45:43 GMT 52.249302 5.083452 8,875 93 298 2560
2019-10-16 09:45:40 GMT 52.249512 5.075531 8,450 92 294 2624
2019-10-16 09:45:37 GMT 52.249695 5.068817 8,550 92 292 3008
2019-10-16 09:45:33 GMT 52.249924 5.060883 8,450 92 292 2944
2019-10-16 09:45:30 GMT 52.250153 5.052719 8,125 92 291 3392
2019-10-16 09:45:27 GMT 52.250290 5.047150 8,000 92 291 3392
2019-10-16 09:45:24 GMT 52.250473 5.040741 7,625 92 291 3264
2019-10-16 09:45:21 GMT 52.250652 5.034328 7,700 92 291 3264
2019-10-16 09:45:18 GMT 52.250835 5.027658 7,550 92 291 3264
2019-10-16 09:45:15 GMT 52.251022 5.020905 7,400 92 290 3264
2019-10-16 09:45:11 GMT 52.251396 5.005999 7,050 92 289 3200
2019-10-16 09:45:05 GMT 52.251583 4.998622 6,525 92 287 2880
2019-10-16 09:45:02 GMT 52.251766 4.992188 6,750 92 288 2880
2019-10-16 09:44:59 GMT 52.251953 4.984732 6,550 92 286 2688
2019-10-16 09:44:56 GMT 52.252029 4.981079 6,475 92 284 2688
2019-10-16 09:44:53 GMT 52.252213 4.973221 6,375 92 283 2752
2019-10-16 09:44:49 GMT 52.252441 4.963379 6,075 92 280 3008
2019-10-16 09:44:46 GMT 52.252605 4.958444 5,900 92 278 2688
2019-10-16 09:44:43 GMT 52.252716 4.952087 5,850 92 279 2880
2019-10-16 09:44:40 GMT 52.252838 4.946908 5,675 92 277 2688
2019-10-16 09:44:37 GMT 52.253025 4.938276 5,500 92 275 2880
2019-10-16 09:44:34 GMT 52.253304 4.927368 5,325 92 272 2816
2019-10-16 09:44:31 GMT 52.253304 4.927368 4,700 92 262 1600
2019-10-16 09:44:28 GMT 52.253448 4.920731 4,700 92 262 1600
2019-10-16 09:44:25 GMT 52.253582 4.913478 4,825 92 262 1536
2019-10-16 09:44:22 GMT 52.253910 4.900452 4,700 92 257 1856
2019-10-16 09:44:18 GMT 52.253910 4.900452 4,825 92 255 1920
2019-10-16 09:44:14 GMT 52.254089 4.893875 4,675 92 251 2368
2019-10-16 09:44:11 GMT 52.254517 4.881226 4,500 93 248 2816
2019-10-16 09:44:08 GMT 52.254517 4.881226 4,400 93 247 2816
2019-10-16 09:44:05 GMT 52.254608 4.877537 4,300 93 246 2560
2019-10-16 09:44:02 GMT 52.254841 4.871102 4,175 92 215 1152
2019-10-16 09:43:59 GMT 52.255005 4.865570 4,125 93 238 832
2019-10-16 09:43:56 GMT 52.255234 4.858322 4,100 92 234 704
2019-10-16 09:43:53 GMT 52.255325 4.855652 4,025 92 219 1152
2019-10-16 09:43:50 GMT 52.255493 4.850385 4,025 93 224 960
2019-10-16 09:43:46 GMT 52.255726 4.843558 3,925 92 212 1152
2019-10-16 09:43:43 GMT 52.255863 4.838379 3,875 92 208 1088
2019-10-16 09:43:40 GMT 52.256004 4.833749 3,850 92 205 960
2019-10-16 09:43:37 GMT 52.256191 4.825117 3,400 96 182 2560
2019-10-16 09:43:31 GMT 52.256424 4.816642 3,550 94 185 2240
2019-10-16 09:43:28 GMT 52.256424 4.816642 3,450 115 174 2688
2019-10-16 09:43:25 GMT 52.256748 4.812404 3,400 111 176 2688
2019-10-16 09:43:21 GMT 52.257496 4.807068 3,000 107 178 2688
2019-10-16 09:43:18 GMT 52.258347 4.803238 2,550 115 174 2688
2019-10-16 09:43:13 GMT 52.260223 4.797211 2,850 124 171 2560
2019-10-16 09:43:10 GMT 52.261452 4.794355 2,775 126 170 2496
2019-10-16 09:43:07 GMT 52.264709 4.788391 2,575 132 166 2240
2019-10-16 09:43:04 GMT 52.264709 4.788391 2,450 139 162 2240
2019-10-16 09:43:00 GMT 52.266712 4.785645 2,400 142 159 2240
2019-10-16 09:42:57 GMT 52.268295 4.783761 2,300 144 157 2240
2019-10-16 09:42:54 GMT 52.270386 4.781647 2,050 153 155 3008
2019-10-16 09:42:50 GMT 52.272675 4.779816 1,950 156 155 3072
2019-10-16 09:42:47 GMT 52.275089 4.778346 1,825 162 156 2880

Making use of Plane Finder data

You are free to use the raw flight data, aircraft information and images provided in this report for your own purposes provided the data is correctly attributed to Plane Finder. We ask that you please credit Plane Finder and link to planefinder.net in close proximity to the content.

Optionally one of the following logos (no smaller then 150x24px) can be used and must link to planefinder.net

Embedding the Plane Finder map

You are welcome to embed the Plane Finder playback map on your website to offer visitors a more interactive experience. We suggest using the following HTML code:

<iframe src="//planefinder.net/data/report/PC1250-TC-CRE-7700-squawk-2019-10-16/map" width="800" height="600" seamless="seamless"></iframe>

Where our data comes from

Plane Finder has a global network of data feeds and antenna radars that receive data broadcast directly from aircraft. The primary technologies used are ADS-B and MLAT. We also show feeds from the FAA and a FLARM glider feed.

Click here to find out more about the Plane Finder network.

How we collect our data